ftp/pub/palmer/observations_modified/2016/March/AR160318_BASE.txt
Download
Sample DateTime Unit Id WS Avg 2min WD Avg 2min WGS 10min WGD 10min Air Temp Rel Humidity Dew Point Pyranometer Quantum Air Pressure Snow Level Rainfall PW Current Visibility CBase 1 CBase 2 CBase 3 Vert Vis
2016/03/18 00:00:00 BASE 4.15 198 5.56 196 -1.1 78 -4.5 0 0 983.2 NA 0.0000 9999 1840 5380 0 0
2016/03/18 00:01:00 BASE 4.40 199 5.56 196 -1.1 78 -4.4 0 0 983.2 NA 0.0000 9999 5320 0 0 0
2016/03/18 00:02:00 BASE 4.06 193 4.89 205 -1.1 78 -4.5 0 0 983.2 NA 0.0000 9999 1710 2590 5410 0
2016/03/18 00:03:00 BASE 4.11 190 4.89 205 -1.1 78 -4.5 0 0 983.2 NA 0.0000 9999 1840 0 0 0
2016/03/18 00:04:00 BASE 4.53 190 4.99 197 -1.1 78 -4.5 0 0 983.2 NA 0.0000 9999 1800 5280 0 0
2016/03/18 00:05:00 BASE 4.74 190 4.99 203 -1.1 78 -4.5 0 0 983.2 NA 0.0000 9999 1740 2360 0 0
2016/03/18 00:06:00 BASE 4.61 192 4.99 203 -1.1 78 -4.5 0 0 983.2 NA 0.0000 9999 5350 0 0 0
2016/03/18 00:07:00 BASE 4.11 200 4.99 203 -1.1 78 -4.5 0 0 983.2 NA 0.0000 9999 2000 5280 0 0
2016/03/18 00:08:00 BASE 3.47 206 4.99 203 -1.1 78 -4.5 0 0 983.2 NA 0.0000 9999 4630 0 0 0
2016/03/18 00:09:00 BASE 3.17 203 4.99 203 -1.2 78 -4.5 0 0 983.2 NA 0.0000 9999 5320 0 0 0
2016/03/18 00:10:00 BASE 3.42 196 4.99 203 -1.1 78 -4.5 0 0 983.2 NA 0.0000 9999 5380 0 0 0
2016/03/18 00:11:00 BASE 4.12 196 4.99 200 -1.1 78 -4.5 0 0 983.2 NA 0.0000 9999 2300 5380 0 0
2016/03/18 00:12:00 BASE 4.48 193 4.99 200 -1.1 78 -4.5 0 0 983.2 NA 0.0000 9999 3120 5410 0 0
2016/03/18 00:13:00 BASE 4.34 193 4.99 200 -1.1 78 -4.5 0 0 983.2 NA 0.0000 9999 2130 2720 0 0
2016/03/18 00:14:00 BASE 4.34 185 4.99 200 -1.1 78 -4.5 0 0 983.2 NA 0.0000 9999 1900 0 0 0
2016/03/18 00:15:00 BASE 4.20 184 4.99 200 -1.1 78 -4.5 0 0 983.2 NA 0.0000 9999 2070 5180 0 0
2016/03/18 00:16:00 BASE 3.78 183 4.99 200 -1.1 78 -4.5 0 0 983.2 NA 0.0000 9999 5450 0 0 0
2016/03/18 00:17:00 BASE 3.96 183 4.99 191 -1.1 78 -4.5 0 0 983.2 NA 0.0000 9999 2070 0 0 0
2016/03/18 00:18:00 BASE 4.55 190 5.14 200 -1.1 78 -4.4 0 0 983.2 NA 0.0000 9999 5510 0 0 0
2016/03/18 00:19:00 BASE 4.96 190 5.92 206 -1.1 78 -4.4 0 0 983.2 NA 0.0000 9999 5580 0 0 0
2016/03/18 00:20:00 BASE 5.47 195 6.38 215 -1.1 78 -4.5 0 0 983.1 NA 0.0000 9999 2400 5580 0 0
2016/03/18 00:21:00 BASE 6.14 206 7.31 211 -1.1 77 -4.6 0 0 983.1 NA 0.0000 9999 5280 0 0 0
2016/03/18 00:22:00 BASE 6.63 205 7.31 213 -1.1 77 -4.7 0 0 983.1 NA 0.0000 9999 5220 0 0 0
2016/03/18 00:23:00 BASE 6.24 201 7.31 213 -1.2 76 -4.8 0 0 983.2 NA 0.0000 9999 2530 5280 0 0
2016/03/18 00:24:00 BASE 5.88 201 7.31 213 -1.2 76 -4.9 0 0 983.2 NA 0.0000 9999 2460 5380 0 0
2016/03/18 00:25:00 BASE 5.89 202 7.31 213 -1.2 75 -5.0 0 0 983.2 NA 0.0000 9999 5280 0 0 0
2016/03/18 00:26:00 BASE 5.93 202 7.31 213 -1.2 75 -5.1 0 0 983.2 NA 0.0000 9999 5350 0 0 0
2016/03/18 00:27:00 BASE 5.92 202 7.31 213 -1.2 75 -5.1 0 0 983.2 NA 0.0000 9999 2070 5280 0 0
2016/03/18 00:28:00 BASE 5.45 186 7.31 213 -1.1 75 -5.1 0 0 983.2 NA 0.0000 9999 2490 5480 0 0
2016/03/18 00:29:00 BASE 5.60 186 7.31 203 -1.1 75 -5.0 0 0 983.2 NA 0.0000 9999 5350 0 0 0
2016/03/18 00:30:00 BASE 6.46 194 7.77 210 -1.1 75 -5.0 0 0 983.2 NA 0.0000 9999 5350 0 0 0
2016/03/18 00:31:00 BASE 6.67 203 7.77 210 -1.1 75 -4.9 0 0 983.2 NA 0.0000 9999 5350 0 0 0
2016/03/18 00:32:00 BASE 6.29 201 7.77 210 -1.1 75 -4.9 0 0 983.3 NA 0.0000 9999 2260 5380 0 0
2016/03/18 00:33:00 BASE 6.21 191 7.77 210 -1.1 75 -5.0 0 0 983.3 NA 0.0000 9999 2200 5510 0 0
2016/03/18 00:34:00 BASE 6.52 191 7.77 210 -1.1 75 -5.0 0 0 983.3 NA 0.0000 9999 5480 0 0 0
2016/03/18 00:35:00 BASE 6.44 194 7.77 210 -1.1 75 -5.0 0 0 983.3 NA 0.0000 9999 2170 5580 0 0
2016/03/18 00:36:00 BASE 6.06 195 7.77 210 -1.1 75 -5.0 0 0 983.3 NA 0.0000 9999 2000 5580 0 0
2016/03/18 00:37:00 BASE 5.92 194 7.77 210 -1.1 75 -5.0 0 0 983.3 NA 0.0000 9999 2330 5580 0 0
2016/03/18 00:38:00 BASE 5.56 194 7.77 210 -1.1 75 -5.0 0 0 983.3 NA 0.0000 9999 2100 5580 0 0
2016/03/18 00:39:00 BASE 5.34 195 7.77 210 -1.1 75 -5.0 0 0 983.2 NA 0.0000 9999 1970 5640 0 0
2016/03/18 00:40:00 BASE 5.61 193 7.56 200 -1.1 75 -5.0 0 0 983.3 NA 0.0000 9999 5580 0 0 0
2016/03/18 00:41:00 BASE 5.71 193 7.56 200 -1.1 75 -5.0 0 0 983.3 NA 0.0000 9999 5580 0 0 0
2016/03/18 00:42:00 BASE 5.52 192 7.56 200 -1.1 75 -5.0 0 0 983.3 NA 0.0000 9999 5540 0 0 0
2016/03/18 00:43:00 BASE 5.50 192 7.56 200 -1.1 75 -5.0 0 0 983.3 NA 0.0000 9999 5540 0 0 0
2016/03/18 00:44:00 BASE 5.49 196 7.56 200 -1.1 75 -5.0 0 0 983.2 NA 0.0000 9999 5640 0 0 0
2016/03/18 00:45:00 BASE 5.23 182 6.58 220 -1.1 75 -5.0 0 0 983.2 NA 0.0000 9999 5640 0 0 0
2016/03/18 00:46:00 BASE 5.04 182 6.58 220 -1.1 75 -5.0 0 0 983.2 NA 0.0000 9999 5640 0 0 0
2016/03/18 00:47:00 BASE 5.39 189 6.58 220 -1.1 75 -4.9 0 0 983.2 NA 0.0000 9999 2360 5640 0 0
2016/03/18 00:48:00 BASE 5.80 200 6.69 212 -1.1 75 -4.9 0 0 983.2 NA 0.0000 9999 2170 5640 0 0
2016/03/18 00:49:00 BASE 5.98 205 6.69 212 -1.1 76 -4.9 0 0 983.2 NA 0.0000 9999 5540 0 0 0
2016/03/18 00:50:00 BASE 5.98 193 6.69 212 -1.1 76 -4.8 0 0 983.3 NA 0.0000 9999 5540 0 0 0
2016/03/18 00:51:00 BASE 6.09 193 6.89 203 -1.1 76 -4.8 0 0 983.2 NA 0.0000 9999 5480 0 0 0
2016/03/18 00:52:00 BASE 6.43 189 7.31 197 -1.1 76 -4.8 0 0 983.2 NA 0.0000 9999 2130 5510 0 0
2016/03/18 00:53:00 BASE 6.33 188 7.31 197 -1.1 76 -4.8 0 0 983.2 NA 0.0000 9999 5610 0 0 0
2016/03/18 00:54:00 BASE 6.14 188 7.31 197 -1.1 76 -4.8 0 0 983.2 NA 0.0000 9999 3080 5410 0 0
2016/03/18 00:55:00 BASE 6.00 191 7.31 197 -1.1 76 -4.8 0 0 983.2 NA 0.0000 9999 2560 3610 4040 0
2016/03/18 00:56:00 BASE 6.00 193 7.31 197 -1.1 76 -4.8 0 0 983.2 NA 0.0000 9999 1970 0 0 0
2016/03/18 00:57:00 BASE 6.43 193 7.46 204 -1.1 76 -4.8 0 0 983.2 NA 0.0000 9999 1940 0 0 0
2016/03/18 00:58:00 BASE 6.70 192 7.46 204 -1.1 76 -4.8 0 0 983.2 NA 0.0000 9999 1940 0 0 0
2016/03/18 00:59:00 BASE 6.70 192 7.46 204 -1.1 76 -4.8 0 0 983.2 NA 0.0000 9999 1870 0 0 0
2016/03/18 01:00:00 BASE 6.90 198 7.82 212 -1.1 76 -4.8 0 0 983.2 NA 0.0000 9999 1940 0 0 0
2016/03/18 01:01:00 BASE 6.77 195 7.82 212 -1.1 76 -4.8 0 0 983.2 NA 0.0000 9999 1900 0 0 0
2016/03/18 01:02:00 BASE 6.39 185 7.82 212 -1.1 76 -4.8 0 0 983.2 NA 0.0000 9999 2030 0 0 0
2016/03/18 01:03:00 BASE 6.64 185 7.82 212 -1.1 76 -4.8 0 0 983.1 NA 0.0000 9999 2070 4170 0 0
2016/03/18 01:04:00 BASE 6.97 187 7.97 200 -1.1 76 -4.9 0 0 983.1 NA 0.0000 9999 1970 0 0 0
2016/03/18 01:05:00 BASE 7.08 187 7.97 200 -1.1 76 -4.9 0 0 983.1 NA 0.0000 9999 2000 3220 0 0
2016/03/18 01:06:00 BASE 7.13 188 7.97 200 -1.2 75 -5.0 0 0 983.1 NA 0.0000 9999 2820 5770 0 0
2016/03/18 01:07:00 BASE 6.96 188 7.97 200 -1.2 75 -5.0 0 0 983.1 NA 0.0000 9999 2130 2990 0 0
2016/03/18 01:08:00 BASE 6.58 178 7.97 200 -1.2 75 -5.1 0 0 983.1 NA 0.0000 9999 2790 5640 0 0
2016/03/18 01:09:00 BASE 6.63 178 7.97 200 -1.2 75 -5.1 0 0 983.0 NA 0.0000 9999 4040 4950 0 0
2016/03/18 01:10:00 BASE 6.93 169 7.97 200 -1.2 75 -5.1 0 0 983.0 NA 0.0000 9999 2720 0 0 0
2016/03/18 01:11:00 BASE 6.79 169 7.97 200 -1.2 75 -5.1 0 0 983.1 NA 0.0000 9999 2260 0 0 0
2016/03/18 01:12:00 BASE 6.84 185 7.97 200 -1.2 75 -5.1 0 0 983.0 NA 0.0000 9999 1870 2690 0 0
2016/03/18 01:13:00 BASE 7.15 193 8.08 197 -1.2 75 -5.1 0 0 983.0 NA 0.0000 9999 2720 0 0 0
2016/03/18 01:14:00 BASE 6.81 192 8.08 197 -1.2 75 -5.1 0 0 983.0 NA 0.0000 9999 5540 0 0 0
2016/03/18 01:15:00 BASE 5.94 169 8.08 197 -1.2 75 -5.1 0 0 983.0 NA 0.0000 9999 3250 5480 0 0
2016/03/18 01:16:00 BASE 5.36 164 8.08 197 -1.2 75 -5.1 0 0 983.0 NA 0.0000 9999 5180 0 0 0
2016/03/18 01:17:00 BASE 5.38 163 8.08 197 -1.2 75 -5.0 0 0 983.0 NA 0.0000 9999 3220 3870 0 0
2016/03/18 01:18:00 BASE 5.25 163 8.08 197 -1.2 75 -5.0 0 0 982.9 NA 0.0000 9999 1900 2620 0 0
2016/03/18 01:19:00 BASE 5.00 164 8.08 197 -1.2 76 -5.0 0 0 982.9 NA 0.0000 9999 2070 5320 0 0
2016/03/18 01:20:00 BASE 4.74 170 8.08 197 -1.2 76 -4.9 0 0 983.0 NA 0.0000 9999 2070 5220 0 0
2016/03/18 01:21:00 BASE 4.39 169 8.08 197 -1.2 76 -4.9 0 0 983.1 NA 0.0000 9999 2100 5120 0 0
2016/03/18 01:22:00 BASE 4.21 169 8.08 197 -1.2 76 -4.8 0 0 983.1 NA 0.0000 9999 1870 0 0 0
2016/03/18 01:23:00 BASE 4.58 170 7.05 198 -1.2 77 -4.8 0 0 983.0 NA 0.0000 9999 4490 5150 0 0
2016/03/18 01:24:00 BASE 5.13 175 6.07 171 -1.2 77 -4.8 0 0 983.0 NA 0.0000 9999 2300 3350 0 0
2016/03/18 01:25:00 BASE 4.96 167 6.07 171 -1.2 77 -4.7 0 0 982.9 NA 0.0000 9999 2620 3280 0 0
2016/03/18 01:26:00 BASE 4.79 167 6.07 171 -1.2 77 -4.7 0 0 982.9 NA 0.0000 9999 2590 5050 0 0
2016/03/18 01:27:00 BASE 4.93 185 6.02 186 -1.2 77 -4.7 0 0 982.9 NA 0.0000 9999 1970 5090 0 0
2016/03/18 01:28:00 BASE 5.18 187 6.02 186 -1.3 77 -4.7 0 0 982.9 NA 0.0000 9999 1940 2760 0 0
2016/03/18 01:29:00 BASE 5.18 183 6.02 186 -1.3 77 -4.8 0 0 982.9 NA 0.0000 9999 2430 0 0 0
2016/03/18 01:30:00 BASE 4.90 178 6.02 186 -1.3 77 -4.8 0 0 982.9 NA 0.0000 9999 1670 2170 5020 0
2016/03/18 01:31:00 BASE 4.71 178 6.02 186 -1.3 77 -4.8 0 0 982.9 NA 0.0000 9999 5050 0 0 0
2016/03/18 01:32:00 BASE 4.81 183 6.02 186 -1.3 77 -4.8 0 0 982.9 NA 0.0000 9999 5050 0 0 0
2016/03/18 01:33:00 BASE 5.08 183 5.81 197 -1.3 77 -4.7 0 0 982.9 NA 0.0000 9999 5120 0 0 0
2016/03/18 01:34:00 BASE 4.97 187 5.81 197 -1.3 78 -4.7 0 0 982.9 NA 0.0000 9999 2170 3450 3940 0
2016/03/18 01:35:00 BASE 5.28 188 6.38 209 -1.3 78 -4.7 0 0 982.9 NA 0.0000 9999 1940 0 0 0
2016/03/18 01:36:00 BASE 5.76 193 6.38 209 -1.3 78 -4.6 0 0 982.9 NA 0.0000 9999 2260 5220 0 0
2016/03/18 01:37:00 BASE 5.81 191 6.38 213 -1.3 78 -4.6 0 0 982.9 NA 0.0000 9999 2360 0 0 0
2016/03/18 01:38:00 BASE 5.79 191 6.84 198 -1.3 78 -4.6 0 0 982.9 NA 0.0000 9999 2030 0 0 0
2016/03/18 01:39:00 BASE 5.82 197 6.84 198 -1.3 78 -4.6 0 0 982.9 NA 0.0000 9999 2690 0 0 0
2016/03/18 01:40:00 BASE 5.85 198 6.84 198 -1.3 78 -4.7 0 0 982.9 NA 0.0000 9999 2330 0 0 0
2016/03/18 01:41:00 BASE 5.75 198 6.84 217 -1.3 78 -4.7 0 0 982.9 NA 0.0000 9999 2130 0 0 0
2016/03/18 01:42:00 BASE 5.44 193 6.84 217 -1.3 77 -4.7 0 0 982.9 NA 0.0000 9999 1770 0 0 0
2016/03/18 01:43:00 BASE 5.83 188 7.36 201 -1.2 77 -4.7 0 0 982.9 NA 0.0000 9999 2100 0 0 0
2016/03/18 01:44:00 BASE 6.79 188 8.80 219 -1.2 77 -4.7 0 0 982.9 NA 0.0000 9999 5090 0 0 0
2016/03/18 01:45:00 BASE 7.42 197 8.80 219 -1.2 77 -4.8 0 0 982.9 NA 0.0000 9999 5050 0 0 0
2016/03/18 01:46:00 BASE 7.22 197 8.80 219 -1.2 77 -4.8 0 0 982.9 NA 0.0000 9999 5090 0 0 0
2016/03/18 01:47:00 BASE 6.34 197 8.80 219 -1.3 76 -4.9 0 0 982.9 NA 0.0000 9999 5090 0 0 0
2016/03/18 01:48:00 BASE 5.97 203 8.80 219 -1.3 76 -4.9 0 0 982.9 NA 0.0000 9999 5180 0 0 0
2016/03/18 01:49:00 BASE 6.16 204 8.80 219 -1.3 76 -5.0 0 0 982.8 NA 0.0000 9999 5090 0 0 0
2016/03/18 01:50:00 BASE 5.85 203 8.80 219 -1.3 76 -5.0 0 0 982.8 NA 0.0000 9999 5090 0 0 0
2016/03/18 01:51:00 BASE 5.58 203 8.80 219 -1.3 76 -5.0 0 0 982.8 NA 0.0000 9999 5090 0 0 0
2016/03/18 01:52:00 BASE 6.43 210 8.80 219 -1.3 75 -5.1 0 0 982.7 NA 0.0000 9999 5050 0 0 0
2016/03/18 01:53:00 BASE 7.10 210 8.80 219 -1.3 75 -5.2 0 0 982.7 NA 0.0000 9999 5050 0 0 0
2016/03/18 01:54:00 BASE 7.53 211 8.75 214 -1.3 74 -5.3 0 0 982.7 NA 0.0000 9999 5090 0 0 0
2016/03/18 01:55:00 BASE 7.54 214 8.44 225 -1.4 74 -5.4 0 0 982.7 NA 0.0000 9999 5020 0 0 0
2016/03/18 01:56:00 BASE 7.33 211 8.44 225 -1.4 74 -5.5 0 0 982.7 NA 0.0000 9999 4890 0 0 0
2016/03/18 01:57:00 BASE 7.04 209 8.44 225 -1.4 73 -5.6 0 0 982.7 NA 0.0000 9999 5050 0 0 0
2016/03/18 01:58:00 BASE 6.43 203 8.44 225 -1.4 73 -5.7 0 0 982.8 NA 0.0000 9999 5020 0 0 0
2016/03/18 01:59:00 BASE 6.38 203 8.44 225 -1.4 73 -5.7 0 0 982.8 NA 0.0000 9999 5020 0 0 0
2016/03/18 02:00:00 BASE 7.29 203 8.75 206 -1.4 73 -5.7 0 0 982.7 NA 0.0000 9999 4660 0 0 0
2016/03/18 02:01:00 BASE 8.29 201 9.11 204 -1.4 73 -5.7 0 0 982.7 NA 0.0000 9999 4890 0 0 0
2016/03/18 02:02:00 BASE 8.43 200 9.11 204 -1.4 73 -5.6 0 0 982.8 NA 0.0000 9999 5090 0 0 0
2016/03/18 02:03:00 BASE 8.00 200 9.11 204 -1.3 73 -5.6 0 0 982.8 NA 0.0000 9999 5250 0 0 0
2016/03/18 02:04:00 BASE 7.72 200 9.11 204 -1.3 73 -5.6 0 0 982.8 NA 0.0000 9999 5320 0 0 0
2016/03/18 02:05:00 BASE 7.40 190 9.11 204 -1.3 73 -5.6 0 0 982.8 NA 0.0000 9999 5250 0 0 0
2016/03/18 02:06:00 BASE 6.87 190 9.11 204 -1.3 73 -5.6 0 0 982.8 NA 0.0000 9999 5320 0 0 0
2016/03/18 02:07:00 BASE 6.56 192 9.11 204 -1.4 73 -5.5 0 0 982.8 NA 0.0000 9999 5250 0 0 0
2016/03/18 02:08:00 BASE 6.57 192 9.11 204 -1.4 73 -5.5 0 0 982.8 NA 0.0000 9999 5220 0 0 0
2016/03/18 02:09:00 BASE 6.51 195 9.11 204 -1.4 74 -5.5 0 0 982.8 NA 0.0000 9999 5220 0 0 0
2016/03/18 02:10:00 BASE 6.36 201 9.11 204 -1.4 74 -5.5 0 0 982.8 NA 0.0000 9999 5180 0 0 0
2016/03/18 02:11:00 BASE 6.66 201 8.75 208 -1.4 74 -5.4 0 0 982.8 NA 0.0000 9999 5150 0 0 0
2016/03/18 02:12:00 BASE 7.40 204 8.49 206 -1.4 74 -5.4 0 0 982.8 NA 0.0000 9999 5180 0 0 0
2016/03/18 02:13:00 BASE 7.55 195 8.49 206 -1.4 74 -5.4 0 0 982.8 NA 0.0000 9999 5220 0 0 0
2016/03/18 02:14:00 BASE 7.15 195 8.23 204 -1.4 75 -5.3 0 0 982.8 NA 0.0000 9999 5090 0 0 0
2016/03/18 02:15:00 BASE 6.58 195 8.23 204 -1.4 75 -5.3 0 0 982.8 NA 0.0000 9999 5090 0 0 0
2016/03/18 02:16:00 BASE 6.36 195 8.23 204 -1.4 75 -5.3 0 0 982.8 NA 0.0000 9999 2360 5090 0 0
2016/03/18 02:17:00 BASE 6.47 191 8.23 204 -1.4 75 -5.3 0 0 982.7 NA 0.0000 9999 5220 0 0 0
2016/03/18 02:18:00 BASE 6.61 191 8.23 204 -1.4 75 -5.3 0 0 982.7 NA 0.0000 9999 5250 0 0 0
2016/03/18 02:19:00 BASE 7.03 189 8.23 204 -1.5 75 -5.2 0 0 982.7 NA 0.0000 9999 1800 5380 0 0
2016/03/18 02:20:00 BASE 7.09 189 8.23 204 -1.5 76 -5.2 0 0 982.7 NA 0.0000 9999 5320 0 0 0
2016/03/18 02:21:00 BASE 7.20 190 8.23 204 -1.5 76 -5.2 0 0 982.7 NA 0.0000 9999 5320 0 0 0
2016/03/18 02:22:00 BASE 7.55 191 8.23 204 -1.5 76 -5.2 0 0 982.7 NA 0.0000 9999 2330 5510 0 0
2016/03/18 02:23:00 BASE 7.43 193 7.97 197 -1.5 75 -5.3 0 0 982.7 NA 0.0000 9999 2070 0 0 0
2016/03/18 02:24:00 BASE 6.88 187 7.97 197 -1.5 75 -5.3 0 0 982.7 NA 0.0000 9999 1800 0 0 0
2016/03/18 02:25:00 BASE 6.36 187 7.97 197 -1.5 75 -5.3 0 0 982.7 NA 0.0000 9999 5580 0 0 0
2016/03/18 02:26:00 BASE 6.31 174 7.97 197 -1.5 75 -5.3 0 0 982.7 NA 0.0000 9999 1410 2000 5640 0
2016/03/18 02:27:00 BASE 6.33 167 7.97 197 -1.4 75 -5.2 0 0 982.7 NA 0.0000 9999 1710 2400 0 0
2016/03/18 02:28:00 BASE 5.92 167 7.97 197 -1.4 76 -5.1 0 0 982.7 NA 0.0000 9999 1280 0 0 0
2016/03/18 02:29:00 BASE 5.27 154 7.97 197 -1.4 76 -5.0 0 0 982.7 NA 0.0000 9999 1510 0 0 0
2016/03/18 02:30:00 BASE 4.90 154 7.97 197 -1.3 77 -4.8 0 0 982.7 NA 0.0000 9999 2070 5450 0 0
2016/03/18 02:31:00 BASE 4.96 158 7.92 198 -1.3 78 -4.7 0 0 982.7 NA 0.0000 9999 1840 0 0 0
2016/03/18 02:32:00 BASE 5.04 168 7.72 203 -1.3 78 -4.6 0 0 982.7 NA 0.0000 9999 1840 2490 5640 0
2016/03/18 02:33:00 BASE 5.45 169 7.15 195 -1.3 79 -4.5 0 0 982.7 NA 0.0000 9999 2030 5640 0 0
2016/03/18 02:34:00 BASE 5.49 169 7.00 197 -1.4 79 -4.5 0 0 982.7 NA 0.0000 9999 2400 0 0 0
2016/03/18 02:35:00 BASE 5.48 169 7.00 197 -1.4 80 -4.5 0 0 982.6 NA 0.0000 9999 1870 2920 0 0
2016/03/18 02:36:00 BASE 5.65 157 6.84 176 -1.5 80 -4.5 0 0 982.7 NA 0.0000 9999 2100 2690 0 0
2016/03/18 02:37:00 BASE 5.20 157 6.69 177 -1.5 80 -4.4 0 0 982.6 NA 0.0000 9999 1120 1870 0 0
2016/03/18 02:38:00 BASE 4.86 159 6.69 177 -1.5 80 -4.4 0 0 982.6 NA 0.0000 9999 2300 0 0 0
2016/03/18 02:39:00 BASE 4.78 160 6.69 177 -1.5 81 -4.4 0 0 982.6 NA 0.0000 9999 2030 2490 0 0
2016/03/18 02:40:00 BASE 4.87 160 6.69 177 -1.5 81 -4.4 0 0 982.6 NA 0.0000 9999 1900 2820 0 0
2016/03/18 02:41:00 BASE 5.08 160 6.69 177 -1.6 81 -4.3 0 0 982.6 NA 0.0000 9999 1740 3180 0 0
2016/03/18 02:42:00 BASE 5.47 163 6.69 177 -1.6 82 -4.3 0 0 982.6 NA 0.0000 9999 2170 0 0 0
2016/03/18 02:43:00 BASE 5.89 163 7.05 185 -1.6 82 -4.3 0 0 982.6 NA 0.0000 9999 1870 0 0 0
2016/03/18 02:44:00 BASE 6.28 175 7.15 187 -1.6 82 -4.3 0 0 982.6 NA 0.0000 9999 1670 2790 0 0
2016/03/18 02:45:00 BASE 6.44 176 7.15 187 -1.6 82 -4.3 0 0 982.6 NA 0.0000 9999 1510 2130 0 0
2016/03/18 02:46:00 BASE 6.01 168 7.15 187 -1.7 82 -4.3 0 0 982.6 NA 0.0000 9999 2170 0 0 0
2016/03/18 02:47:00 BASE 5.33 168 7.15 187 -1.7 82 -4.3 0 0 982.6 NA 0.0000 9999 2360 5640 0 0
2016/03/18 02:48:00 BASE 5.28 169 7.15 187 -1.7 82 -4.4 0 0 982.6 NA 0.0000 9999 2790 3840 4270 0
2016/03/18 02:49:00 BASE 5.57 176 7.15 187 -1.7 82 -4.3 0 0 982.5 NA 0.0000 9999 2990 0 0 0
2016/03/18 02:50:00 BASE 5.84 178 7.25 180 -1.7 82 -4.3 0 0 982.5 NA 0.0000 9999 3410 4400 5480 0
2016/03/18 02:51:00 BASE 5.90 172 7.25 180 -1.7 83 -4.3 0 0 982.6 NA 0.0000 9999 5610 0 0 0
2016/03/18 02:52:00 BASE 5.93 172 7.25 180 -1.7 83 -4.2 0 0 982.6 NA 0.0000 9999 5510 0 0 0
2016/03/18 02:53:00 BASE 6.30 177 7.25 180 -1.7 83 -4.2 0 0 982.6 NA 0.0000 9999 2760 5450 0 0
2016/03/18 02:54:00 BASE 6.50 182 7.25 180 -1.7 83 -4.2 0 0 982.6 NA 0.0000 9999 2330 5580 0 0
2016/03/18 02:55:00 BASE 6.66 186 7.51 195 -1.7 83 -4.2 0 0 982.5 NA 0.0000 9999 4690 5250 0 0
2016/03/18 02:56:00 BASE 6.98 186 8.08 202 -1.7 83 -4.2 0 0 982.5 NA 0.0000 9999 5320 0 0 0
2016/03/18 02:57:00 BASE 7.35 191 8.28 197 -1.7 83 -4.3 0 0 982.5 NA 0.0000 9999 2300 2690 0 0
2016/03/18 02:58:00 BASE 6.88 189 8.28 197 -1.7 82 -4.3 0 0 982.6 NA 0.0000 9999 1510 5640 0 0
2016/03/18 02:59:00 BASE 6.00 181 8.28 197 -1.7 82 -4.3 0 0 982.6 NA 0.0000 9999 1670 5680 0 0
2016/03/18 03:00:00 BASE 5.84 181 8.28 197 -1.7 82 -4.3 0 0 982.5 NA 0.0000 9999 1380 0 0 0
2016/03/18 03:01:00 BASE 6.71 183 8.28 197 -1.7 82 -4.3 0 0 982.6 NA 0.0000 9999 2100 5150 0 0
2016/03/18 03:02:00 BASE 7.48 194 8.28 197 -1.7 82 -4.3 0 0 982.5 NA 0.0000 9999 1380 2000 0 0
2016/03/18 03:03:00 BASE 7.92 195 8.90 198 -1.7 82 -4.3 0 0 982.5 NA 0.0000 9999 1280 2030 0 0
2016/03/18 03:04:00 BASE 8.52 195 9.21 207 -1.7 82 -4.3 0 0 982.4 NA 0.0000 9999 2200 4300 0 0
2016/03/18 03:05:00 BASE 8.43 197 9.36 206 -1.8 82 -4.4 0 0 982.5 NA 0.0000 9999 4200 0 0 0
2016/03/18 03:06:00 BASE 7.83 198 9.36 206 -1.8 81 -4.6 0 0 982.4 NA 0.0000 9999 4430 0 0 0
2016/03/18 03:07:00 BASE 7.90 193 9.36 206 -1.8 81 -4.7 0 0 982.4 NA 0.0000 9999 4820 0 0 0
2016/03/18 03:08:00 BASE 7.75 193 9.36 206 -1.9 80 -4.8 0 0 982.5 NA 0.0000 9999 5480 0 0 0
2016/03/18 03:09:00 BASE 7.38 196 9.36 206 -1.9 80 -4.9 0 0 982.4 NA 0.0000 9999 5450 0 0 0
2016/03/18 03:10:00 BASE 7.43 197 9.36 206 -1.9 79 -5.0 0 0 982.4 NA 0.0000 9999 5510 0 0 0
2016/03/18 03:11:00 BASE 7.49 194 9.36 206 -1.9 79 -5.1 0 0 982.5 NA 0.0000 9999 5480 0 0 0
2016/03/18 03:12:00 BASE 7.53 194 9.36 206 -1.9 78 -5.1 0 0 982.4 NA 0.0000 9999 5350 0 0 0
2016/03/18 03:13:00 BASE 7.61 201 9.36 206 -1.8 78 -5.1 0 0 982.4 NA 0.0000 9999 4890 0 0 0
2016/03/18 03:14:00 BASE 7.72 198 9.36 206 -1.8 78 -5.2 0 0 982.4 NA 0.0000 9999 5450 0 0 0
2016/03/18 03:15:00 BASE 7.77 198 9.05 207 -1.8 78 -5.2 0 0 982.4 NA 0.0000 9999 5220 0 0 0
2016/03/18 03:16:00 BASE 7.77 195 9.05 207 -1.8 77 -5.2 0 0 982.4 NA 0.0000 9999 5540 0 0 0
2016/03/18 03:17:00 BASE 7.32 188 9.05 207 -1.8 77 -5.2 0 0 982.4 NA 0.0000 9999 5480 0 0 0
2016/03/18 03:18:00 BASE 6.51 188 9.05 207 -1.8 77 -5.2 0 0 982.5 NA 0.0000 9999 5380 0 0 0
2016/03/18 03:19:00 BASE 6.53 194 9.11 197 -1.7 78 -5.1 0 0 982.4 NA 0.0000 9999 5220 0 0 0
2016/03/18 03:20:00 BASE 7.58 194 9.11 197 -1.7 78 -5.0 0 0 982.4 NA 0.0000 9999 5350 0 0 0
2016/03/18 03:21:00 BASE 7.46 193 9.11 197 -1.7 78 -5.0 0 0 982.5 NA 0.0000 9999 5250 0 0 0
2016/03/18 03:22:00 BASE 7.23 192 9.11 197 -1.7 78 -4.9 0 0 982.4 NA 0.0000 9999 2760 5350 0 0
2016/03/18 03:23:00 BASE 7.34 189 9.11 197 -1.7 78 -5.0 0 0 982.5 NA 0.0000 9999 2660 5380 0 0
2016/03/18 03:24:00 BASE 7.25 189 9.11 197 -1.7 78 -5.0 0 0 982.4 NA 0.0000 9999 2820 5380 0 0
2016/03/18 03:25:00 BASE 7.68 185 9.11 197 -1.7 78 -5.0 0 0 982.4 NA 0.0000 9999 1480 2760 5510 0
2016/03/18 03:26:00 BASE 8.06 185 9.11 197 -1.7 79 -4.9 0 0 982.4 NA 0.0000 9999 2820 0 0 0
2016/03/18 03:27:00 BASE 8.23 191 9.11 197 -1.7 79 -4.9 0 0 982.4 NA 0.0000 9999 5480 0 0 0
2016/03/18 03:28:00 BASE 8.06 197 9.11 197 -1.7 79 -4.8 0 0 982.4 NA 0.0000 9999 5510 0 0 0
2016/03/18 03:29:00 BASE 8.14 194 9.16 196 -1.7 80 -4.8 0 0 982.3 NA 0.0000 9999 1440 5320 0 0
2016/03/18 03:30:00 BASE 8.32 194 9.16 196 -1.8 80 -4.8 0 0 982.3 NA 0.0000 9999 5280 0 0 0
2016/03/18 03:31:00 BASE 8.39 188 9.16 196 -1.8 80 -4.8 0 0 982.4 NA 0.0000 9999 1380 5580 0 0
2016/03/18 03:32:00 BASE 8.38 188 9.16 196 -1.8 80 -4.8 0 0 982.4 NA 0.0000 9999 1510 5320 0 0
2016/03/18 03:33:00 BASE 8.12 194 9.16 196 -1.8 80 -4.8 0 0 982.4 NA 0.0000 9999 1380 0 0 0
2016/03/18 03:34:00 BASE 8.04 196 9.16 196 -1.8 80 -4.8 0 0 982.4 NA 0.0000 9999 1540 5350 0 0
2016/03/18 03:35:00 BASE 8.00 191 9.16 196 -1.8 80 -4.7 0 0 982.4 NA 0.0000 9999 5540 0 0 0
2016/03/18 03:36:00 BASE 8.01 190 9.16 196 -1.8 80 -4.7 0 0 982.4 NA 0.0000 9999 5610 0 0 0
2016/03/18 03:37:00 BASE 8.12 187 9.16 196 -1.8 80 -4.7 0 0 982.4 NA 0.0000 9999 1610 5740 0 0
2016/03/18 03:38:00 BASE 8.02 187 9.31 202 -1.8 80 -4.7 0 0 982.4 NA 0.0000 9999 1770 5640 0 0
2016/03/18 03:39:00 BASE 7.30 197 9.31 202 -1.8 80 -4.8 0 0 982.4 NA 0.0000 9999 1740 3080 0 0
2016/03/18 03:40:00 BASE 6.74 197 9.31 202 -1.8 80 -4.8 0 0 982.4 NA 0.0000 9999 3310 5540 0 0
2016/03/18 03:41:01 BASE 6.85 198 9.31 202 -1.8 80 -4.7 0 0 982.4 NA 0.0000 9999 2400 2920 5540 0
2016/03/18 03:42:00 BASE 7.36 202 9.31 202 -1.7 80 -4.7 0 0 982.4 NA 0.0000 9999 1840 0 0 0
2016/03/18 03:43:00 BASE 8.37 190 9.77 198 -1.7 80 -4.8 0 0 982.4 NA 0.0000 9999 2000 2820 0 0
2016/03/18 03:44:00 BASE 9.30 190 10.34 195 -1.7 79 -4.8 0 0 982.3 NA 0.0000 9999 2850 0 0 0
2016/03/18 03:45:00 BASE 9.70 190 10.34 195 -1.8 79 -4.9 0 0 982.3 NA 0.0000 9999 3020 0 0 0
2016/03/18 03:46:00 BASE 9.94 191 10.55 196 -1.8 78 -5.1 0 0 982.3 NA 0.0000 9999 3480 0 0 0
2016/03/18 03:47:00 BASE 9.72 189 10.55 196 -1.8 78 -5.2 0 0 982.3 NA 0.0000 UP 9999 3810 4560 0 0
2016/03/18 03:48:00 BASE 9.35 189 10.55 196 -1.9 77 -5.3 0 0 982.3 NA 0.0000 UP 9999 2890 5150 0 0
2016/03/18 03:49:00 BASE 9.63 192 10.75 197 -1.9 77 -5.4 0 0 982.3 NA 0.0000 UP 9999 4660 0 0 0
2016/03/18 03:50:00 BASE 9.59 192 10.75 197 -1.9 76 -5.5 0 0 982.3 NA 0.0000 UP 9999 2030 4560 0 0
2016/03/18 03:51:00 BASE 9.19 194 10.75 197 -1.8 76 -5.5 0 0 982.3 NA 0.0000 UP 9999 4630 5280 0 0
2016/03/18 03:52:00 BASE 9.22 196 11.42 204 -1.8 76 -5.5 0 0 982.2 NA 0.0000 UP 9999 4760 5320 0 0
2016/03/18 03:53:00 BASE 9.71 191 11.42 204 -1.8 76 -5.5 0 0 982.2 NA 0.0000 UP 9999 4820 0 0 0
2016/03/18 03:54:00 BASE 10.02 191 11.42 204 -1.8 76 -5.5 0 0 982.2 NA 0.0000 UP 9999 4790 0 0 0
2016/03/18 03:55:00 BASE 9.68 192 11.42 204 -1.8 75 -5.6 0 0 982.2 NA 0.0000 UP 9999 2130 4820 0 0
2016/03/18 03:56:00 BASE 8.94 195 11.42 204 -1.8 75 -5.7 0 0 982.3 NA 0.0000 UP 9999 4690 0 0 0
2016/03/18 03:57:00 BASE 8.74 199 11.42 204 -1.8 74 -5.7 0 0 982.3 NA 0.0000 UP 9999 4760 0 0 0
2016/03/18 03:58:00 BASE 8.97 200 11.42 204 -1.8 74 -5.8 0 0 982.3 NA 0.0000 9999 4560 0 0 0
2016/03/18 03:59:00 BASE 8.95 194 11.42 204 -1.8 74 -5.8 0 0 982.2 NA 0.0000 9999 4560 0 0 0
2016/03/18 04:00:00 BASE 9.18 189 11.42 204 -1.8 74 -5.8 0 0 982.2 NA 0.0000 9999 4690 0 0 0
2016/03/18 04:01:00 BASE 9.86 189 11.42 204 -1.8 74 -5.8 0 0 982.2 NA 0.0000 9999 1870 4720 0 0
2016/03/18 04:02:00 BASE 9.52 194 11.37 201 -1.7 74 -5.7 0 0 982.2 NA 0.0000 9999 4790 0 0 0
2016/03/18 04:03:00 BASE 9.52 195 11.37 201 -1.7 74 -5.6 0 0 982.2 NA 0.0000 9999 4920 0 0 0
2016/03/18 04:04:00 BASE 10.22 194 11.42 208 -1.7 75 -5.5 0 0 982.2 NA 0.0000 9999 4950 0 0 0
2016/03/18 04:05:00 BASE 10.14 194 11.42 208 -1.7 75 -5.5 0 0 982.2 NA 0.0000 9999 5050 0 0 0
2016/03/18 04:06:00 BASE 9.79 191 11.42 208 -1.7 76 -5.4 0 0 982.2 NA 0.0000 9999 5150 0 0 0
2016/03/18 04:07:00 BASE 9.35 191 11.42 208 -1.7 76 -5.4 0 0 982.2 NA 0.0000 9999 5180 0 0 0
2016/03/18 04:08:00 BASE 9.50 191 11.42 208 -1.7 76 -5.4 0 0 982.2 NA 0.0000 9999 5220 0 0 0
2016/03/18 04:09:00 BASE 10.01 191 11.42 208 -1.7 76 -5.4 0 0 982.2 NA 0.0000 9999 5280 0 0 0
2016/03/18 04:10:00 BASE 9.71 189 11.42 208 -1.8 76 -5.5 0 0 982.2 NA 0.0000 9999 5320 0 0 0
2016/03/18 04:11:00 BASE 9.23 189 11.42 208 -1.8 75 -5.6 0 0 982.2 NA 0.0000 9999 5220 0 0 0
2016/03/18 04:12:00 BASE 9.03 189 11.42 208 -1.8 75 -5.7 0 0 982.2 NA 0.0000 9999 5280 0 0 0
2016/03/18 04:13:00 BASE 8.74 188 11.42 208 -1.8 74 -5.8 0 0 982.2 NA 0.0000 9999 5250 0 0 0
2016/03/18 04:14:00 BASE 8.67 188 10.96 208 -1.8 74 -5.8 0 0 982.2 NA 0.0000 9999 5220 0 0 0
2016/03/18 04:15:00 BASE 8.59 189 10.91 199 -1.8 74 -5.8 0 0 982.2 NA 0.0000 9999 5220 0 0 0
2016/03/18 04:16:00 BASE 8.55 186 10.91 199 -1.7 74 -5.8 0 0 982.2 NA 0.0000 9999 5250 0 0 0
2016/03/18 04:17:00 BASE 8.58 186 10.91 199 -1.7 74 -5.8 0 0 982.2 NA 0.0000 9999 5150 0 0 0
2016/03/18 04:18:00 BASE 8.74 194 10.91 199 -1.7 74 -5.8 0 0 982.1 NA 0.0000 9999 5090 0 0 0
2016/03/18 04:19:00 BASE 8.29 194 10.70 193 -1.7 73 -5.8 0 0 982.2 NA 0.0000 9999 5220 0 0 0
2016/03/18 04:20:00 BASE 7.95 191 10.70 193 -1.7 73 -5.8 0 0 982.1 NA 0.0000 9999 5150 0 0 0
2016/03/18 04:21:00 BASE 8.51 191 10.85 202 -1.6 73 -5.8 0 0 982.1 NA 0.0000 9999 5150 0 0 0
2016/03/18 04:22:00 BASE 9.31 196 11.21 203 -1.6 74 -5.7 0 0 982.1 NA 0.0000 9999 5120 0 0 0
2016/03/18 04:23:00 BASE 9.92 198 11.21 203 -1.6 74 -5.7 0 0 982.1 NA 0.0000 9999 5090 0 0 0
2016/03/18 04:24:00 BASE 9.82 195 11.21 203 -1.7 74 -5.7 0 0 982.1 NA 0.0000 9999 5090 0 0 0
2016/03/18 04:25:00 BASE 9.68 195 11.21 203 -1.7 74 -5.7 0 0 982.1 NA 0.0000 9999 5050 0 0 0
2016/03/18 04:26:00 BASE 9.24 197 11.21 203 -1.7 74 -5.7 0 0 982.1 NA 0.0000 9999 5050 0 0 0
2016/03/18 04:27:00 BASE 9.88 192 11.78 198 -1.8 75 -5.7 0 0 982.0 NA 0.0000 9999 4950 0 0 0
2016/03/18 04:28:00 BASE 11.19 192 12.40 197 -1.8 75 -5.7 0 0 982.0 NA 0.0000 9999 4990 0 0 0
2016/03/18 04:29:00 BASE 11.53 195 12.40 198 -1.8 75 -5.6 0 0 982.0 NA 0.0000 9999 5050 0 0 0
2016/03/18 04:30:00 BASE 11.57 193 12.40 198 -1.8 75 -5.7 0 0 982.0 NA 0.0000 9999 5090 0 0 0
2016/03/18 04:31:01 BASE 11.18 193 12.40 198 -1.8 75 -5.7 0 0 982.0 NA 0.0000 9999 5090 0 0 0
2016/03/18 04:32:00 BASE 10.69 194 12.40 198 -1.9 74 -5.8 0 0 982.0 NA 0.0000 9999 5120 0 0 0
2016/03/18 04:33:00 BASE 10.27 192 12.40 198 -1.9 74 -5.9 0 0 982.1 NA 0.0000 9999 5090 0 0 0
2016/03/18 04:34:00 BASE 10.67 192 12.40 198 -1.9 74 -6.0 0 0 982.1 NA 0.0000 9999 5150 0 0 0
2016/03/18 04:35:00 BASE 11.06 193 12.40 198 -1.9 73 -6.1 0 0 982.0 NA 0.0000 9999 5090 0 0 0
2016/03/18 04:36:01 BASE 10.59 195 12.40 198 -1.9 73 -6.1 0 0 982.1 NA 0.0000 9999 5150 0 0 0
2016/03/18 04:37:00 BASE 9.75 194 12.40 198 -1.9 72 -6.2 0 0 982.2 NA 0.0000 9999 5150 0 0 0
2016/03/18 04:38:00 BASE 8.87 194 12.40 198 -1.9 72 -6.3 0 0 982.2 NA 0.0000 9999 5220 0 0 0
2016/03/18 04:39:00 BASE 8.58 194 12.04 197 -1.9 71 -6.3 0 0 982.2 NA 0.0000 9999 5180 0 0 0
2016/03/18 04:40:00 BASE 8.97 189 12.04 197 -1.8 71 -6.4 0 0 982.1 NA 0.0000 9999 5220 0 0 0
2016/03/18 04:41:00 BASE 8.87 180 12.04 197 -1.8 71 -6.4 0 0 982.1 NA 0.0000 9999 5220 0 0 0
2016/03/18 04:42:00 BASE 8.96 180 12.04 197 -1.8 71 -6.4 0 0 982.1 NA 0.0000 9999 2460 5250 0 0
2016/03/18 04:43:00 BASE 9.73 181 12.04 197 -1.8 70 -6.5 0 0 982.1 NA 0.0000 9999 5150 0 0 0
2016/03/18 04:44:00 BASE 10.10 193 11.73 196 -1.8 70 -6.5 0 0 982.1 NA 0.0000 9999 5150 0 0 0
2016/03/18 04:45:00 BASE 10.28 194 11.42 203 -1.8 70 -6.6 0 0 982.1 NA 0.0000 9999 5220 0 0 0
2016/03/18 04:46:00 BASE 9.84 195 11.42 203 -1.8 69 -6.6 0 0 982.1 NA 0.0000 9999 5250 0 0 0
2016/03/18 04:47:00 BASE 9.30 195 11.42 203 -1.8 69 -6.7 0 0 982.2 NA 0.0000 9999 5280 0 0 0
2016/03/18 04:48:00 BASE 9.18 197 11.42 203 -1.7 69 -6.6 0 0 982.2 NA 0.0000 9999 5180 0 0 0
2016/03/18 04:49:00 BASE 9.91 196 11.47 202 -1.7 69 -6.6 0 0 982.1 NA 0.0000 9999 5220 0 0 0
2016/03/18 04:50:00 BASE 10.64 190 12.04 198 -1.7 69 -6.6 0 0 982.1 NA 0.0000 9999 5180 0 0 0
2016/03/18 04:51:00 BASE 9.86 184 12.04 198 -1.7 69 -6.6 0 0 982.1 NA 0.0000 9999 2530 5250 0 0
2016/03/18 04:52:00 BASE 9.52 184 12.04 198 -1.7 69 -6.7 0 0 982.1 NA 0.0000 9999 2490 5320 0 0
2016/03/18 04:53:00 BASE 10.69 194 12.04 198 -1.7 69 -6.7 0 0 982.1 NA 0.0000 9999 5250 0 0 0
2016/03/18 04:54:00 BASE 11.13 196 12.04 198 -1.7 69 -6.8 0 0 982.1 NA 0.0000 9999 5250 0 0 0
2016/03/18 04:55:00 BASE 10.83 192 12.04 198 -1.7 69 -6.8 0 0 982.1 NA 0.0000 9999 5120 0 0 0
2016/03/18 04:56:00 BASE 10.53 189 12.04 198 -1.7 69 -6.7 0 0 982.1 NA 0.0000 9999 5180 0 0 0
2016/03/18 04:57:00 BASE 9.74 184 12.04 198 -1.7 69 -6.6 0 0 982.1 NA 0.0000 9999 5220 0 0 0
2016/03/18 04:58:00 BASE 8.97 184 12.04 198 -1.8 69 -6.6 0 0 982.1 NA 0.0000 9999 5250 0 0 0
2016/03/18 04:59:00 BASE 9.67 188 12.04 198 -1.8 70 -6.6 0 0 982.0 NA 0.0000 9999 5220 0 0 0
2016/03/18 05:00:00 BASE 10.51 192 11.99 198 -1.8 70 -6.5 0 0 982.1 NA 0.0000 9999 5280 0 0 0
2016/03/18 05:01:00 BASE 10.58 192 11.99 207 -1.8 70 -6.5 0 0 982.1 NA 0.0000 9999 5320 0 0 0
2016/03/18 05:02:00 BASE 10.57 198 11.99 207 -1.8 70 -6.5 0 0 982.0 NA 0.0000 9999 5320 0 0 0
2016/03/18 05:03:00 BASE 10.55 198 11.99 207 -1.8 70 -6.6 0 0 982.0 NA 0.0000 9999 5280 0 0 0
2016/03/18 05:04:00 BASE 10.47 200 11.99 207 -1.8 70 -6.6 0 0 982.0 NA 0.0000 9999 5350 0 0 0
2016/03/18 05:05:00 BASE 10.36 194 12.76 202 -1.8 69 -6.7 0 0 982.0 NA 0.0000 9999 5380 0 0 0
2016/03/18 05:06:00 BASE 11.53 194 12.96 196 -1.8 69 -6.7 0 0 982.0 NA 0.0000 9999 5410 0 0 0
2016/03/18 05:07:00 BASE 12.46 194 12.96 196 -1.8 69 -6.8 0 0 982.0 NA 0.0000 9999 5350 0 0 0
2016/03/18 05:08:00 BASE 12.23 186 12.96 196 -1.9 68 -6.9 0 0 982.0 NA 0.0000 9999 5410 0 0 0
2016/03/18 05:09:00 BASE 12.01 186 12.96 196 -1.9 68 -7.0 0 0 982.0 NA 0.0000 9999 5410 0 0 0
2016/03/18 05:10:00 BASE 11.42 190 12.96 196 -1.9 68 -7.0 0 0 982.1 NA 0.0000 9999 2530 5410 0 0
2016/03/18 05:11:00 BASE 11.24 190 12.96 196 -1.9 68 -7.1 0 0 982.1 NA 0.0000 9999 5180 0 0 0
2016/03/18 05:12:00 BASE 11.76 193 12.96 196 -1.9 68 -7.1 0 0 982.0 NA 0.0000 9999 2490 0 0 0
2016/03/18 05:13:00 BASE 11.77 193 12.96 196 -1.9 68 -7.0 0 0 982.0 NA 0.0000 9999 2760 0 0 0
2016/03/18 05:14:00 BASE 10.52 174 12.96 196 -1.9 68 -6.9 0 0 982.1 NA 0.0000 9999 2460 0 0 0
2016/03/18 05:15:00 BASE 10.11 174 12.96 196 -1.9 69 -6.9 0 0 982.0 NA 0.0000 9999 3020 5410 0 0
2016/03/18 05:16:00 BASE 10.69 178 12.86 201 -1.9 69 -6.8 0 0 982.0 NA 0.0000 9999 2560 3220 5480 0
2016/03/18 05:17:00 BASE 9.73 178 12.86 201 -1.9 69 -6.8 0 0 982.1 NA 0.0000 9999 2400 2920 0 0
2016/03/18 05:18:00 BASE 9.72 183 12.86 201 -1.9 70 -6.7 0 0 982.1 NA 0.0000 9999 2990 5450 0 0
2016/03/18 05:19:00 BASE 10.37 194 12.86 201 -1.9 70 -6.7 0 0 982.1 NA 0.0000 9999 2560 3510 5410 0
2016/03/18 05:20:00 BASE 10.44 194 12.86 201 -1.9 70 -6.7 0 0 982.1 NA 0.0000 9999 2790 5410 0 0
2016/03/18 05:21:00 BASE 10.58 195 12.86 201 -1.9 69 -6.9 0 0 982.1 NA 0.0000 9999 2460 5450 0 0
2016/03/18 05:22:00 BASE 10.57 192 12.45 195 -1.9 69 -6.9 0 0 982.1 NA 0.0000 9999 2560 5450 0 0
2016/03/18 05:23:00 BASE 10.31 192 12.14 199 -1.9 68 -7.0 0 0 982.1 NA 0.0000 9999 2230 2920 0 0
2016/03/18 05:24:00 BASE 10.56 194 12.40 204 -1.9 68 -7.0 0 0 982.0 NA 0.0000 9999 2590 5480 0 0
2016/03/18 05:25:00 BASE 11.42 195 12.60 200 -1.9 68 -7.0 0 0 982.0 NA 0.0000 9999 2660 5350 0 0
2016/03/18 05:26:00 BASE 11.59 194 12.76 198 -1.9 69 -6.9 0 0 982.0 NA 0.0000 9999 5410 0 0 0
2016/03/18 05:27:00 BASE 11.10 193 12.76 198 -1.9 69 -6.8 0 0 982.1 NA 0.0000 9999 5380 0 0 0
2016/03/18 05:28:00 BASE 10.75 193 12.76 198 -1.9 69 -6.8 0 0 982.1 NA 0.0000 9999 5320 0 0 0
2016/03/18 05:29:00 BASE 10.98 192 12.76 198 -1.9 69 -6.8 0 0 982.1 NA 0.0000 9999 5380 0 0 0
2016/03/18 05:30:00 BASE 11.48 191 12.76 198 -1.9 69 -6.9 0 0 982.0 NA 0.0000 9999 5380 0 0 0
2016/03/18 05:31:00 BASE 11.48 191 12.76 198 -2.0 68 -7.0 0 0 982.1 NA 0.0000 9999 5410 0 0 0
2016/03/18 05:32:00 BASE 10.56 196 12.76 198 -2.0 68 -7.1 0 0 982.1 NA 0.0000 9999 5280 0 0 0
2016/03/18 05:33:01 BASE 10.80 197 12.81 207 -2.0 68 -7.2 0 0 982.1 NA 0.0000 9999 2490 5380 0 0
2016/03/18 05:34:00 BASE 11.72 189 12.81 207 -2.0 68 -7.2 0 0 982.1 NA 0.0000 9999 2530 0 0 0
2016/03/18 05:35:00 BASE 11.34 181 12.81 207 -2.0 68 -7.1 0 0 982.1 NA 0.0000 9999 2620 5320 0 0
2016/03/18 05:36:00 BASE 10.73 181 12.81 207 -2.0 68 -7.0 0 0 982.1 NA 0.0000 9999 2590 5250 0 0
2016/03/18 05:37:00 BASE 10.41 183 12.81 207 -1.9 69 -6.9 0 0 982.1 NA 0.0000 9999 2560 0 0 0
2016/03/18 05:38:00 BASE 10.03 183 12.81 207 -1.9 69 -6.8 0 0 982.2 NA 0.0000 9999 2490 0 0 0
2016/03/18 05:39:00 BASE 9.98 185 12.81 207 -1.9 70 -6.7 0 0 982.2 NA 0.0000 9999 2820 0 0 0
2016/03/18 05:40:01 BASE 10.58 188 12.81 207 -2.0 70 -6.7 0 0 982.2 NA 0.0000 9999 4920 0 0 0
2016/03/18 05:41:01 BASE 11.77 189 13.22 196 -2.0 70 -6.8 0 0 982.1 NA 0.0000 9999 2950 4990 0 0
2016/03/18 05:42:00 BASE 12.30 191 13.48 197 -2.0 69 -6.8 0 0 982.1 NA 0.0000 9999 3380 0 0 0
2016/03/18 05:43:00 BASE 12.31 191 13.68 200 -2.0 69 -7.0 0 0 982.1 NA 0.0000 9999 3150 3640 5020 0
2016/03/18 05:44:00 BASE 12.52 193 13.68 200 -2.0 68 -7.1 0 0 982.1 NA 0.0000 9999 3120 5120 0 0
2016/03/18 05:45:00 BASE 12.69 192 13.68 200 -2.0 67 -7.2 0 0 982.1 NA 0.0000 9999 5120 0 0 0
2016/03/18 05:46:00 BASE 12.83 192 13.68 200 -2.0 67 -7.4 0 0 982.1 NA 0.0000 9999 3220 5120 0 0
2016/03/18 05:47:00 BASE 12.06 187 13.68 200 -2.0 66 -7.5 0 0 982.1 NA 0.0000 9999 3350 5150 0 0
2016/03/18 05:48:01 BASE M M 13.68 200 -2.0 66 -7.5 0 0 M NA 0.0000 M 3350 5150 0 0
2016/03/18 05:49:01 BASE M M 13.68 200 -2.0 66 -7.5 M M M NA 0.0000 M M M M M
2016/03/18 05:50:00 BASE M M M M -2.0 66 -7.5 0 0 M NA 0.0000 M 5090 0 0 0
2016/03/18 05:51:01 BASE M M M M -2.0 66 -7.5 0 0 982.2 NA 0.0000 9999 3580 5180 0 0
2016/03/18 05:52:01 BASE 11.33 194 M M -2.0 66 -7.5 0 0 982.2 NA 0.0000 9999 3050 0 0 0
2016/03/18 05:53:01 BASE 11.68 194 M M -2.0 66 -7.5 0 0 982.2 NA 0.0000 9999 3350 0 0 0
2016/03/18 05:54:01 BASE 12.20 192 M M -2.0 65 -7.7 0 0 982.1 NA 0.0000 9999 3350 5180 0 0
2016/03/18 05:55:00 BASE 12.26 187 M M -2.0 64 -7.8 0 0 982.2 NA 0.0000 9999 3640 5180 0 0
2016/03/18 05:56:01 BASE 11.48 187 M M -2.0 64 -7.8 0 0 982.2 NA 0.0000 9999 5150 0 0 0
2016/03/18 05:57:01 BASE 11.34 188 M M -2.0 64 -7.9 0 0 982.2 NA 0.0000 9999 5180 0 0 0
2016/03/18 05:58:01 BASE 11.85 191 13.84 193 -2.0 63 -8.1 0 0 982.2 NA 0.0000 9999 5150 0 0 0
2016/03/18 05:59:01 BASE 12.51 191 13.84 193 -2.0 63 -8.2 0 0 982.1 NA 0.0000 9999 5150 0 0 0
2016/03/18 06:00:00 BASE 12.61 192 13.84 193 -2.0 62 -8.2 0 0 982.1 NA 0.0000 9999 5180 0 0 0
2016/03/18 06:01:01 BASE 12.15 187 13.84 193 -2.0 62 -8.3 0 0 982.2 NA 0.0000 9999 3380 5180 0 0
2016/03/18 06:02:01 BASE 11.62 183 13.84 193 -2.0 62 -8.2 0 0 982.2 NA 0.0000 9999 5150 0 0 0
2016/03/18 06:03:01 BASE 11.27 183 13.84 193 -2.0 63 -8.2 0 0 982.2 NA 0.0000 9999 5020 0 0 0
2016/03/18 06:04:01 BASE 10.97 193 13.48 196 -2.0 63 -8.0 0 0 982.2 NA 0.0000 9999 5090 0 0 0
2016/03/18 06:05:00 BASE 10.99 199 13.48 196 -2.0 64 -7.9 0 0 982.2 NA 0.0000 9999 5120 0 0 0
2016/03/18 06:06:01 BASE 11.04 185 13.48 196 -2.0 65 -7.8 0 0 982.2 NA 0.0000 9999 5050 0 0 0
2016/03/18 06:07:01 BASE 11.78 185 13.63 195 -2.0 65 -7.8 0 0 982.1 NA 0.0000 9999 4990 0 0 0
2016/03/18 06:08:00 BASE 11.73 187 13.63 195 -2.0 65 -7.8 0 0 982.2 NA 0.0000 9999 4890 0 0 0
2016/03/18 06:09:01 BASE 10.26 187 13.63 195 -2.0 64 -7.9 0 0 982.2 NA 0.0000 9999 3640 4530 5050 0
2016/03/18 06:10:00 BASE 10.77 192 13.63 195 -2.0 64 -7.9 0 0 982.2 NA 0.0000 9999 3870 0 0 0
2016/03/18 06:11:00 BASE 12.03 192 13.63 195 -2.1 64 -7.9 0 0 982.1 NA 0.0000 9999 3810 4430 0 0
2016/03/18 06:12:00 BASE 12.06 192 13.63 195 -2.1 64 -7.9 0 0 982.1 NA 0.0000 9999 5120 0 0 0
2016/03/18 06:13:01 BASE 11.57 195 13.63 195 -2.1 65 -7.8 0 0 982.2 NA 0.0000 9999 4000 4920 0 0
2016/03/18 06:14:01 BASE 11.94 193 13.63 195 -2.1 65 -7.7 0 0 982.1 NA 0.0000 9999 2920 4130 0 0
2016/03/18 06:15:01 BASE 12.58 191 13.63 195 -2.1 66 -7.7 0 0 982.1 NA 0.0000 9999 3350 3900 4720 0
2016/03/18 06:16:01 BASE 12.46 189 13.63 195 -2.1 66 -7.7 0 0 982.1 NA 0.0000 9999 4130 0 0 0
2016/03/18 06:17:01 BASE 12.04 189 13.48 199 -2.1 66 -7.7 0 0 982.1 NA 0.0000 9999 2720 4560 0 0
2016/03/18 06:18:01 BASE 11.71 179 13.48 199 -2.2 66 -7.7 0 0 982.1 NA 0.0000 9999 3580 4170 0 0
2016/03/18 06:19:01 BASE 11.04 179 13.48 199 -2.2 66 -7.8 0 0 982.1 NA 0.0000 9999 4460 0 0 0
2016/03/18 06:20:01 BASE 10.79 186 13.48 199 -2.2 66 -7.8 0 0 982.1 NA 0.0000 9999 2490 4400 0 0
2016/03/18 06:21:01 BASE 11.38 186 13.48 199 -2.2 66 -7.8 0 0 982.2 NA 0.0000 9999 2330 2820 3670 0
2016/03/18 06:22:01 BASE 11.73 193 13.48 199 -2.2 66 -7.7 0 0 982.2 NA 0.0000 9999 2330 0 0 0
2016/03/18 06:23:01 BASE 11.61 192 13.48 199 -2.2 66 -7.6 0 0 982.2 NA 0.0000 9999 2100 2920 0 0
2016/03/18 06:24:01 BASE 11.75 192 13.48 210 -2.2 67 -7.4 0 0 982.2 NA 0.0000 9999 2430 3480 0 0
2016/03/18 06:25:01 BASE 12.39 200 14.71 214 -2.2 68 -7.3 0 0 982.1 NA 0.0000 9999 3940 0 0 0
2016/03/18 06:26:01 BASE 11.56 200 14.71 214 -2.2 69 -7.0 0 0 982.2 NA 0.0000 9999 3810 0 0 0
2016/03/18 06:27:01 BASE 11.10 200 14.71 214 -2.2 71 -6.8 0 0 982.2 NA 0.0000 9999 3900 0 0 0
2016/03/18 06:28:01 BASE 11.39 203 14.71 214 -2.2 72 -6.6 0 0 982.2 NA 0.0000 9999 3540 4130 0 0
2016/03/18 06:29:01 BASE 11.33 201 14.71 214 -2.2 72 -6.5 0 0 982.2 NA 0.0000 9999 3640 0 0 0
2016/03/18 06:30:01 BASE 11.82 201 14.71 214 -2.2 73 -6.4 0 0 982.3 NA 0.0000 9999 3970 0 0 0
2016/03/18 06:31:01 BASE 12.50 200 14.71 214 -2.3 73 -6.4 0 0 982.3 NA 0.0000 9999 3940 0 0 0
2016/03/18 06:32:01 BASE 13.00 199 14.71 214 -2.3 73 -6.5 0 0 982.3 NA 0.0000 9999 4170 0 0 0
2016/03/18 06:33:01 BASE 12.95 199 14.71 214 -2.4 73 -6.6 0 0 982.3 NA 0.0000 9999 2360 3250 3970 0
2016/03/18 06:34:01 BASE 12.58 196 14.71 214 -2.4 72 -6.7 0 0 982.4 NA 0.0000 9999 2530 0 0 0
2016/03/18 06:35:01 BASE 12.28 196 14.15 208 -2.5 72 -6.8 0 0 982.3 NA 0.0000 9999 2920 3610 0 0
2016/03/18 06:36:01 BASE 11.92 198 14.15 208 -2.5 72 -6.9 0 0 982.4 NA 0.0000 9999 3120 4100 0 0
2016/03/18 06:37:01 BASE 11.28 198 14.15 208 -2.5 72 -6.8 0 0 982.4 NA 0.0000 9999 3510 0 0 0
2016/03/18 06:38:01 BASE 11.20 201 14.15 208 -2.5 72 -6.8 0 0 982.4 NA 0.0000 9999 3710 0 0 0
2016/03/18 06:39:01 BASE 11.59 196 14.15 208 -2.5 72 -6.8 0 0 982.4 NA 0.0000 9999 3900 0 0 0
2016/03/18 06:40:01 BASE 11.40 196 14.15 208 -2.5 72 -6.8 0 0 982.4 NA 0.0000 9999 3540 0 0 0
2016/03/18 06:41:01 BASE 11.02 195 14.15 208 -2.5 72 -6.8 0 0 982.4 NA 0.0000 9999 3670 0 0 0
2016/03/18 06:42:01 BASE 10.99 195 14.15 208 -2.5 72 -6.9 0 0 982.4 NA 0.0000 9999 3840 0 0 0
2016/03/18 06:43:01 BASE 11.56 200 14.15 208 -2.5 72 -6.9 0 0 982.3 NA 0.0000 9999 2490 0 0 0
2016/03/18 06:44:01 BASE 11.99 196 14.15 208 -2.5 72 -6.9 0 0 982.3 NA 0.0000 9999 2490 0 0 0
2016/03/18 06:45:01 BASE 11.46 196 13.32 216 -2.5 72 -6.9 0 0 982.4 NA 0.0000 9999 2200 3080 0 0
2016/03/18 06:46:01 BASE 11.34 202 13.43 213 -2.5 72 -6.9 0 0 982.3 NA 0.0000 9999 2620 3450 0 0
2016/03/18 06:47:01 BASE 12.12 202 13.79 213 -2.5 72 -6.9 0 0 982.3 NA 0.0000 9999 3670 4270 0 0
2016/03/18 06:48:01 BASE 12.49 205 13.79 213 -2.6 72 -7.0 0 0 982.3 NA 0.0000 9999 4130 0 0 0
2016/03/18 06:49:01 BASE 12.05 197 13.79 213 -2.6 72 -6.9 0 0 982.4 NA 0.0000 9999 3740 4230 0 0
2016/03/18 06:50:01 BASE 11.71 197 13.79 213 -2.6 72 -6.9 0 0 982.4 NA 0.0000 9999 3840 0 0 0
2016/03/18 06:51:01 BASE 11.49 198 13.79 213 -2.6 72 -6.9 0 0 982.4 NA 0.0000 9999 2850 4000 0 0
2016/03/18 06:52:01 BASE 11.50 198 13.79 213 -2.6 72 -7.0 0 0 982.4 NA 0.0000 9999 2030 3180 0 0
2016/03/18 06:53:01 BASE 12.15 197 13.79 213 -2.7 72 -7.0 0 0 982.4 NA 0.0000 9999 2230 3450 4360 0
2016/03/18 06:54:01 BASE 12.46 194 13.79 213 -2.7 72 -7.0 0 0 982.4 NA 0.0000 9999 2560 0 0 0
2016/03/18 06:55:01 BASE 12.21 194 13.79 213 -2.7 72 -7.1 0 0 982.4 NA 0.0000 9999 3120 4430 0 0
2016/03/18 06:56:01 BASE 11.49 201 13.79 213 -2.8 72 -7.1 0 0 982.4 NA 0.0000 9999 3120 0 0 0
2016/03/18 06:57:01 BASE 10.94 202 13.27 204 -2.8 72 -7.1 0 0 982.4 NA 0.0000 9999 3610 0 0 0
2016/03/18 06:58:01 BASE 10.93 200 13.27 204 -2.8 72 -7.1 0 0 982.4 NA 0.0000 9999 2850 3410 3810 0
2016/03/18 06:59:01 BASE 11.10 200 13.27 205 -2.8 72 -7.2 0 0 982.4 NA 0.0000 9999 3120 0 0 0
2016/03/18 07:00:01 BASE 10.94 195 13.27 205 -2.8 72 -7.2 0 0 982.4 NA 0.0000 9999 3180 0 0 0
2016/03/18 07:01:01 BASE 10.16 192 13.27 205 -2.8 71 -7.3 0 0 982.5 NA 0.0000 9999 3540 0 0 0
2016/03/18 07:02:01 BASE 10.85 192 13.27 205 -2.9 71 -7.3 0 0 982.4 NA 0.0000 9999 2330 3610 4130 0
2016/03/18 07:03:01 BASE 11.46 194 13.27 205 -2.9 71 -7.4 0 0 982.4 NA 0.0000 9999 2690 3610 0 0
2016/03/18 07:04:01 BASE 10.85 195 13.27 205 -2.9 71 -7.5 0 0 982.4 NA 0.0000 9999 2490 3220 0 0
2016/03/18 07:05:01 BASE 10.62 195 13.27 205 -2.9 70 -7.5 0 0 982.4 NA 0.0000 9999 2260 0 0 0
2016/03/18 07:06:01 BASE 10.38 195 13.27 205 -2.9 70 -7.6 0 0 982.5 NA 0.0000 9999 2490 3580 0 0
2016/03/18 07:07:01 BASE 10.88 199 13.27 205 -2.9 70 -7.6 0 0 982.4 NA 0.0000 9999 2400 3350 0 0
2016/03/18 07:08:01 BASE 11.31 203 13.27 205 -2.9 70 -7.6 0 0 982.4 NA 0.0000 9999 3410 0 0 0
2016/03/18 07:09:01 BASE 10.34 195 12.71 194 -2.9 70 -7.7 0 0 982.4 NA 0.0000 9999 3480 0 0 0
2016/03/18 07:10:01 BASE 10.07 195 12.71 194 -2.9 70 -7.7 0 0 982.4 NA 0.0000 9999 2360 3710 0 0
2016/03/18 07:11:01 BASE 8.94 201 12.71 194 -2.9 70 -7.6 0 0 982.5 NA 0.0000 9999 2430 3740 0 0
2016/03/18 07:12:01 BASE 7.82 197 12.55 207 -2.9 70 -7.6 0 0 982.5 NA 0.0000 9999 2300 2850 0 0
2016/03/18 07:13:01 BASE 8.42 197 12.55 207 -2.9 70 -7.5 0 0 982.5 NA 0.0000 9999 2490 3510 0 0
2016/03/18 07:14:01 BASE 8.50 203 12.55 207 -2.8 71 -7.4 0 0 982.5 NA 0.0000 9999 2260 0 0 0
2016/03/18 07:15:00 BASE 8.61 202 12.55 207 -2.8 71 -7.3 0 0 982.5 NA 0.0000 9999 2430 0 0 0
2016/03/18 07:16:00 BASE 7.98 202 12.55 207 -2.8 71 -7.3 0 0 982.5 NA 0.0000 9999 2330 2990 3610 0
2016/03/18 07:17:00 BASE 7.37 202 12.45 210 -2.8 71 -7.3 0 0 982.5 NA 0.0000 9999 2460 3580 0 0
2016/03/18 07:18:00 BASE 8.03 197 11.21 213 -2.9 71 -7.3 0 0 982.4 NA 0.0000 9999 2400 3670 0 0
2016/03/18 07:19:00 BASE 8.03 197 11.01 201 -2.9 71 -7.4 0 0 982.5 NA 0.0000 9999 2200 2850 3670 0
2016/03/18 07:20:00 BASE 7.17 195 10.85 205 -2.9 71 -7.4 0 0 982.5 NA 0.0000 9999 2300 3640 0 0
2016/03/18 07:21:00 BASE 7.75 195 10.85 205 -2.9 71 -7.3 0 0 982.4 NA 0.0000 9999 2330 0 0 0
2016/03/18 07:22:00 BASE 8.45 201 10.85 205 -2.9 71 -7.4 0 0 982.5 NA 0.0000 9999 2820 3380 0 0
2016/03/18 07:23:00 BASE 8.26 200 9.98 209 -2.9 71 -7.4 0 0 982.5 NA 0.0000 9999 3740 0 0 0
2016/03/18 07:24:00 BASE 9.23 199 11.57 212 -3.0 71 -7.4 0 0 982.4 NA 0.0000 9999 3770 0 0 0
2016/03/18 07:25:00 BASE 10.21 199 11.57 212 -3.0 71 -7.5 0 0 982.4 NA 0.0000 9999 3740 0 0 0
2016/03/18 07:26:00 BASE 9.83 200 11.57 212 -3.1 71 -7.7 0 0 982.5 NA 0.0000 9999 3770 0 0 0
2016/03/18 07:27:00 BASE 10.39 201 11.88 205 -3.1 70 -7.7 0 0 982.4 NA 0.0000 9999 3810 0 0 0
2016/03/18 07:28:00 BASE 11.05 205 11.88 205 -3.2 70 -7.9 0 0 982.4 NA 0.0000 9999 3870 0 0 0
2016/03/18 07:29:00 BASE 10.48 200 11.88 205 -3.2 70 -8.0 0 0 982.5 NA 0.0000 9999 3900 0 0 0
2016/03/18 07:30:00 BASE 9.35 196 11.88 205 -3.2 69 -8.0 0 0 982.5 NA 0.0000 9999 3970 0 0 0
2016/03/18 07:31:00 BASE 8.50 196 11.88 205 -3.2 69 -8.0 0 0 982.5 NA 0.0000 9999 0 0 0 0
2016/03/18 07:32:00 BASE 8.93 206 11.88 205 -3.2 69 -8.1 0 0 982.5 NA 0.0000 9999 0 0 0 0
2016/03/18 07:33:00 BASE 8.69 206 11.88 205 -3.2 69 -8.1 0 0 982.5 NA 0.0000 9999 0 0 0 0
2016/03/18 07:34:00 BASE 8.40 200 11.88 205 -3.2 69 -8.0 0 0 982.5 NA 0.0000 9999 0 0 0 0
2016/03/18 07:35:00 BASE 8.76 200 11.88 205 -3.2 69 -8.0 0 0 982.5 NA 0.0000 9999 0 0 0 0
2016/03/18 07:36:00 BASE 8.99 217 11.88 205 -3.2 69 -8.0 0 0 982.5 NA 0.0000 9999 0 0 0 0
2016/03/18 07:37:00 BASE 8.97 214 11.57 211 -3.3 69 -8.1 0 0 982.4 NA 0.0000 9999 0 0 0 0
2016/03/18 07:38:00 BASE 7.98 201 10.91 208 -3.3 69 -8.1 0 0 982.5 NA 0.0000 9999 0 0 0 0
2016/03/18 07:39:00 BASE 8.31 201 10.80 217 -3.3 69 -8.1 0 0 982.4 NA 0.0000 9999 0 0 0 0
2016/03/18 07:40:00 BASE 9.16 199 11.01 214 -3.3 69 -8.2 0 0 982.4 NA 0.0000 9999 0 0 0 0
2016/03/18 07:41:00 BASE 7.78 199 11.01 214 -3.3 69 -8.2 0 0 982.4 NA 0.0000 9999 0 0 0 0
2016/03/18 07:42:00 BASE 7.78 197 11.01 214 -3.3 69 -8.1 0 0 982.4 NA 0.0000 9999 0 0 0 0
2016/03/18 07:43:00 BASE 8.68 195 11.01 214 -3.3 70 -8.1 0 0 982.4 NA 0.0000 9999 0 0 0 0
2016/03/18 07:44:00 BASE 9.02 195 11.01 214 -3.3 70 -8.0 0 0 982.4 NA 0.0000 9999 0 0 0 0
2016/03/18 07:45:00 BASE 9.13 195 11.01 214 -3.3 70 -7.9 0 0 982.4 NA 0.0000 9999 0 0 0 0
2016/03/18 07:46:00 BASE 9.10 195 11.32 203 -3.2 71 -7.8 0 0 982.4 NA 0.0000 9999 0 0 0 0
2016/03/18 07:47:00 BASE 9.94 197 11.32 203 -3.2 71 -7.8 0 0 982.4 NA 0.0000 9999 0 0 0 0
2016/03/18 07:48:00 BASE 9.39 197 11.32 203 -3.2 71 -7.7 0 0 982.4 NA 0.0000 9999 0 0 0 0
2016/03/18 07:49:00 BASE 7.98 204 11.32 203 -3.2 71 -7.7 0 0 982.5 NA 0.0000 9999 2330 0 0 0
2016/03/18 07:50:00 BASE 7.89 202 11.32 203 -3.2 71 -7.7 0 0 982.4 NA 0.0000 9999 2300 0 0 0
2016/03/18 07:51:00 BASE 8.39 194 11.32 203 -3.2 71 -7.7 0 0 982.4 NA 0.0000 9999 0 0 0 0
2016/03/18 07:52:00 BASE 8.90 194 11.32 203 -3.2 71 -7.7 0 0 982.4 NA 0.0000 9999 2300 0 0 0
2016/03/18 07:53:00 BASE 9.50 201 11.32 203 -3.2 71 -7.7 0 0 982.4 NA 0.0000 9999 2330 0 0 0
2016/03/18 07:54:00 BASE 9.40 198 11.32 203 -3.2 71 -7.7 0 0 982.4 NA 0.0000 9999 2590 0 0 0
2016/03/18 07:55:00 BASE 8.63 198 11.32 203 -3.2 71 -7.7 0 0 982.4 NA 0.0000 9999 2300 0 0 0
2016/03/18 07:56:00 BASE 8.52 202 10.91 203 -3.2 71 -7.7 0 0 982.4 NA 0.0000 9999 2300 0 0 0
2016/03/18 07:57:00 BASE 9.35 200 10.91 203 -3.2 71 -7.7 0 0 982.4 NA 0.0000 9999 2460 0 0 0
2016/03/18 07:58:00 BASE 8.95 196 10.91 203 -3.3 71 -7.8 0 0 982.5 NA 0.0000 9999 2330 0 0 0
2016/03/18 07:59:00 BASE 8.44 196 10.91 203 -3.2 71 -7.7 0 0 982.5 NA 0.0000 9999 2260 0 0 0
2016/03/18 08:00:00 BASE 8.71 198 10.91 203 -3.2 71 -7.7 0 0 982.5 NA 0.0000 9999 2260 0 0 0
2016/03/18 08:01:00 BASE 8.63 196 10.91 203 -3.2 71 -7.7 0 0 982.6 NA 0.0000 9999 20900 0 0 0
2016/03/18 08:02:00 BASE 8.82 195 10.91 203 -3.2 71 -7.8 0 0 982.5 NA 0.0000 9999 20970 0 0 0
2016/03/18 08:03:00 BASE 9.33 195 10.70 200 -3.3 71 -7.8 0 0 982.5 NA 0.0000 9999 2260 0 0 0
2016/03/18 08:04:00 BASE 9.13 188 10.70 200 -3.3 71 -7.9 0 0 982.6 NA 0.0000 9999 2400 0 0 0
2016/03/18 08:05:00 BASE 9.13 188 10.70 200 -3.3 71 -7.9 0 0 982.6 NA 0.0000 9999 2360 0 0 0
2016/03/18 08:06:00 BASE 9.25 185 10.70 200 -3.3 70 -7.9 0 0 982.6 NA 0.0000 9999 21030 0 0 0
2016/03/18 08:07:00 BASE 8.10 185 10.44 209 -3.3 70 -7.9 0 0 982.6 NA 0.0000 9999 21000 0 0 0
2016/03/18 08:08:00 BASE 7.76 192 10.44 209 -3.3 70 -7.9 0 0 982.6 NA 0.0000 9999 21000 0 0 0
2016/03/18 08:09:00 BASE 8.78 195 10.44 209 -3.2 71 -7.8 0 0 982.7 NA 0.0000 9999 21030 0 0 0
2016/03/18 08:10:00 BASE 9.31 201 10.39 212 -3.2 71 -7.8 0 0 982.7 NA 0.0000 9999 2360 21100 0 0
2016/03/18 08:11:00 BASE 9.25 196 10.39 212 -3.2 71 -7.8 0 0 982.6 NA 0.0000 9999 21100 0 0 0
2016/03/18 08:12:00 BASE 9.20 192 10.39 212 -3.2 71 -7.7 0 0 982.6 NA 0.0000 9999 2200 0 0 0
2016/03/18 08:13:00 BASE 9.47 192 10.96 213 -3.2 71 -7.7 0 0 982.6 NA 0.0000 9999 21130 0 0 0
2016/03/18 08:14:00 BASE 9.31 187 10.96 213 -3.2 71 -7.7 0 0 982.6 NA 0.0000 9999 21130 0 0 0
2016/03/18 08:15:00 BASE 9.50 187 11.94 203 -3.1 71 -7.7 0 0 982.6 NA 0.0000 9999 0 0 0 0
2016/03/18 08:16:00 BASE 9.66 189 11.94 203 -3.1 71 -7.7 0 0 982.6 NA 0.0000 9999 0 0 0 0
2016/03/18 08:17:00 BASE 9.05 192 11.94 203 -3.1 71 -7.7 0 0 982.6 NA 0.0000 9999 0 0 0 0
2016/03/18 08:18:00 BASE 9.09 192 11.94 203 -3.1 70 -7.7 0 0 982.6 NA 0.0000 9999 0 0 0 0
2016/03/18 08:19:00 BASE 9.11 192 11.94 203 -3.1 70 -7.8 0 0 982.6 NA 0.0000 9999 0 0 0 0
2016/03/18 08:20:00 BASE 9.35 191 11.94 203 -3.1 70 -7.8 0 0 982.5 NA 0.0000 9999 0 0 0 0
2016/03/18 08:21:00 BASE 9.78 188 11.94 203 -3.1 70 -7.8 0 0 982.6 NA 0.0000 9999 21420 0 0 0
2016/03/18 08:22:00 BASE 9.88 188 11.94 203 -3.1 70 -7.8 0 0 982.6 NA 0.0000 9999 0 0 0 0
2016/03/18 08:23:00 BASE 9.40 189 11.94 203 -3.0 70 -7.7 0 0 982.6 NA 0.0000 9999 0 0 0 0
2016/03/18 08:24:00 BASE 8.57 196 11.94 203 -3.0 70 -7.7 0 0 982.6 NA 0.0000 9999 0 0 0 0
2016/03/18 08:25:00 BASE 8.69 199 11.32 191 -3.0 70 -7.7 0 0 982.6 NA 0.0000 9999 0 0 0 0
2016/03/18 08:26:00 BASE 9.64 196 11.32 191 -3.0 70 -7.7 0 0 982.6 NA 0.0000 9999 0 0 0 0
2016/03/18 08:27:00 BASE 9.59 189 11.32 191 -2.9 70 -7.6 0 0 982.6 NA 0.0000 9999 0 0 0 0
2016/03/18 08:28:00 BASE 9.17 189 11.32 191 -2.9 70 -7.6 0 0 982.7 NA 0.0000 9999 2850 0 0 0
2016/03/18 08:29:00 BASE 9.38 184 11.32 196 -2.9 70 -7.6 0 0 982.6 NA 0.0000 9999 2660 0 0 0
2016/03/18 08:30:00 BASE 9.08 184 11.32 196 -2.9 70 -7.6 0 0 982.6 NA 0.0000 9999 2760 0 0 0
2016/03/18 08:31:00 BASE 9.61 191 11.32 203 -2.9 70 -7.5 0 0 982.6 NA 0.0000 9999 2720 0 0 0
2016/03/18 08:32:00 BASE 10.05 195 11.32 203 -2.9 70 -7.5 0 0 982.6 NA 0.0000 9999 2820 0 0 0
2016/03/18 08:33:00 BASE 9.42 191 11.32 203 -2.8 70 -7.6 0 0 982.6 NA 0.0000 9999 2400 3050 0 0
2016/03/18 08:34:00 BASE 9.67 191 11.32 203 -2.8 70 -7.6 0 0 982.6 NA 0.0000 9999 2490 0 0 0
2016/03/18 08:35:00 BASE 10.18 193 11.73 195 -2.8 69 -7.6 0 0 982.6 NA 0.0000 9999 2920 0 0 0
2016/03/18 08:36:00 BASE 10.16 185 11.73 195 -2.8 69 -7.6 0 0 982.6 NA 0.0000 9999 2820 0 0 0
2016/03/18 08:37:00 BASE 9.74 185 11.73 195 -2.8 69 -7.6 0 0 982.7 NA 0.0000 9999 3020 3710 0 0
2016/03/18 08:38:00 BASE 9.42 194 11.73 195 -2.7 70 -7.5 0 0 982.7 NA 0.0000 9999 2100 2720 0 0
2016/03/18 08:39:00 BASE 9.57 195 11.73 195 -2.7 70 -7.4 0 0 982.7 NA 0.0000 9999 2620 0 0 0
2016/03/18 08:40:00 BASE 9.80 196 11.73 195 -2.7 70 -7.4 0 0 982.7 NA 0.0000 9999 2660 0 0 0
2016/03/18 08:41:00 BASE 9.56 196 11.73 195 -2.6 70 -7.4 0 0 982.6 NA 0.0000 9999 2820 0 0 0
2016/03/18 08:42:00 BASE 9.13 196 11.73 195 -2.6 70 -7.3 0 0 982.7 NA 0.0000 9999 2300 2890 0 0
2016/03/18 08:43:00 BASE 9.70 196 11.73 195 -2.6 70 -7.3 0 0 982.7 NA 0.0000 9999 2400 3120 0 0
2016/03/18 08:44:00 BASE 10.51 203 11.73 195 -2.6 71 -7.2 0 0 982.6 NA 0.0000 9999 2590 0 0 0
2016/03/18 08:45:00 BASE 10.76 205 11.63 207 -2.6 71 -7.2 0 0 982.7 NA 0.0000 9999 2590 0 0 0
2016/03/18 08:46:00 BASE 9.85 199 11.63 207 -2.6 71 -7.2 0 0 982.7 NA 0.0000 9999 0 0 0 0
2016/03/18 08:47:00 BASE 9.12 198 11.63 207 -2.6 71 -7.2 0 0 982.7 NA 0.0000 9999 2130 2950 0 0
2016/03/18 08:48:00 BASE 9.47 198 11.63 207 -2.6 71 -7.2 0 0 982.7 NA 0.0000 9999 2000 0 0 0
2016/03/18 08:49:00 BASE 9.35 210 11.63 207 -2.6 71 -7.1 0 0 982.7 NA 0.0000 9999 2100 3180 0 0
2016/03/18 08:50:00 BASE 8.58 201 11.63 207 -2.6 71 -7.0 0 0 982.7 NA 0.0000 9999 2030 0 0 0
2016/03/18 08:51:00 BASE 8.15 201 11.63 207 -2.5 72 -6.9 0 0 982.7 NA 0.0000 9999 1970 0 0 0
2016/03/18 08:52:00 BASE 8.90 199 11.63 207 -2.5 72 -6.8 0 0 982.7 NA 0.0000 9999 1970 0 0 0
2016/03/18 08:53:00 BASE 9.60 199 11.63 207 -2.5 73 -6.8 0 0 982.7 NA 0.0000 9999 2360 0 0 0
2016/03/18 08:54:00 BASE 9.68 205 11.63 207 -2.5 73 -6.7 0 0 982.7 NA 0.0000 9999 1870 0 0 0
2016/03/18 08:55:00 BASE 9.72 207 11.47 212 -2.5 73 -6.7 0 0 982.7 NA 0.0000 9999 2950 0 0 0
2016/03/18 08:56:00 BASE 9.14 206 11.47 212 -2.5 73 -6.7 0 0 982.7 NA 0.0000 9999 2660 0 0 0
2016/03/18 08:57:00 BASE 8.74 206 11.47 212 -2.5 73 -6.7 0 0 982.7 NA 0.0000 9999 1940 0 0 0
2016/03/18 08:58:00 BASE 9.10 213 11.47 212 -2.6 73 -6.7 0 0 982.6 NA 0.0000 9999 1870 2530 0 0
2016/03/18 08:59:00 BASE 8.82 219 11.47 212 -2.6 73 -6.7 0 0 982.6 NA 0.0000 9999 2430 3180 0 0
2016/03/18 09:00:00 BASE 8.26 210 11.47 212 -2.6 73 -6.7 0 0 982.7 NA 0.0000 9999 2130 2690 0 0
2016/03/18 09:01:00 BASE 8.80 210 11.47 212 -2.5 74 -6.6 0 0 982.7 NA 0.0000 9999 2920 0 0 0
2016/03/18 09:02:00 BASE 9.90 206 11.78 211 -2.5 74 -6.6 0 0 982.7 NA 0.0000 9999 2030 0 0 0
2016/03/18 09:03:00 BASE 9.84 203 11.78 211 -2.5 74 -6.5 0 0 982.7 NA 0.0000 9999 2430 0 0 0
2016/03/18 09:04:00 BASE 9.41 203 11.78 211 -2.5 74 -6.5 0 0 982.7 NA 0.0000 9999 3020 0 0 0
2016/03/18 09:05:00 BASE 9.05 205 11.78 211 -2.5 74 -6.4 0 0 982.7 NA 0.0000 9999 2760 0 0 0
2016/03/18 09:06:00 BASE 8.32 200 11.78 211 -2.5 75 -6.4 0 0 982.7 NA 0.0000 9999 1800 0 0 0
2016/03/18 09:07:00 BASE 8.14 200 11.78 211 -2.5 75 -6.3 0 0 982.7 NA 0.0000 9999 1900 0 0 0
2016/03/18 09:08:00 BASE 9.29 210 11.78 211 -2.5 75 -6.3 0 0 982.6 NA 0.0000 9999 1770 0 0 0
2016/03/18 09:09:00 BASE 9.30 194 11.78 211 -2.5 75 -6.3 0 0 982.6 NA 0.0000 9999 2360 0 0 0
2016/03/18 09:10:00 BASE 8.32 194 11.78 211 -2.5 75 -6.3 0 0 982.7 NA 0.0000 9999 2330 3250 0 0
2016/03/18 09:11:00 BASE 8.98 202 11.78 211 -2.5 75 -6.3 0 0 982.7 NA 0.0000 9999 0 0 0 0
2016/03/18 09:12:00 BASE 9.11 201 11.32 208 -2.5 75 -6.3 0 0 982.7 NA 0.0000 9999 0 0 0 0
2016/03/18 09:13:00 BASE 8.13 201 11.32 208 -2.5 75 -6.3 0 0 982.7 NA 0.0000 9999 2430 0 0 0
2016/03/18 09:14:00 BASE 8.00 201 11.32 208 -2.5 75 -6.3 0 0 982.7 NA 0.0000 9999 0 0 0 0
2016/03/18 09:15:00 BASE 8.44 201 11.32 208 -2.5 75 -6.3 0 0 982.7 NA 0.0000 9999 2690 0 0 0
2016/03/18 09:16:00 BASE 9.05 217 11.32 208 -2.5 75 -6.3 0 0 982.7 NA 0.0000 9999 2590 0 0 0
2016/03/18 09:17:00 BASE 8.85 215 11.32 208 -2.5 75 -6.4 0 0 982.8 NA 0.0000 9999 2460 0 0 0
2016/03/18 09:18:00 BASE 8.62 214 11.32 208 -2.5 75 -6.4 0 0 982.7 NA 0.0000 9999 2300 0 0 0
2016/03/18 09:19:00 BASE 9.48 211 11.32 208 -2.6 75 -6.4 0 0 982.7 NA 0.0000 9999 2130 0 0 0
2016/03/18 09:20:00 BASE 9.91 211 11.11 213 -2.6 74 -6.5 0 0 982.7 NA 0.0000 9999 1840 0 0 0
2016/03/18 09:21:00 BASE 9.78 215 11.68 225 -2.6 74 -6.6 0 0 982.7 NA 0.0000 9999 1870 0 0 0
2016/03/18 09:22:00 BASE 9.36 215 11.68 225 -2.6 74 -6.5 0 0 982.7 NA 0.0000 9999 2130 0 0 0
2016/03/18 09:23:00 BASE 8.66 206 11.68 225 -2.6 75 -6.5 0 0 982.8 NA 0.0000 9999 2200 0 0 0
2016/03/18 09:24:00 BASE 8.90 202 11.68 204 -2.6 75 -6.4 0 0 982.7 NA 0.0000 9999 1970 2530 0 0
2016/03/18 09:25:00 BASE 9.71 202 11.78 211 -2.5 75 -6.4 0 0 982.7 NA 0.0000 9999 2360 0 0 0
2016/03/18 09:26:00 BASE 9.19 203 11.78 211 -2.5 75 -6.3 0 0 982.8 NA 0.0000 9999 2300 0 0 0
2016/03/18 09:27:00 BASE 8.53 206 11.78 211 -2.5 75 -6.4 0 0 982.8 NA 0.0000 9999 2260 0 0 0
2016/03/18 09:28:00 BASE 8.93 211 11.78 211 -2.5 75 -6.4 0 0 982.8 NA 0.0000 9999 2130 0 0 0
2016/03/18 09:29:00 BASE 9.03 209 11.78 211 -2.5 74 -6.5 0 0 982.8 NA 0.0000 9999 2260 0 0 0
2016/03/18 09:30:00 BASE 8.74 204 11.78 211 -2.6 74 -6.5 0 0 982.8 NA 0.0000 9999 2200 2990 0 0
2016/03/18 09:31:00 BASE 8.48 202 11.78 211 -2.6 74 -6.6 0 0 982.8 NA 0.0000 9999 2260 0 0 0
2016/03/18 09:32:00 BASE 9.05 202 11.78 211 -2.6 74 -6.6 0 0 982.8 NA 0.0000 9999 2300 0 0 0
2016/03/18 09:33:00 BASE 9.52 210 11.78 211 -2.6 74 -6.6 0 0 982.8 NA 0.0000 9999 2530 0 0 0
2016/03/18 09:34:00 BASE 8.84 212 11.78 211 -2.6 74 -6.7 0 0 982.8 NA 0.0000 9999 2560 0 0 0
2016/03/18 09:35:00 BASE 8.09 207 10.80 219 -2.6 73 -6.7 0 0 982.9 NA 0.0000 9999 2460 0 0 0
2016/03/18 09:36:00 BASE 8.48 200 10.80 219 -2.6 73 -6.7 0 0 982.8 NA 0.0000 9999 1900 2620 0 0
2016/03/18 09:37:00 BASE 8.75 200 10.80 219 -2.6 73 -6.7 0 0 982.9 NA 0.0000 9999 2400 0 0 0
2016/03/18 09:38:00 BASE 8.13 203 10.80 219 -2.6 74 -6.6 0 0 982.9 NA 0.0000 9999 2460 0 0 0
2016/03/18 09:39:00 BASE 8.32 209 11.32 219 -2.5 74 -6.6 0 0 982.8 NA 0.0000 9999 2660 0 0 0
2016/03/18 09:40:00 BASE 8.64 197 11.32 219 -2.5 74 -6.5 0 0 982.9 NA 0.0000 9999 2590 0 0 0
2016/03/18 09:41:00 BASE 8.35 194 11.32 219 -2.5 74 -6.5 0 0 982.9 NA 0.0000 9999 2130 2620 0 0
2016/03/18 09:42:00 BASE 8.37 194 11.32 219 -2.5 74 -6.5 0 0 982.9 NA 0.0000 9999 2720 0 0 0
2016/03/18 09:43:00 BASE 8.80 210 11.32 219 -2.5 74 -6.5 0 1 982.8 NA 0.0000 9999 2620 0 0 0
2016/03/18 09:44:00 BASE 9.27 213 11.32 219 -2.5 74 -6.5 0 1 982.8 NA 0.0000 9999 2590 0 0 0
2016/03/18 09:45:00 BASE 9.56 215 11.32 219 -2.6 74 -6.6 0 1 982.8 NA 0.0000 9999 2030 0 0 0
2016/03/18 09:46:00 BASE 9.88 214 11.47 226 -2.6 74 -6.6 0 1 982.8 NA 0.0000 9999 2430 0 0 0
2016/03/18 09:47:00 BASE 10.33 214 11.47 226 -2.6 74 -6.6 1 1 982.8 NA 0.0000 9999 2560 0 0 0
2016/03/18 09:48:00 BASE 9.92 218 11.47 226 -2.6 74 -6.6 1 1 982.9 NA 0.0000 9999 0 0 0 0
2016/03/18 09:49:00 BASE 8.98 218 11.47 226 -2.6 74 -6.6 1 1 982.9 NA 0.0000 9999 2030 0 0 0
2016/03/18 09:50:00 BASE 8.87 214 11.47 226 -2.6 74 -6.6 1 1 982.9 NA 0.0000 9999 2000 0 0 0
2016/03/18 09:51:00 BASE 9.30 214 11.57 229 -2.6 74 -6.6 1 1 982.9 NA 0.0000 9999 2130 0 0 0
2016/03/18 09:52:00 BASE 9.59 205 11.57 229 -2.6 74 -6.6 1 2 982.9 NA 0.0000 9999 2000 2560 0 0
2016/03/18 09:53:00 BASE 8.87 205 11.57 229 -2.5 74 -6.5 1 2 983.0 NA 0.0000 9999 2820 0 0 0
2016/03/18 09:54:00 BASE 8.26 206 11.57 229 -2.5 74 -6.4 1 2 982.9 NA 0.0000 9999 2000 2590 0 0
2016/03/18 09:55:00 BASE 8.65 209 11.57 229 -2.5 75 -6.4 1 2 982.9 NA 0.0000 9999 2000 2660 0 0
2016/03/18 09:56:00 BASE 9.21 210 11.57 229 -2.5 75 -6.4 2 2 982.9 NA 0.0000 9999 1840 0 0 0
2016/03/18 09:57:00 BASE 9.05 204 11.57 229 -2.5 75 -6.3 2 3 982.9 NA 0.0000 9999 1940 2490 0 0
2016/03/18 09:58:00 BASE 8.31 201 11.57 229 -2.5 75 -6.3 2 3 983.0 NA 0.0000 9999 2000 0 0 0
2016/03/18 09:59:00 BASE 8.17 197 11.57 229 -2.5 75 -6.3 3 3 983.0 NA 0.0000 9999 2260 0 0 0
2016/03/18 10:00:00 BASE 8.22 185 11.57 229 -2.5 75 -6.3 3 4 983.0 NA 0.0000 9999 2260 0 0 0
2016/03/18 10:01:00 BASE 9.15 185 11.52 205 -2.5 75 -6.4 3 4 982.9 NA 0.0000 9999 2790 0 0 0
2016/03/18 10:02:00 BASE 10.13 196 11.52 205 -2.5 74 -6.5 3 5 982.9 NA 0.0000 9999 0 0 0 0
2016/03/18 10:03:00 BASE 10.15 196 11.52 205 -2.5 74 -6.6 4 5 982.9 NA 0.0000 9999 0 0 0 0
2016/03/18 10:04:00 BASE 9.92 195 11.52 205 -2.6 73 -6.7 4 5 983.0 NA 0.0000 9999 0 0 0 0
2016/03/18 10:05:00 BASE 9.30 195 11.52 205 -2.6 73 -6.7 3 5 983.0 NA 0.0000 9999 2460 0 0 0
2016/03/18 10:06:00 BASE 9.18 207 11.52 205 -2.6 73 -6.7 3 5 983.0 NA 0.0000 9999 2230 2760 0 0
2016/03/18 10:07:00 BASE 9.46 209 11.52 205 -2.6 73 -6.7 3 6 983.0 NA 0.0000 9999 2430 0 0 0
2016/03/18 10:08:00 BASE 8.84 203 11.52 205 -2.5 73 -6.7 4 7 983.0 NA 0.0000 9999 2400 0 0 0
2016/03/18 10:09:00 BASE 7.93 203 11.52 205 -2.5 73 -6.7 4 7 983.1 NA 0.0000 9999 2330 0 0 0
2016/03/18 10:10:00 BASE 8.26 212 11.52 205 -2.5 73 -6.7 4 8 983.0 NA 0.0000 9999 2360 0 0 0
2016/03/18 10:11:00 BASE 8.84 206 11.21 213 -2.5 73 -6.7 4 8 983.0 NA 0.0000 9999 2230 0 0 0
2016/03/18 10:12:00 BASE 8.53 198 11.21 213 -2.5 73 -6.7 4 9 983.1 NA 0.0000 9999 2300 2820 0 0
2016/03/18 10:13:00 BASE 9.27 197 12.04 204 -2.5 73 -6.7 4 10 983.0 NA 0.0000 9999 2530 0 0 0
2016/03/18 10:14:00 BASE 10.38 197 12.04 204 -2.5 73 -6.7 5 10 983.1 NA 0.0000 9999 2590 0 0 0
2016/03/18 10:15:00 BASE 10.23 197 12.04 204 -2.5 73 -6.7 5 11 983.0 NA 0.0000 9999 2720 0 0 0
2016/03/18 10:16:00 BASE 9.40 197 12.04 204 -2.4 73 -6.7 5 12 983.1 NA 0.0000 9999 2360 0 0 0
2016/03/18 10:17:00 BASE 9.11 195 12.04 204 -2.4 73 -6.7 6 13 983.1 NA 0.0000 9999 2790 0 0 0
2016/03/18 10:18:00 BASE 9.15 194 12.04 204 -2.4 73 -6.7 6 13 983.1 NA 0.0000 9999 2460 0 0 0
2016/03/18 10:19:00 BASE 9.54 194 12.04 204 -2.4 73 -6.7 6 13 983.1 NA 0.0000 9999 2330 2820 0 0
2016/03/18 10:20:00 BASE 9.78 189 12.04 204 -2.4 73 -6.6 6 14 983.1 NA 0.0000 9999 2230 2720 0 0
2016/03/18 10:21:00 BASE 8.37 189 12.04 204 -2.4 73 -6.6 6 14 983.2 NA 0.0000 9999 2790 0 0 0
2016/03/18 10:22:00 BASE 8.44 195 12.04 204 -2.4 73 -6.6 6 14 983.1 NA 0.0000 9999 2300 0 0 0
2016/03/18 10:23:00 BASE 9.34 202 11.99 206 -2.4 73 -6.6 6 15 983.0 NA 0.0000 9999 2590 0 0 0
2016/03/18 10:24:00 BASE 9.64 201 11.88 204 -2.4 73 -6.6 6 16 982.7 NA 0.0000 9999 2850 0 0 0
2016/03/18 10:25:00 BASE 9.36 201 11.88 204 -2.4 73 -6.6 6 16 983.2 NA 0.0000 9999 2820 0 0 0
2016/03/18 10:26:00 BASE 9.16 205 11.88 204 -2.4 72 -6.6 6 16 983.1 NA 0.0000 9999 2300 0 0 0
2016/03/18 10:27:00 BASE 8.67 198 11.88 204 -2.3 72 -6.7 6 16 983.2 NA 0.0000 9999 2260 0 0 0
2016/03/18 10:28:00 BASE 8.00 196 11.88 204 -2.3 72 -6.7 6 17 983.1 NA 0.0000 9999 2430 0 0 0
2016/03/18 10:29:00 BASE 9.84 196 12.91 209 -2.3 72 -6.7 7 17 982.8 NA 0.0000 9999 2820 0 0 0
2016/03/18 10:30:00 BASE 10.81 202 12.91 209 -2.3 72 -6.7 7 17 983.1 NA 0.0000 9999 2300 0 0 0
2016/03/18 10:31:00 BASE 9.94 196 12.91 209 -2.3 72 -6.7 6 16 983.1 NA 0.0000 9999 2400 0 0 0
2016/03/18 10:32:00 BASE 9.22 196 12.91 209 -2.3 72 -6.7 6 15 983.1 NA 0.0000 9999 2690 0 0 0
2016/03/18 10:33:00 BASE 9.21 209 12.91 209 -2.3 72 -6.7 6 15 983.1 NA 0.0000 9999 2330 0 0 0
2016/03/18 10:34:00 BASE 9.21 209 12.91 209 -2.3 72 -6.7 6 16 983.1 NA 0.0000 9999 2400 0 0 0
2016/03/18 10:35:00 BASE 9.79 204 12.91 209 -2.3 72 -6.7 7 16 982.7 NA 0.0000 9999 2530 0 0 0
2016/03/18 10:36:00 BASE 9.93 204 12.91 209 -2.3 72 -6.7 8 18 983.2 NA 0.0000 9999 2430 0 0 0
2016/03/18 10:37:00 BASE 9.51 198 12.91 209 -2.3 72 -6.7 9 20 983.1 NA 0.0000 9999 2360 0 0 0
2016/03/18 10:38:00 BASE 10.20 198 13.68 200 -2.3 72 -6.7 10 24 982.9 NA 0.0000 9999 2460 0 0 0
2016/03/18 10:39:00 BASE 11.13 188 13.68 200 -2.2 72 -6.7 13 27 983.1 NA 0.0000 9999 2660 0 0 0
2016/03/18 10:40:00 BASE 11.60 188 13.68 200 -2.2 71 -6.7 16 31 983.1 NA 0.0000 9999 3120 0 0 0
2016/03/18 10:41:00 BASE 11.38 192 13.68 200 -2.3 71 -6.8 19 35 983.2 NA 0.0000 9999 3120 0 0 0
2016/03/18 10:42:00 BASE 10.74 193 13.68 200 -2.3 70 -7.0 19 37 983.1 NA 0.0000 9999 2400 3480 0 0
2016/03/18 10:43:00 BASE 10.55 189 13.68 200 -2.3 70 -7.1 15 35 983.2 NA 0.0000 9999 2560 3180 0 0
2016/03/18 10:44:00 BASE 10.60 189 13.68 200 -2.3 70 -7.1 13 33 982.9 NA 0.0000 9999 2430 3350 0 0
2016/03/18 10:45:00 BASE 10.21 194 13.68 200 -2.3 70 -7.1 13 32 983.1 NA 0.0000 9999 2790 3280 0 0
2016/03/18 10:46:00 BASE 10.19 200 13.68 200 -2.3 70 -7.1 13 33 983.0 NA 0.0000 9999 0 0 0 0
2016/03/18 10:47:00 BASE 9.56 189 13.68 200 -2.3 70 -7.0 15 36 983.1 NA 0.0000 9999 0 0 0 0
2016/03/18 10:48:00 BASE 9.94 189 12.60 197 -2.3 70 -7.0 18 40 982.6 NA 0.0000 9999 2920 0 0 0
2016/03/18 10:49:00 BASE 11.00 188 12.60 197 -2.3 70 -7.0 20 40 982.9 NA 0.0000 9999 2400 0 0 0
2016/03/18 10:50:00 BASE 10.89 188 12.24 194 -2.3 70 -7.0 18 37 983.0 NA 0.0000 9999 2360 0 0 0
2016/03/18 10:51:00 BASE 11.03 185 12.24 194 -2.3 70 -7.1 16 35 983.0 NA 0.0000 9999 2360 0 0 0
2016/03/18 10:52:00 BASE 10.36 185 12.24 194 -2.4 69 -7.3 14 34 983.0 NA 0.0000 9999 2200 0 0 0
2016/03/18 10:53:00 BASE 9.74 186 12.24 194 -2.4 69 -7.3 13 33 982.8 NA 0.0000 9999 2200 0 0 0
2016/03/18 10:54:00 BASE 9.37 186 12.24 194 -2.3 69 -7.3 12 31 982.8 NA 0.0000 9999 2070 2720 0 0
2016/03/18 10:55:00 BASE 9.25 186 12.24 194 -2.3 69 -7.2 11 31 983.0 NA 0.0000 9999 2130 0 0 0
2016/03/18 10:56:00 BASE 9.99 181 12.24 194 -2.2 70 -7.1 11 31 982.4 NA 0.0000 9999 2200 0 0 0
2016/03/18 10:57:00 BASE 9.70 179 12.24 194 -2.2 70 -6.9 12 33 983.1 NA 0.0000 9999 2260 0 0 0
2016/03/18 10:58:00 BASE 10.12 179 12.30 195 -2.2 71 -6.8 14 37 983.1 NA 0.0000 9999 2460 0 0 0
2016/03/18 10:59:00 BASE 10.45 184 12.30 195 -2.2 71 -6.8 17 42 983.1 NA 0.0000 9999 2490 0 0 0
2016/03/18 11:00:00 BASE 9.84 184 12.30 195 -2.3 71 -6.9 20 49 983.2 NA 0.0000 9999 2720 0 0 0
2016/03/18 11:01:00 BASE 9.99 185 12.30 195 -2.3 71 -6.9 22 53 983.2 NA 0.0000 9999 2260 0 0 0
2016/03/18 11:02:00 BASE 10.33 183 12.30 195 -2.3 71 -6.9 26 60 983.2 NA 0.0000 9999 2200 2820 0 0
2016/03/18 11:03:00 BASE 10.32 180 12.30 195 -2.3 71 -6.9 31 67 983.3 NA 0.0000 9999 2170 3410 0 0
2016/03/18 11:04:00 BASE 9.92 180 12.30 195 -2.3 71 -6.8 32 69 983.3 NA 0.0000 9999 2130 3120 0 0
2016/03/18 11:05:00 BASE 9.94 186 12.30 195 -2.3 71 -6.8 32 70 983.2 NA 0.0000 9999 2990 3450 0 0
2016/03/18 11:06:00 BASE 9.59 183 12.30 195 -2.3 72 -6.7 30 68 983.3 NA 0.0000 9999 2230 2890 0 0
2016/03/18 11:07:00 BASE 9.09 183 12.30 195 -2.3 72 -6.7 30 69 983.3 NA 0.0000 9000 2260 0 0 0
2016/03/18 11:08:00 BASE 9.99 177 13.22 199 -2.3 72 -6.6 28 68 983.3 NA 0.0000 9999 2330 0 0 0
2016/03/18 11:09:00 BASE 11.34 177 13.22 199 -2.3 72 -6.6 27 67 983.3 NA 0.0000 9999 2260 0 0 0
2016/03/18 11:10:00 BASE 11.13 189 13.22 199 -2.3 72 -6.7 26 68 983.3 NA 0.0000 HZ 9999 2530 3220 0 0
2016/03/18 11:11:00 BASE 10.15 189 13.22 199 -2.4 72 -6.7 23 65 983.3 NA 0.0000 9999 2530 3080 0 0
2016/03/18 11:12:00 BASE 10.16 189 13.22 199 -2.4 72 -6.8 20 60 983.3 NA 0.0000 9999 2690 0 0 0
2016/03/18 11:13:00 BASE 9.72 189 13.22 199 -2.4 71 -6.9 20 62 983.4 NA 0.0000 9999 3350 0 0 0
2016/03/18 11:14:00 BASE 9.52 191 13.22 199 -2.4 71 -7.0 21 65 983.4 NA 0.0000 9999 16080 0 0 0
2016/03/18 11:15:00 BASE 10.53 201 13.22 199 -2.4 70 -7.1 21 66 983.4 NA 0.0000 9999 2400 0 0 0
2016/03/18 11:16:00 BASE 10.77 203 13.22 199 -2.4 70 -7.2 20 64 983.4 NA 0.0000 9999 2400 0 0 0
2016/03/18 11:17:00 BASE 10.62 203 13.22 199 -2.5 69 -7.3 20 63 983.4 NA 0.0000 9999 2690 0 0 0
2016/03/18 11:18:00 BASE 10.20 203 12.81 202 -2.5 69 -7.4 19 62 983.5 NA 0.0000 9999 2560 0 0 0
2016/03/18 11:19:00 BASE 9.69 195 11.99 211 -2.5 69 -7.5 22 67 983.5 NA 0.0000 9999 0 0 0 0
2016/03/18 11:20:00 BASE 9.09 195 11.99 211 -2.5 68 -7.5 26 75 983.5 NA 0.0000 9999 2690 0 0 0
2016/03/18 11:21:00 BASE 8.97 195 11.99 211 -2.5 68 -7.6 29 78 983.5 NA 0.0000 9999 0 0 0 0
2016/03/18 11:22:00 BASE 10.21 196 11.99 211 -2.5 68 -7.6 33 85 983.5 NA 0.0000 9999 0 0 0 0
2016/03/18 11:23:00 BASE 10.65 198 11.99 211 -2.5 68 -7.7 38 93 983.5 NA 0.0000 9999 0 0 0 0
2016/03/18 11:24:00 BASE 9.83 198 11.99 211 -2.5 67 -7.7 38 94 983.5 NA 0.0000 9999 2760 0 0 0
2016/03/18 11:25:00 BASE 9.15 196 11.88 206 -2.5 67 -7.7 40 96 983.5 NA 0.0000 9999 0 0 0 0
2016/03/18 11:26:00 BASE 9.05 191 11.88 206 -2.5 67 -7.7 49 111 983.5 NA 0.0000 9999 16240 0 0 0
2016/03/18 11:27:00 BASE 9.27 185 11.88 206 -2.5 68 -7.6 54 118 983.5 NA 0.0000 9999 2530 0 0 0
2016/03/18 11:28:00 BASE 9.11 185 11.88 206 -2.4 68 -7.5 50 113 983.6 NA 0.0000 9999 2400 0 0 0
2016/03/18 11:29:00 BASE 8.95 194 11.88 206 -2.4 68 -7.4 50 113 983.5 NA 0.0000 9999 2460 0 0 0
2016/03/18 11:30:00 BASE 8.84 193 11.88 206 -2.4 69 -7.4 49 110 983.6 NA 0.0000 9999 2460 0 0 0
2016/03/18 11:31:00 BASE 8.90 187 11.88 206 -2.4 69 -7.3 51 116 983.6 NA 0.0000 9999 2590 3120 0 0
2016/03/18 11:32:00 BASE 10.06 187 11.57 201 -2.4 69 -7.3 58 126 983.5 NA 0.0000 9999 2560 0 0 0
2016/03/18 11:33:00 BASE 10.82 192 11.99 199 -2.4 69 -7.4 78 156 983.5 NA 0.0000 9999 3250 0 0 0
2016/03/18 11:34:00 BASE 10.22 182 11.99 199 -2.4 69 -7.4 65 139 983.5 NA 0.0000 9999 2530 0 0 0
2016/03/18 11:35:00 BASE 10.10 182 11.99 199 -2.4 69 -7.4 53 120 983.5 NA 0.0000 9999 2300 2850 0 0
2016/03/18 11:36:00 BASE 11.05 185 11.99 198 -2.4 69 -7.4 45 110 983.5 NA 0.0000 9000 2400 3220 0 0
2016/03/18 11:37:00 BASE 11.30 190 11.99 198 -2.4 68 -7.5 41 104 983.5 NA 0.0000 9999 2530 0 0 0
2016/03/18 11:38:00 BASE 10.77 188 11.99 198 -2.5 68 -7.5 42 107 983.6 NA 0.0000 9999 2490 0 0 0
2016/03/18 11:39:00 BASE 10.88 188 11.99 198 -2.5 68 -7.5 39 103 983.6 NA 0.0000 9999 2560 0 0 0
2016/03/18 11:40:00 BASE 10.59 188 11.99 198 -2.5 68 -7.6 35 98 983.6 NA 0.0000 9999 2530 0 0 0
2016/03/18 11:41:00 BASE 9.90 183 11.99 198 -2.5 67 -7.7 32 94 983.6 NA 0.0000 9000 2560 0 0 0
2016/03/18 11:42:00 BASE 9.59 183 11.99 198 -2.5 67 -7.7 29 87 983.7 NA 0.0000 HZ 9000 2560 0 0 0
2016/03/18 11:43:00 BASE 9.86 181 11.99 198 -2.5 67 -7.7 28 85 983.6 NA 0.0000 HZ 9000 2560 3120 0 0
2016/03/18 11:44:00 BASE 10.50 181 11.99 198 -2.4 68 -7.6 27 85 983.6 NA 0.0000 HZ 9000 2530 0 0 0
2016/03/18 11:45:00 BASE 10.20 186 11.99 198 -2.4 68 -7.6 24 79 983.6 NA 0.0000 HZ 9000 2400 0 0 0
2016/03/18 11:46:00 BASE 9.97 186 11.88 199 -2.4 68 -7.5 23 75 983.6 NA 0.0000 HZ 9000 2490 3080 0 0
2016/03/18 11:47:00 BASE 9.47 186 11.63 202 -2.4 68 -7.5 22 73 983.4 NA 0.0000 HZ 9000 2430 0 0 0
2016/03/18 11:48:00 BASE 8.20 188 11.63 202 -2.4 68 -7.4 23 74 983.7 NA 0.0000 HZ 9000 2400 3480 0 0
2016/03/18 11:49:00 BASE 8.42 182 11.47 200 -2.4 68 -7.4 24 75 983.5 NA 0.0000 HZ 9999 0 0 0 0
2016/03/18 11:50:00 BASE 9.00 182 11.47 200 -2.3 69 -7.3 21 71 983.6 NA 0.0000 HZ 9999 2850 0 0 0
2016/03/18 11:51:00 BASE 9.37 194 11.47 200 -2.3 69 -7.3 20 69 983.7 NA 0.0000 HZ 9999 2720 0 0 0
2016/03/18 11:52:00 BASE 10.03 195 11.47 200 -2.3 69 -7.3 20 69 983.7 NA 0.0000 HZ 9999 2890 0 0 0
2016/03/18 11:53:00 BASE 9.54 196 11.47 200 -2.3 69 -7.3 20 69 983.4 NA 0.0000 HZ 9999 3180 0 0 0
2016/03/18 11:54:00 BASE 9.70 196 12.04 210 -2.3 69 -7.3 18 65 983.7 NA 0.0000 HZ 9999 2660 3250 0 0
2016/03/18 11:55:00 BASE 10.28 202 12.04 210 -2.3 69 -7.3 17 62 983.7 NA 0.0000 HZ 9999 2820 0 0 0
2016/03/18 11:56:00 BASE 9.71 201 12.04 210 -2.3 69 -7.3 17 59 983.7 NA 0.0000 9999 2400 3080 0 0
2016/03/18 11:57:00 BASE 9.93 201 12.04 210 -2.3 69 -7.3 17 59 983.6 NA 0.0000 9999 2460 0 0 0
2016/03/18 11:58:00 BASE 10.15 189 12.04 210 -2.3 69 -7.2 18 63 983.6 NA 0.0000 9999 2430 0 0 0
2016/03/18 11:59:00 BASE 9.78 181 12.04 210 -2.3 69 -7.2 20 67 983.7 NA 0.0000 9999 2530 0 0 0
2016/03/18 12:00:00 BASE 10.43 181 12.04 210 -2.3 69 -7.2 22 72 983.7 NA 0.0000 9999 2460 0 0 0
2016/03/18 12:01:01 BASE 10.62 193 12.04 210 -2.3 69 -7.3 28 85 983.6 NA 0.0000 9999 2590 3020 0 0
2016/03/18 12:02:00 BASE 9.50 193 12.04 210 -2.3 69 -7.3 39 102 983.7 NA 0.0000 9999 0 0 0 0
2016/03/18 12:03:00 BASE 8.73 204 12.04 210 -2.3 69 -7.3 41 104 983.7 NA 0.0000 9999 3050 0 0 0
2016/03/18 12:04:00 BASE 8.71 199 11.63 202 -2.4 69 -7.3 28 78 983.7 NA 0.0000 9999 2990 21390 0 0
2016/03/18 12:05:00 BASE 8.30 197 11.63 202 -2.3 69 -7.3 25 73 983.7 NA 0.0000 9999 2330 0 0 0
2016/03/18 12:06:00 BASE 8.31 193 11.63 202 -2.3 69 -7.2 26 79 983.7 NA 0.0000 9999 2460 0 0 0
2016/03/18 12:07:00 BASE 8.97 193 11.63 202 -2.3 69 -7.2 32 90 983.7 NA 0.0000 9999 2760 3710 0 0
2016/03/18 12:08:00 BASE 9.33 195 11.63 202 -2.3 69 -7.2 44 111 983.7 NA 0.0000 9999 3450 4040 0 0
2016/03/18 12:09:00 BASE 9.45 189 11.63 202 -2.3 69 -7.2 49 121 983.7 NA 0.0000 9999 3020 0 0 0
2016/03/18 12:10:00 BASE 9.42 189 11.16 194 -2.3 69 -7.3 45 110 983.7 NA 0.0000 9999 2760 0 0 0
2016/03/18 12:11:00 BASE 9.62 192 11.11 198 -2.3 68 -7.4 40 102 983.7 NA 0.0000 9999 2890 0 0 0
2016/03/18 12:12:00 BASE 9.81 192 11.11 198 -2.3 68 -7.5 38 99 983.7 NA 0.0000 9999 2360 0 0 0
2016/03/18 12:13:00 BASE 9.46 188 11.11 198 -2.3 68 -7.5 35 95 983.7 NA 0.0000 9999 2400 0 0 0
2016/03/18 12:14:00 BASE 8.86 188 11.11 198 -2.3 68 -7.5 33 91 983.7 NA 0.0000 9999 2300 0 0 0
2016/03/18 12:15:00 BASE 8.69 193 11.11 198 -2.3 68 -7.4 33 89 983.7 NA 0.0000 9999 2300 0 0 0
2016/03/18 12:16:00 BASE 8.49 193 11.11 198 -2.3 68 -7.3 27 80 983.7 NA 0.0000 9999 2260 0 0 0
2016/03/18 12:17:00 BASE 8.63 190 11.11 198 -2.3 69 -7.2 23 75 983.7 NA 0.0000 9999 2260 0 0 0
2016/03/18 12:18:00 BASE 9.36 190 11.21 200 -2.2 69 -7.1 26 80 983.7 NA 0.0000 9999 2260 3020 0 0
2016/03/18 12:19:00 BASE 8.94 184 11.21 200 -2.2 70 -7.0 32 89 983.7 NA 0.0000 9999 3120 0 0 0
2016/03/18 12:20:00 BASE 8.97 184 11.21 200 -2.2 70 -7.0 35 93 983.8 NA 0.0000 9999 2200 2890 3580 0
2016/03/18 12:21:00 BASE 8.97 192 11.21 200 -2.3 70 -7.1 30 82 983.8 NA 0.0000 9999 2260 2920 0 0
2016/03/18 12:22:00 BASE 8.29 194 11.21 200 -2.3 70 -7.1 27 77 983.8 NA 0.0000 9999 2230 0 0 0
2016/03/18 12:23:00 BASE 8.41 186 11.21 200 -2.3 70 -7.1 25 74 983.8 NA 0.0000 9999 2230 0 0 0
2016/03/18 12:24:00 BASE 8.34 186 11.21 200 -2.3 70 -7.1 26 79 983.8 NA 0.0000 9999 2070 0 0 0
2016/03/18 12:25:00 BASE 7.85 189 11.21 200 -2.3 70 -7.0 30 85 983.8 NA 0.0000 9999 2070 0 0 0
2016/03/18 12:26:00 BASE 7.63 179 11.21 200 -2.3 71 -6.9 32 91 983.9 NA 0.0000 9000 2100 0 0 0
2016/03/18 12:27:00 BASE 7.16 179 11.21 200 -2.2 71 -6.8 32 91 983.9 NA 0.0000 9000 2130 0 0 0
2016/03/18 12:28:00 BASE 7.21 182 10.60 204 -2.2 71 -6.8 33 92 983.8 NA 0.0000 9999 2100 2790 0 0
2016/03/18 12:29:00 BASE 7.98 182 10.60 204 -2.2 71 -6.7 35 98 983.7 NA 0.0000 9999 2260 0 0 0
2016/03/18 12:30:00 BASE 7.99 191 9.62 200 -2.2 71 -6.7 36 103 983.9 NA 0.0000 9999 2230 2990 0 0
2016/03/18 12:31:00 BASE 8.41 191 9.67 206 -2.2 71 -6.8 38 109 983.8 NA 0.0000 9999 2260 0 0 0
2016/03/18 12:32:00 BASE 9.64 199 11.47 206 -2.3 71 -6.8 37 110 983.6 NA 0.0000 9999 2530 0 0 0
2016/03/18 12:33:00 BASE 9.76 200 11.47 206 -2.3 71 -6.9 36 110 983.7 NA 0.0000 9999 2990 0 0 0
2016/03/18 12:34:00 BASE 9.85 196 11.94 208 -2.3 70 -6.9 36 112 983.7 NA 0.0000 9999 2950 0 0 0
2016/03/18 12:35:00 BASE 9.85 196 11.94 208 -2.3 70 -7.1 36 112 983.8 NA 0.0000 9999 3580 0 0 0
2016/03/18 12:36:00 BASE 9.01 194 11.94 208 -2.3 69 -7.3 37 114 983.8 NA 0.0000 9999 2720 0 0 0
2016/03/18 12:37:00 BASE 9.43 192 11.94 208 -2.3 68 -7.4 41 123 983.8 NA 0.0000 9999 0 0 0 0
2016/03/18 12:38:00 BASE 9.61 192 11.94 208 -2.3 67 -7.5 51 141 983.6 NA 0.0000 9999 0 0 0 0
2016/03/18 12:39:00 BASE 9.55 197 11.94 208 -2.3 67 -7.6 63 164 983.9 NA 0.0000 9999 0 0 0 0
2016/03/18 12:40:00 BASE 9.73 196 11.94 208 -2.3 67 -7.6 89 211 983.9 NA 0.0000 9999 3180 0 0 0
2016/03/18 12:41:00 BASE 9.37 196 11.94 208 -2.3 67 -7.6 97 228 983.9 NA 0.0000 9999 2850 0 0 0
2016/03/18 12:42:00 BASE 9.06 198 11.94 208 -2.3 67 -7.6 70 179 983.9 NA 0.0000 9999 2590 0 0 0
2016/03/18 12:43:00 BASE 7.93 195 11.94 208 -2.3 67 -7.6 58 158 984.0 NA 0.0000 9999 2430 0 0 0
2016/03/18 12:44:00 BASE 7.31 195 11.32 207 -2.3 67 -7.6 65 174 984.0 NA 0.0000 9999 2620 0 0 0
2016/03/18 12:45:00 BASE 7.74 195 11.32 207 -2.3 67 -7.5 68 179 984.0 NA 0.0000 9999 2590 0 0 0
2016/03/18 12:46:00 BASE 8.16 194 11.32 207 -2.3 68 -7.4 71 184 983.9 NA 0.0000 9999 2590 0 0 0
2016/03/18 12:47:00 BASE 8.79 194 11.11 197 -2.3 68 -7.3 74 191 983.9 NA 0.0000 9999 2590 0 0 0
2016/03/18 12:48:00 BASE 8.97 203 11.11 197 -2.3 69 -7.2 66 177 983.9 NA 0.0000 9999 2920 0 0 0
2016/03/18 12:49:00 BASE 9.12 203 10.65 208 -2.3 69 -7.2 61 169 983.9 NA 0.0000 9999 2760 0 0 0
2016/03/18 12:50:00 BASE 8.54 206 10.55 216 -2.3 69 -7.2 62 171 983.9 NA 0.0000 9999 2560 0 0 0
2016/03/18 12:51:00 BASE 7.49 206 10.55 216 -2.3 68 -7.3 59 165 983.9 NA 0.0000 9999 2620 0 0 0
2016/03/18 12:52:00 BASE 7.21 207 10.55 216 -2.3 68 -7.3 65 175 983.9 NA 0.0000 9999 2690 0 0 0
2016/03/18 12:53:00 BASE 7.40 202 10.55 216 -2.3 68 -7.4 72 189 983.9 NA 0.0000 9999 3080 0 0 0
2016/03/18 12:54:00 BASE 7.25 202 10.55 216 -2.3 68 -7.4 79 202 984.0 NA 0.0000 9999 3250 0 0 0
2016/03/18 12:55:00 BASE 6.96 205 10.55 216 -2.3 68 -7.4 85 212 984.0 NA 0.0000 9999 2990 0 0 0
2016/03/18 12:56:00 BASE 7.44 207 10.55 216 -2.3 68 -7.4 82 206 983.9 NA 0.0000 9999 2690 0 0 0
2016/03/18 12:57:00 BASE 7.93 207 10.55 216 -2.3 68 -7.4 90 220 984.0 NA 0.0000 9999 3020 0 0 0
2016/03/18 12:58:00 BASE 7.93 202 10.55 216 -2.3 68 -7.4 95 231 984.0 NA 0.0000 9999 3120 0 0 0
2016/03/18 12:59:00 BASE 7.95 197 9.26 214 -2.3 68 -7.4 86 213 984.0 NA 0.0000 9999 2890 3350 0 0
2016/03/18 13:00:00 BASE 8.47 197 9.77 212 -2.3 68 -7.4 91 222 984.0 NA 0.0000 9999 2400 3610 0 0
2016/03/18 13:01:00 BASE 8.39 205 9.83 210 -2.2 68 -7.4 90 221 984.0 NA 0.0000 9999 2720 3450 0 0
2016/03/18 13:02:00 BASE 7.02 206 9.83 210 -2.2 68 -7.3 88 218 984.1 NA 0.0000 9999 2590 3180 0 0
2016/03/18 13:03:00 BASE 6.80 209 9.83 210 -2.2 68 -7.3 86 214 984.0 NA 0.0000 9999 2850 0 0 0
2016/03/18 13:04:00 BASE 7.34 215 9.83 210 -2.2 68 -7.3 84 209 984.0 NA 0.0000 9999 2530 0 0 0
2016/03/18 13:05:00 BASE 6.90 215 9.83 210 -2.2 68 -7.3 85 214 984.1 NA 0.0000 9999 3220 0 0 0
2016/03/18 13:06:00 BASE 7.36 215 9.83 210 -2.2 68 -7.3 79 203 984.0 NA 0.0000 9999 2400 0 0 0
2016/03/18 13:07:00 BASE 8.47 218 9.83 210 -2.2 68 -7.3 75 196 984.0 NA 0.0000 9999 2560 3150 0 0
2016/03/18 13:08:00 BASE 8.61 215 9.83 210 -2.2 68 -7.3 75 193 984.0 NA 0.0000 9999 2660 0 0 0
2016/03/18 13:09:00 BASE 8.05 209 9.83 210 -2.2 68 -7.4 100 240 984.0 NA 0.0000 9999 2590 0 0 0
2016/03/18 13:10:00 BASE 7.69 208 9.83 210 -2.3 68 -7.4 123 282 984.0 NA 0.0000 9999 2460 0 0 0
2016/03/18 13:11:00 BASE 7.52 204 9.62 223 -2.3 68 -7.4 131 298 983.7 NA 0.0000 9999 2690 3280 0 0
2016/03/18 13:12:00 BASE 7.91 200 9.93 210 -2.3 68 -7.4 133 301 984.0 NA 0.0000 9999 2430 0 0 0
2016/03/18 13:13:00 BASE 7.61 200 9.93 210 -2.3 68 -7.4 132 303 984.0 NA 0.0000 9000 2530 4070 23160 0
2016/03/18 13:14:00 BASE 7.16 218 9.93 210 -2.2 68 -7.3 124 288 984.0 NA 0.0000 9999 3380 3900 0 0
2016/03/18 13:15:00 BASE 7.70 215 9.93 210 -2.2 68 -7.3 116 274 984.0 NA 0.0000 9999 3120 0 0 0
2016/03/18 13:16:00 BASE 7.55 213 9.93 210 -2.2 68 -7.3 115 273 984.0 NA 0.0000 9999 3020 3640 0 0
2016/03/18 13:17:00 BASE 7.08 213 9.93 210 -2.2 68 -7.3 95 238 984.1 NA 0.0000 9999 3480 0 0 0
2016/03/18 13:18:00 BASE 6.86 213 9.93 210 -2.2 68 -7.3 77 202 984.1 NA 0.0000 9999 2490 3180 0 0
2016/03/18 13:19:00 BASE 7.31 206 9.93 210 -2.2 68 -7.3 78 202 984.0 NA 0.0000 9999 2890 4200 0 0
2016/03/18 13:20:00 BASE 7.76 206 9.93 210 -2.2 68 -7.3 84 213 984.0 NA 0.0000 9999 3410 0 0 0
2016/03/18 13:21:00 BASE 7.91 208 9.93 210 -2.2 68 -7.3 98 239 984.0 NA 0.0000 9999 3770 0 0 0
2016/03/18 13:22:00 BASE 7.30 202 9.36 217 -2.2 68 -7.3 121 283 984.1 NA 0.0000 9999 3670 0 0 0
2016/03/18 13:23:00 BASE 7.19 202 9.36 217 -2.2 68 -7.2 116 275 984.1 NA 0.0000 9999 3900 0 0 0
2016/03/18 13:24:00 BASE 8.11 215 9.52 225 -2.2 69 -7.1 99 241 984.0 NA 0.0000 9999 2950 3540 0 0
2016/03/18 13:25:00 BASE 8.03 213 9.52 225 -2.2 69 -7.1 88 219 984.1 NA 0.0000 9999 2360 0 0 0
2016/03/18 13:26:00 BASE 7.69 213 9.52 225 -2.2 69 -7.1 76 196 984.1 NA 0.0000 9999 2330 0 0 0
2016/03/18 13:27:00 BASE 8.07 213 9.52 225 -2.2 69 -7.1 66 178 984.1 NA 0.0000 9999 2360 0 0 0
2016/03/18 13:28:00 BASE 8.75 215 10.19 216 -2.2 69 -7.1 64 173 984.1 NA 0.0000 9999 2400 0 0 0
2016/03/18 13:29:00 BASE 9.11 214 10.19 216 -2.2 69 -7.2 65 177 984.1 NA 0.0000 9999 2590 0 0 0
2016/03/18 13:30:00 BASE 8.70 213 10.19 216 -2.2 69 -7.2 66 179 984.1 NA 0.0000 9999 2490 0 0 0
2016/03/18 13:31:00 BASE 7.53 213 10.19 216 -2.2 69 -7.2 63 174 984.1 NA 0.0000 9000 2490 0 0 0
2016/03/18 13:32:00 BASE 7.43 219 10.19 216 -2.2 69 -7.2 66 179 984.1 NA 0.0000 9000 2400 0 0 0
2016/03/18 13:33:00 BASE 8.60 211 10.19 216 -2.2 69 -7.2 65 180 984.1 NA 0.0000 9999 2460 0 0 0
2016/03/18 13:34:00 BASE 8.81 211 10.19 216 -2.2 69 -7.2 67 185 984.1 NA 0.0000 9999 2560 0 0 0
2016/03/18 13:35:00 BASE 8.45 212 10.19 216 -2.2 68 -7.3 72 197 984.1 NA 0.0000 9999 2590 0 0 0
2016/03/18 13:36:00 BASE 8.18 212 10.19 216 -2.2 68 -7.3 74 201 984.1 NA 0.0000 9999 2530 0 0 0
2016/03/18 13:37:00 BASE 8.53 213 10.19 216 -2.2 68 -7.3 79 212 984.1 NA 0.0000 9999 2760 0 0 0
2016/03/18 13:38:00 BASE 8.78 214 10.13 220 -2.2 68 -7.4 80 216 984.1 NA 0.0000 9999 2990 0 0 0
2016/03/18 13:39:00 BASE 9.23 214 11.01 223 -2.2 67 -7.5 72 203 984.1 NA 0.0000 9999 2720 0 0 0
2016/03/18 13:40:00 BASE 9.84 213 11.01 217 -2.2 67 -7.5 66 191 984.1 NA 0.0000 9999 2820 0 0 0
2016/03/18 13:41:00 BASE 9.00 208 11.01 217 -2.2 67 -7.6 72 202 984.1 NA 0.0000 9999 3150 0 0 0
2016/03/18 13:42:00 BASE 8.20 203 11.01 217 -2.2 66 -7.6 82 221 984.1 NA 0.0000 9999 3770 0 0 0
2016/03/18 13:43:00 BASE 8.04 203 11.01 217 -2.2 66 -7.7 96 251 984.1 NA 0.0000 9999 0 0 0 0
2016/03/18 13:44:00 BASE 8.38 206 11.01 217 -2.2 66 -7.7 117 291 984.1 NA 0.0000 9999 0 0 0 0
2016/03/18 13:45:00 BASE 8.68 214 11.01 217 -2.2 66 -7.7 138 333 984.1 NA 0.0000 9999 2690 0 0 0
2016/03/18 13:46:00 BASE 8.00 209 11.01 217 -2.2 66 -7.7 116 294 984.1 NA 0.0000 9999 2660 0 0 0
2016/03/18 13:47:00 BASE 7.11 200 11.01 217 -2.2 66 -7.7 88 239 984.1 NA 0.0000 9999 2660 0 0 0
2016/03/18 13:48:00 BASE 7.54 200 11.01 217 -2.2 66 -7.6 83 229 984.1 NA 0.0000 9999 2720 0 0 0
2016/03/18 13:49:00 BASE 8.58 205 11.01 217 -2.2 67 -7.6 85 233 984.0 NA 0.0000 9999 2560 3810 0 0
2016/03/18 13:50:00 BASE 8.56 213 10.75 224 -2.2 67 -7.6 92 248 984.1 NA 0.0000 9000 3640 0 0 0
2016/03/18 13:51:00 BASE 8.13 209 10.75 224 -2.2 66 -7.6 84 231 984.1 NA 0.0000 9999 3180 3610 0 0
2016/03/18 13:52:00 BASE 7.83 209 10.75 224 -2.2 66 -7.6 87 236 984.1 NA 0.0000 9999 2920 0 0 0
2016/03/18 13:53:00 BASE 7.55 210 10.75 224 -2.2 66 -7.7 89 240 984.1 NA 0.0000 9999 0 0 0 0
2016/03/18 13:54:00 BASE 7.48 210 10.75 224 -2.2 66 -7.8 103 269 984.1 NA 0.0000 9999 3350 3870 0 0
2016/03/18 13:55:00 BASE 7.75 210 10.75 224 -2.2 65 -7.8 97 257 984.1 NA 0.0000 9999 2890 3670 0 0
2016/03/18 13:56:00 BASE 8.36 211 10.75 224 -2.3 65 -7.9 93 248 984.1 NA 0.0000 9999 2890 0 0 0
2016/03/18 13:57:00 BASE 9.63 203 11.73 220 -2.3 65 -7.9 87 236 984.0 NA 0.0000 9999 2820 3540 0 0
2016/03/18 13:58:00 BASE 10.14 197 11.73 220 -2.3 65 -8.0 88 236 984.1 NA 0.0000 9999 3380 0 0 0
2016/03/18 13:59:00 BASE 8.71 197 11.73 220 -2.3 65 -7.9 106 271 984.1 NA 0.0000 9999 3900 0 0 0
2016/03/18 14:00:00 BASE 7.61 197 11.73 220 -2.2 65 -7.9 104 269 984.1 NA 0.0000 9999 3670 0 0 0
2016/03/18 14:01:00 BASE 7.63 200 11.73 220 -2.2 66 -7.8 104 267 984.1 NA 0.0000 9999 3610 0 0 0
2016/03/18 14:02:00 BASE 7.96 202 11.73 220 -2.2 66 -7.7 116 292 984.1 NA 0.0000 9999 3670 0 0 0
2016/03/18 14:03:00 BASE 7.95 202 11.73 220 -2.2 66 -7.7 108 279 984.1 NA 0.0000 9999 3410 0 0 0
2016/03/18 14:04:00 BASE 7.64 196 11.73 220 -2.2 66 -7.8 96 256 984.1 NA 0.0000 9999 2820 3350 0 0
2016/03/18 14:05:00 BASE 8.22 196 11.73 220 -2.2 65 -7.9 87 239 984.1 NA 0.0000 9999 2950 0 0 0
2016/03/18 14:06:00 BASE 8.43 216 11.73 220 -2.2 65 -7.9 78 221 984.1 NA 0.0000 9999 2890 0 0 0
2016/03/18 14:07:00 BASE 8.18 209 10.80 212 -2.2 64 -8.0 80 225 984.1 NA 0.0000 9999 2920 3540 0 0
2016/03/18 14:08:00 BASE 8.05 202 9.77 203 -2.2 64 -8.1 93 252 984.1 NA 0.0000 9999 3380 4100 0 0
2016/03/18 14:09:00 BASE 8.01 194 9.77 203 -2.2 64 -8.0 92 252 984.1 NA 0.0000 9999 3380 0 0 0
2016/03/18 14:10:00 BASE 9.24 194 11.32 206 -2.2 65 -7.9 89 244 984.1 NA 0.0000 9999 3050 3740 0 0
2016/03/18 14:11:00 BASE 9.14 197 11.32 206 -2.2 65 -7.9 83 232 984.1 NA 0.0000 9999 3020 0 0 0
2016/03/18 14:12:00 BASE 8.05 195 11.32 206 -2.1 65 -7.8 81 228 984.2 NA 0.0000 9999 3250 0 0 0
2016/03/18 14:13:00 BASE 8.44 195 11.32 206 -2.1 65 -7.8 96 257 984.1 NA 0.0000 9999 3020 0 0 0
2016/03/18 14:14:00 BASE 8.94 199 11.32 206 -2.1 65 -7.8 101 269 984.1 NA 0.0000 9999 3150 0 0 0
2016/03/18 14:15:00 BASE 9.33 199 11.42 213 -2.1 65 -7.8 90 250 984.2 NA 0.0000 9999 3220 0 0 0
2016/03/18 14:16:00 BASE 9.58 201 11.42 213 -2.1 65 -7.9 80 231 984.1 NA 0.0000 9999 3080 0 0 0
2016/03/18 14:17:00 BASE 9.45 200 11.42 213 -2.2 65 -7.9 78 228 984.2 NA 0.0000 9999 3150 0 0 0
2016/03/18 14:18:00 BASE 9.74 200 11.42 213 -2.2 64 -8.0 75 221 984.2 NA 0.0000 9999 3180 0 0 0
2016/03/18 14:19:00 BASE 9.23 204 11.42 213 -2.2 64 -8.0 84 240 984.2 NA 0.0000 9999 3710 0 0 0
2016/03/18 14:20:00 BASE 8.60 204 11.42 213 -2.2 64 -8.0 104 278 984.2 NA 0.0000 9999 3310 0 0 0
2016/03/18 14:21:00 BASE 8.22 208 11.42 213 -2.2 65 -7.9 98 268 984.2 NA 0.0000 9999 3350 3710 0 0
2016/03/18 14:22:00 BASE 8.07 203 11.42 213 -2.2 65 -7.9 84 240 984.2 NA 0.0000 9999 3740 0 0 0
2016/03/18 14:23:00 BASE 8.91 193 11.42 213 -2.2 65 -7.9 78 227 984.2 NA 0.0000 9999 0 0 0 0
2016/03/18 14:24:00 BASE 9.28 193 11.42 213 -2.2 64 -8.0 81 235 984.2 NA 0.0000 9999 0 0 0 0
2016/03/18 14:25:00 BASE 8.81 195 10.80 210 -2.2 64 -8.1 90 251 984.3 NA 0.0000 9999 0 0 0 0
2016/03/18 14:26:00 BASE 8.31 196 10.80 210 -2.2 64 -8.1 86 245 984.3 NA 0.0000 9999 3150 0 0 0
2016/03/18 14:27:00 BASE 8.25 195 10.80 210 -2.2 64 -8.1 91 255 984.3 NA 0.0000 9999 3020 0 0 0
2016/03/18 14:28:00 BASE 7.48 193 10.39 209 -2.2 64 -8.1 91 254 984.3 NA 0.0000 9999 0 0 0 0
2016/03/18 14:29:00 BASE 6.75 189 10.39 209 -2.2 64 -8.1 87 247 984.3 NA 0.0000 9999 0 0 0 0
2016/03/18 14:30:00 BASE 7.42 189 10.39 209 -2.2 64 -8.1 90 253 984.3 NA 0.0000 9999 0 0 0 0
2016/03/18 14:31:00 BASE 7.69 189 10.39 209 -2.2 64 -8.1 111 294 984.3 NA 0.0000 9999 0 0 0 0
2016/03/18 14:32:00 BASE 7.95 196 10.39 209 -2.2 64 -8.1 126 332 984.2 NA 0.0000 9999 0 0 0 0
2016/03/18 14:33:00 BASE 8.25 196 10.39 209 -2.2 64 -8.1 131 331 984.3 NA 0.0000 9999 3350 0 0 0
2016/03/18 14:34:00 BASE 8.50 202 10.34 219 -2.2 64 -8.0 226 517 984.2 NA 0.0000 9999 0 0 0 0
2016/03/18 14:35:00 BASE 9.09 202 10.55 218 -2.2 64 -8.0 154 383 984.2 NA 0.0000 9999 0 0 0 0
2016/03/18 14:36:00 BASE 8.89 203 10.55 218 -2.1 64 -8.0 99 269 984.3 NA 0.0000 9999 0 0 0 0
2016/03/18 14:37:00 BASE 8.36 189 11.16 201 -2.1 65 -7.9 128 331 984.3 NA 0.0000 9999 3870 0 0 0
2016/03/18 14:38:01 BASE 8.86 189 11.16 201 -2.1 65 -7.8 175 419 984.2 NA 0.0000 9999 3510 0 0 0
2016/03/18 14:39:00 BASE 9.71 197 11.16 201 -2.1 64 -7.9 242 551 984.2 NA 0.0000 9999 3510 0 0 0
2016/03/18 14:40:00 BASE 9.26 197 11.16 201 -2.1 64 -8.1 214 499 984.2 NA 0.0000 9999 3080 0 0 0
2016/03/18 14:41:01 BASE 8.76 198 11.16 201 -2.1 63 -8.2 166 399 984.2 NA 0.0000 9999 3080 0 0 0
2016/03/18 14:42:00 BASE 8.72 198 11.16 201 -2.1 63 -8.3 155 375 984.2 NA 0.0000 9999 3080 3610 0 0
2016/03/18 14:43:00 BASE 8.35 197 11.16 201 -2.1 62 -8.4 154 375 984.2 NA 0.0000 9999 3280 0 0 0
2016/03/18 14:44:00 BASE 8.22 191 11.16 201 -2.1 62 -8.3 119 309 984.3 NA 0.0000 9999 3080 0 0 0
2016/03/18 14:45:00 BASE 9.10 191 11.16 201 -2.1 63 -8.3 97 264 984.2 NA 0.0000 9999 2950 0 0 0
2016/03/18 14:46:00 BASE 9.93 200 11.27 207 -2.1 63 -8.2 90 253 984.2 NA 0.0000 9999 3310 23070 0 0
2016/03/18 14:47:01 BASE 9.95 201 11.27 207 -2.1 63 -8.2 85 244 984.2 NA 0.0000 9999 0 0 0 0
2016/03/18 14:48:00 BASE 9.62 203 11.27 207 -2.1 63 -8.1 100 274 984.2 NA 0.0000 9999 0 0 0 0
2016/03/18 14:49:01 BASE 9.70 196 11.27 207 -2.1 63 -8.2 290 637 984.2 NA 0.0000 9999 3220 0 0 0
2016/03/18 14:50:00 BASE 9.66 196 11.27 207 -2.1 63 -8.2 98 272 984.2 NA 0.0000 9999 0 0 0 0
2016/03/18 14:51:01 BASE 10.18 200 12.04 217 -2.0 63 -8.2 130 330 984.1 NA 0.0000 9999 0 0 0 0
2016/03/18 14:52:01 BASE 10.57 202 12.04 217 -2.0 63 -8.2 148 371 984.1 NA 0.0000 9999 3080 0 0 0
2016/03/18 14:53:00 BASE 9.72 196 12.04 217 -2.0 62 -8.2 129 331 984.2 NA 0.0000 9999 0 0 0 0
2016/03/18 14:54:00 BASE 9.49 194 12.04 217 -2.0 62 -8.3 140 350 984.1 NA 0.0000 9999 2990 0 0 0
2016/03/18 14:55:00 BASE 9.02 194 12.04 217 -2.0 62 -8.2 143 361 984.1 NA 0.0000 9999 3150 0 0 0
2016/03/18 14:56:00 BASE 9.06 203 12.04 217 -2.0 63 -8.2 123 321 984.2 NA 0.0000 9999 3050 0 0 0
2016/03/18 14:57:01 BASE 8.74 196 12.04 217 -2.0 63 -8.1 109 294 984.2 NA 0.0000 9999 0 0 0 0
2016/03/18 14:58:01 BASE 8.18 196 12.04 217 -2.0 63 -8.0 90 258 984.2 NA 0.0000 9000 0 0 0 0
2016/03/18 14:59:00 BASE 9.07 197 12.04 217 -2.0 64 -7.9 86 251 984.2 NA 0.0000 9999 0 0 0 0
2016/03/18 15:00:00 BASE 8.48 197 12.04 217 -2.0 64 -7.9 99 277 984.2 NA 0.0000 9999 0 0 0 0
2016/03/18 15:01:01 BASE 8.49 196 11.68 204 -1.9 64 -7.9 325 700 984.2 NA 0.0000 9999 0 0 0 0
2016/03/18 15:02:00 BASE 9.57 196 11.16 217 -1.9 64 -7.8 142 367 984.2 NA 0.0000 9999 0 0 0 0
2016/03/18 15:03:00 BASE 9.56 190 11.16 217 -1.9 64 -7.9 444 917 984.2 NA 0.0000 9999 0 0 0 0
2016/03/18 15:04:00 BASE 9.97 190 11.47 213 -1.9 64 -7.9 111 302 984.2 NA 0.0000 9999 0 0 0 0
2016/03/18 15:05:00 BASE 10.01 202 11.99 216 -1.9 63 -7.9 468 955 984.2 NA 0.0000 9999 0 0 0 0
2016/03/18 15:06:01 BASE 9.23 200 11.99 216 -1.9 63 -8.0 456 931 984.2 NA 0.0000 9999 0 0 0 0
2016/03/18 15:07:00 BASE 10.00 200 12.04 209 -1.9 63 -8.0 464 947 984.2 NA 0.0000 9999 0 0 0 0
2016/03/18 15:08:00 BASE 10.07 200 12.04 209 -1.9 63 -8.0 486 988 984.2 NA 0.0000 9999 0 0 0 0
2016/03/18 15:09:00 BASE 9.68 197 12.04 209 -1.9 63 -8.0 481 979 984.2 NA 0.0000 9999 0 0 0 0
2016/03/18 15:10:00 BASE 10.84 197 12.09 199 -1.8 63 -8.0 475 968 984.2 NA 0.0000 9999 0 0 0 0
2016/03/18 15:11:01 BASE 11.10 199 12.09 199 -1.8 62 -8.1 481 976 984.2 NA 0.0000 9000 0 0 0 0
2016/03/18 15:12:01 BASE 10.94 198 12.30 205 -1.8 62 -8.1 122 328 984.2 NA 0.0000 9000 0 0 0 0
2016/03/18 15:13:01 BASE 10.63 198 12.30 205 -1.8 62 -8.1 480 977 984.3 NA 0.0000 9999 0 0 0 0
2016/03/18 15:14:01 BASE 10.02 198 12.30 205 -1.8 62 -8.2 358 777 984.3 NA 0.0000 HZ 9000 0 0 0 0
2016/03/18 15:15:00 BASE 10.08 196 12.30 205 -1.8 62 -8.2 523 1058 984.3 NA 0.0000 HZ 9000 0 0 0 0
2016/03/18 15:16:01 BASE 10.46 196 12.30 205 -1.8 62 -8.2 390 831 984.2 NA 0.0000 HZ 9999 3350 0 0 0
2016/03/18 15:17:00 BASE 10.77 196 12.30 205 -1.8 62 -8.2 235 547 984.3 NA 0.0000 HZ 9999 0 0 0 0
2016/03/18 15:18:01 BASE 10.53 192 12.30 205 -1.8 62 -8.2 146 363 984.3 NA 0.0000 HZ 9999 0 0 0 0
2016/03/18 15:19:01 BASE 9.97 192 12.30 205 -1.9 62 -8.2 244 561 984.3 NA 0.0000 HZ 9999 3580 22540 0 0
2016/03/18 15:20:00 BASE 10.19 196 12.30 205 -1.9 62 -8.2 510 1040 984.3 NA 0.0000 HZ 9999 3740 0 0 0
2016/03/18 15:21:01 BASE 10.56 201 12.30 205 -1.9 62 -8.1 147 363 984.2 NA 0.0000 HZ 9000 3580 0 0 0
2016/03/18 15:22:01 BASE 10.37 197 12.04 211 -1.9 62 -8.1 145 360 984.3 NA 0.0000 HZ 9999 3310 0 0 0
2016/03/18 15:23:00 BASE 9.82 197 12.04 211 -1.9 63 -8.1 145 362 984.3 NA 0.0000 HZ 9999 3410 0 0 0
2016/03/18 15:24:01 BASE 8.87 203 12.04 211 -1.9 63 -8.0 152 377 984.3 NA 0.0000 HZ 9999 3450 0 0 0
2016/03/18 15:25:01 BASE 9.51 192 11.88 209 -1.9 63 -7.9 153 377 984.3 NA 0.0000 9999 0 0 0 0
2016/03/18 15:26:01 BASE 9.83 192 11.88 209 -1.9 63 -8.0 149 371 984.3 NA 0.0000 HZ 9999 3080 0 0 0
2016/03/18 15:27:01 BASE 8.66 192 11.73 211 -1.9 63 -8.0 139 353 984.4 NA 0.0000 HZ 9999 3410 0 0 0
2016/03/18 15:28:01 BASE 8.74 188 11.73 211 -1.9 63 -8.0 131 336 984.4 NA 0.0000 HZ 9999 3770 0 0 0
2016/03/18 15:29:01 BASE 9.14 188 11.73 211 -2.0 63 -8.1 134 341 984.4 NA 0.0000 9999 0 0 0 0
2016/03/18 15:30:01 BASE 8.92 189 11.73 211 -2.0 62 -8.2 143 358 984.4 NA 0.0000 9999 3280 0 0 0
2016/03/18 15:31:01 BASE 8.47 189 11.63 198 -2.0 62 -8.2 138 348 984.5 NA 0.0000 9999 3540 0 0 0
2016/03/18 15:32:01 BASE 9.03 194 11.63 198 -2.0 62 -8.2 148 369 984.0 NA 0.0000 9999 0 0 0 0
2016/03/18 15:33:01 BASE 10.34 197 11.73 200 -2.0 62 -8.2 167 404 983.7 NA 0.0000 9999 3350 0 0 0
2016/03/18 15:34:01 BASE 10.53 185 11.73 200 -2.0 62 -8.2 176 423 983.4 NA 0.0000 9999 3280 0 0 0
2016/03/18 15:35:01 BASE 9.65 184 11.73 200 -2.0 62 -8.2 176 419 984.5 NA 0.0000 9000 3510 0 0 0
2016/03/18 15:36:01 BASE 9.16 184 11.73 200 -1.9 63 -8.1 204 476 984.5 NA 0.0000 HZ 9000 3450 0 0 0
2016/03/18 15:37:01 BASE 8.74 189 11.73 200 -1.9 63 -8.1 195 460 984.5 NA 0.0000 HZ 9000 3120 0 0 0
2016/03/18 15:38:01 BASE 8.66 191 11.73 200 -1.9 63 -8.1 188 446 984.5 NA 0.0000 HZ 9000 3150 0 0 0
2016/03/18 15:39:01 BASE 9.29 196 11.73 200 -1.9 63 -8.0 184 439 984.5 NA 0.0000 HZ 9999 3150 0 0 0
2016/03/18 15:40:01 BASE 9.51 203 11.73 200 -1.8 63 -7.9 172 415 984.5 NA 0.0000 HZ 9000 2990 3640 0 0
2016/03/18 15:41:01 BASE 8.85 201 11.73 200 -1.8 64 -7.8 167 406 984.5 NA 0.0000 HZ 9000 2990 22410 0 0
2016/03/18 15:42:01 BASE 8.73 201 11.73 200 -1.8 64 -7.8 152 380 984.5 NA 0.0000 HZ 9000 3050 3640 0 0
2016/03/18 15:43:01 BASE 10.35 203 13.43 218 -1.8 64 -7.7 127 329 984.4 NA 0.0000 HZ 9000 2950 0 0 0
2016/03/18 15:44:01 BASE 11.47 201 13.43 218 -1.8 64 -7.8 119 313 984.4 NA 0.0000 HZ 9000 2920 0 0 0
2016/03/18 15:45:01 BASE 11.76 201 13.48 211 -1.8 63 -7.8 144 362 984.4 NA 0.0000 HZ 9000 2990 3710 0 0
2016/03/18 15:46:01 BASE 11.09 203 13.48 211 -1.8 63 -7.9 193 454 984.5 NA 0.0000 HZ 9999 3410 0 0 0
2016/03/18 15:47:01 BASE 8.94 203 13.48 211 -1.8 63 -7.9 304 676 984.6 NA 0.0000 HZ 9999 3150 4000 0 0
2016/03/18 15:48:01 BASE 7.90 201 13.48 211 -1.8 63 -8.0 226 533 984.5 NA 0.0000 HZ 9000 3670 0 0 0
2016/03/18 15:49:01 BASE 8.28 198 13.48 211 -1.8 63 -8.0 259 598 984.5 NA 0.0000 HZ 9000 3610 4200 0 0
2016/03/18 15:50:01 BASE 8.76 193 13.48 211 -1.7 63 -7.9 286 657 984.5 NA 0.0000 HZ 8000 3450 0 0 0
2016/03/18 15:51:01 BASE 8.93 188 13.48 211 -1.7 63 -7.9 416 898 984.5 NA 0.0000 HZ 8000 3220 0 0 0
2016/03/18 15:52:01 BASE 8.73 187 13.48 211 -1.7 62 -8.0 142 365 984.5 NA 0.0000 HZ 9000 3220 3670 0 0
2016/03/18 15:53:01 BASE 8.86 187 13.48 211 -1.7 62 -8.0 149 384 984.5 NA 0.0000 HZ 9999 3220 0 0 0
2016/03/18 15:54:01 BASE 8.45 200 13.48 211 -1.7 62 -8.0 177 442 984.6 NA 0.0000 HZ 9000 3450 0 0 0
2016/03/18 15:55:01 BASE 7.77 203 11.21 210 -1.7 62 -8.0 379 818 984.5 NA 0.0000 HZ 9000 3020 16010 21460 0
2016/03/18 15:56:01 BASE 8.18 202 10.49 209 -1.7 62 -7.9 501 1032 984.5 NA 0.0000 HZ 9000 3050 0 0 0
2016/03/18 15:57:01 BASE 8.24 202 10.49 209 -1.7 63 -7.9 510 1043 984.5 NA 0.0000 HZ 8000 0 0 0 0
2016/03/18 15:58:01 BASE 8.31 209 10.49 209 -1.6 63 -7.8 332 734 984.5 NA 0.0000 HZ 9000 3180 0 0 0
2016/03/18 15:59:01 BASE 9.73 206 12.81 211 -1.6 63 -7.8 492 1014 984.5 NA 0.0000 HZ 9000 0 0 0 0
2016/03/18 16:00:01 BASE 9.85 202 12.81 211 -1.6 62 -7.9 506 1034 984.5 NA 0.0000 HZ 9000 0 0 0 0
2016/03/18 16:01:01 BASE 9.32 202 12.81 211 -1.6 62 -7.9 490 1006 984.5 NA 0.0000 HZ 9000 0 0 0 0
2016/03/18 16:02:01 BASE 8.64 203 12.81 211 -1.6 62 -7.9 487 1003 984.6 NA 0.0000 HZ 9999 0 0 0 0
2016/03/18 16:03:01 BASE 7.77 203 12.81 211 -1.6 62 -7.9 490 1009 984.6 NA 0.0000 HZ 9999 0 0 0 0
2016/03/18 16:04:01 BASE 7.98 207 12.81 211 -1.6 62 -7.9 506 1039 984.6 NA 0.0000 HZ 9999 3250 0 0 0
2016/03/18 16:05:01 BASE 7.28 202 12.81 211 -1.5 62 -7.9 522 1069 984.6 NA 0.0000 HZ 9999 3410 0 0 0
2016/03/18 16:06:01 BASE 7.35 200 12.81 211 -1.5 62 -7.8 506 1038 984.5 NA 0.0000 HZ 9999 0 0 0 0
2016/03/18 16:07:01 BASE 8.43 200 12.81 211 -1.5 62 -7.8 501 1028 984.5 NA 0.0000 9999 0 0 0 0
2016/03/18 16:08:01 BASE 9.53 201 12.81 211 -1.5 62 -7.8 493 1013 984.5 NA 0.0000 9999 0 0 0 0
2016/03/18 16:09:01 BASE 10.04 201 12.04 207 -1.5 62 -7.9 497 1020 984.5 NA 0.0000 9999 0 0 0 0
2016/03/18 16:10:01 BASE 9.25 197 12.04 207 -1.5 61 -8.0 496 1016 984.6 NA 0.0000 9999 0 0 0 0
2016/03/18 16:11:01 BASE 9.35 197 12.04 207 -1.5 61 -8.1 496 1019 984.5 NA 0.0000 9999 0 0 0 0
2016/03/18 16:12:01 BASE 9.74 200 12.04 207 -1.5 60 -8.3 501 1027 984.5 NA 0.0000 9999 0 0 0 0
2016/03/18 16:13:01 BASE 9.33 191 12.04 207 -1.5 60 -8.4 491 1014 984.6 NA 0.0000 9999 3510 0 0 0
2016/03/18 16:14:01 BASE 8.11 191 12.04 207 -1.5 60 -8.3 478 992 984.6 NA 0.0000 9999 0 0 0 0
2016/03/18 16:15:01 BASE 8.27 191 12.04 207 -1.5 60 -8.3 268 620 984.5 NA 0.0000 9999 0 0 0 0
2016/03/18 16:16:01 BASE 9.45 191 12.04 207 -1.6 60 -8.3 501 1028 984.5 NA 0.0000 9999 3610 0 0 0
2016/03/18 16:17:01 BASE 9.68 198 12.04 207 -1.6 60 -8.3 497 1022 984.5 NA 0.0000 9999 3310 0 0 0
2016/03/18 16:18:00 BASE 9.29 198 11.42 215 -1.6 60 -8.3 493 1015 984.5 NA 0.0000 9999 0 0 0 0
2016/03/18 16:19:00 BASE 8.76 189 11.27 217 -1.6 60 -8.3 511 1049 984.5 NA 0.0000 9999 0 0 0 0
2016/03/18 16:20:00 BASE 9.19 189 11.27 217 -1.6 60 -8.3 545 1113 984.4 NA 0.0000 9999 3540 4070 0 0
2016/03/18 16:21:00 BASE 8.89 193 11.27 217 -1.6 60 -8.3 530 1090 984.6 NA 0.0000 9999 3220 0 0 0
2016/03/18 16:22:00 BASE 7.45 199 11.27 217 -1.5 60 -8.2 530 1085 984.6 NA 0.0000 9999 3220 0 0 0
2016/03/18 16:23:00 BASE 7.28 205 11.27 217 -1.5 61 -8.0 519 1063 984.6 NA 0.0000 9000 2990 0 0 0
2016/03/18 16:24:00 BASE 8.54 208 11.27 217 -1.5 62 -7.9 502 1035 984.5 NA 0.0000 9999 0 0 0 0
2016/03/18 16:25:00 BASE 9.01 207 11.27 217 -1.4 62 -7.7 510 1047 984.5 NA 0.0000 9999 0 0 0 0
2016/03/18 16:26:00 BASE 8.76 201 11.27 217 -1.4 63 -7.6 524 1072 984.6 NA 0.0000 9999 0 0 0 0
2016/03/18 16:27:00 BASE 9.49 201 11.27 217 -1.4 63 -7.6 514 1061 984.5 NA 0.0000 9999 3450 0 0 0
2016/03/18 16:28:00 BASE 10.35 201 11.32 211 -1.4 62 -7.8 522 1071 984.5 NA 0.0000 9999 3120 0 0 0
2016/03/18 16:29:00 BASE 9.73 200 11.32 211 -1.4 62 -7.8 530 1083 984.6 NA 0.0000 9999 0 0 0 0
2016/03/18 16:30:00 BASE 8.54 200 11.32 211 -1.5 62 -7.8 548 1122 984.6 NA 0.0000 9999 0 0 0 0
2016/03/18 16:31:00 BASE 7.89 201 11.32 211 -1.5 62 -7.8 141 371 984.6 NA 0.0000 9999 3250 0 0 0
2016/03/18 16:32:00 BASE 7.62 204 11.32 211 -1.5 62 -7.7 322 707 984.5 NA 0.0000 9999 0 0 0 0
2016/03/18 16:33:00 BASE 8.54 206 11.32 211 -1.4 63 -7.6 514 1050 984.5 NA 0.0000 9000 0 0 0 0
2016/03/18 16:34:00 BASE 9.16 206 11.32 211 -1.4 63 -7.5 104 297 984.5 NA 0.0000 9000 0 0 0 0
2016/03/18 16:35:00 BASE 8.70 206 11.32 211 -1.5 63 -7.6 175 450 984.4 NA 0.0000 9999 3120 3710 0 0
2016/03/18 16:36:00 BASE 8.97 202 11.57 211 -1.5 63 -7.6 171 433 984.4 NA 0.0000 HZ 9000 2990 3610 0 0
2016/03/18 16:37:00 BASE 9.95 202 11.57 211 -1.5 63 -7.8 258 609 984.4 NA 0.0000 HZ 9000 2920 0 0 0
2016/03/18 16:38:00 BASE 9.43 203 11.57 211 -1.6 62 -7.8 223 531 984.5 NA 0.0000 HZ 9000 3180 0 0 0
2016/03/18 16:39:00 BASE 8.11 207 11.57 211 -1.6 62 -7.8 546 1117 984.4 NA 0.0000 HZ 8000 3120 0 0 0
2016/03/18 16:40:00 BASE 8.49 208 11.57 211 -1.6 63 -7.8 146 377 984.4 NA 0.0000 HZ 9000 3050 0 0 0
2016/03/18 16:41:00 BASE 8.98 202 11.57 211 -1.6 63 -7.8 174 438 984.4 NA 0.0000 HZ 8000 3280 0 0 0
2016/03/18 16:42:00 BASE 8.92 202 11.57 211 -1.5 63 -7.8 268 625 984.4 NA 0.0000 HZ 7000 2990 3610 22510 0
2016/03/18 16:43:00 BASE 9.21 207 11.57 211 -1.5 62 -7.8 546 1118 984.4 NA 0.0000 HZ 9000 3020 0 0 0
2016/03/18 16:44:00 BASE 9.49 202 11.57 211 -1.5 62 -7.8 553 1126 984.4 NA 0.0000 HZ 9999 0 0 0 0
2016/03/18 16:45:00 BASE 9.67 198 11.57 211 -1.5 62 -7.8 202 500 984.4 NA 0.0000 HZ 9999 0 0 0 0
2016/03/18 16:46:00 BASE 10.12 198 11.47 217 -1.5 62 -7.8 525 1073 984.4 NA 0.0000 HZ 9000 0 0 0 0
2016/03/18 16:47:00 BASE 10.47 203 11.99 209 -1.5 63 -7.7 521 1066 984.4 NA 0.0000 HZ 9000 0 0 0 0
2016/03/18 16:48:00 BASE 10.92 202 12.55 206 -1.5 63 -7.7 369 805 984.4 NA 0.0000 HZ 9999 0 0 0 0
2016/03/18 16:49:00 BASE 11.14 201 12.66 212 -1.5 62 -7.8 521 1064 984.4 NA 0.0000 HZ 9999 0 0 0 0
2016/03/18 16:50:00 BASE 11.37 199 12.91 207 -1.5 62 -7.9 520 1061 984.4 NA 0.0000 HZ 9999 0 0 0 0
2016/03/18 16:51:00 BASE 11.74 199 13.58 210 -1.5 61 -8.1 530 1079 984.4 NA 0.0000 HZ 8000 0 0 0 0
2016/03/18 16:52:00 BASE 9.73 200 13.58 210 -1.5 60 -8.2 545 1115 984.6 NA 0.0000 HZ 9000 0 0 0 0
2016/03/18 16:53:00 BASE 8.21 200 13.58 210 -1.5 60 -8.2 175 429 984.5 NA 0.0000 HZ 9000 0 0 0 0
2016/03/18 16:54:00 BASE 9.19 197 13.58 210 -1.5 60 -8.2 228 535 984.5 NA 0.0000 HZ 8000 0 0 0 0
2016/03/18 16:55:00 BASE 9.10 189 13.58 210 -1.5 61 -8.1 153 386 984.6 NA 0.0000 HZ 8000 0 0 0 0
2016/03/18 16:56:00 BASE 9.72 189 13.58 210 -1.5 61 -8.0 155 384 984.5 NA 0.0000 HZ 8000 4860 0 0 0
2016/03/18 16:57:00 BASE 10.43 189 13.58 210 -1.5 61 -8.0 163 403 984.5 NA 0.0000 HZ 8000 4790 0 0 0
2016/03/18 16:58:00 BASE 9.86 189 13.58 210 -1.6 61 -8.1 143 364 984.5 NA 0.0000 HZ 8000 2950 4690 0 0
2016/03/18 16:59:00 BASE 10.43 191 13.58 210 -1.6 61 -8.2 134 345 984.5 NA 0.0000 HZ 8000 3050 4400 0 0
2016/03/18 17:00:00 BASE 10.79 192 13.58 210 -1.7 61 -8.3 137 350 984.5 NA 0.0000 HZ 9000 3940 0 0 0
2016/03/18 17:01:00 BASE 9.54 178 12.14 203 -1.7 61 -8.4 149 372 984.5 NA 0.0000 HZ 9000 3940 4530 0 0
2016/03/18 17:02:00 BASE 8.98 178 12.14 203 -1.8 61 -8.3 149 373 984.5 NA 0.0000 HZ 9000 4270 0 0 0
2016/03/18 17:03:00 BASE 9.33 191 12.14 203 -1.8 61 -8.3 146 367 984.2 NA 0.0000 HZ 9000 2920 4000 0 0
2016/03/18 17:04:00 BASE 9.35 193 12.14 203 -1.8 61 -8.3 139 350 984.1 NA 0.0000 HZ 9000 3050 3580 0 0
2016/03/18 17:05:00 BASE 9.40 189 12.14 203 -1.8 62 -8.2 147 364 984.4 NA 0.0000 HZ 9000 2890 3510 0 0
2016/03/18 17:06:00 BASE 8.97 187 12.04 193 -1.8 62 -8.1 159 386 984.5 NA 0.0000 HZ 8000 3840 0 0 0
2016/03/18 17:07:00 BASE 8.54 185 12.04 193 -1.8 62 -8.0 153 373 984.5 NA 0.0000 HZ 9000 3080 0 0 0
2016/03/18 17:08:00 BASE 8.80 185 12.04 193 -1.8 63 -8.0 140 347 984.4 NA 0.0000 HZ 9000 4100 0 0 0
2016/03/18 17:09:00 BASE 8.66 189 11.78 196 -1.8 63 -7.9 124 316 984.4 NA 0.0000 HZ 8000 4100 0 0 0
2016/03/18 17:10:00 BASE 8.25 190 11.01 193 -1.8 64 -7.8 111 287 984.4 NA 0.0000 HZ 8000 3740 0 0 0
2016/03/18 17:11:00 BASE 8.63 189 11.01 193 -1.7 64 -7.7 99 260 984.4 NA 0.0000 HZ 8000 2950 23750 0 0
2016/03/18 17:12:00 BASE 9.82 189 11.73 202 -1.7 64 -7.6 91 243 984.3 NA 0.0000 HZ 9000 3020 3740 0 0
2016/03/18 17:13:00 BASE 10.67 189 11.73 202 -1.7 64 -7.6 85 230 984.3 NA 0.0000 HZ 9000 3410 0 0 0
2016/03/18 17:14:00 BASE 10.85 195 11.73 202 -1.7 64 -7.6 79 216 984.4 NA 0.0000 HZ 9000 2950 3540 0 0
2016/03/18 17:15:00 BASE 10.69 200 11.73 202 -1.8 64 -7.7 76 209 984.4 NA 0.0000 HZ 9000 3150 0 0 0
2016/03/18 17:16:00 BASE 10.08 204 11.73 202 -1.8 64 -7.8 77 210 984.4 NA 0.0000 HZ 9000 2920 0 0 0
2016/03/18 17:17:00 BASE 9.46 203 11.73 202 -1.8 64 -7.8 83 221 984.4 NA 0.0000 HZ 8000 2820 0 0 0
2016/03/18 17:18:00 BASE 9.15 196 11.73 202 -1.8 64 -7.8 87 230 984.4 NA 0.0000 HZ 8000 2990 4460 0 0
2016/03/18 17:19:00 BASE 9.44 192 11.73 202 -1.8 64 -7.8 89 234 984.4 NA 0.0000 HZ 8000 2820 0 0 0
2016/03/18 17:20:00 BASE 9.33 192 11.73 202 -1.8 64 -7.7 86 230 984.4 NA 0.0000 HZ 8000 2850 0 0 0
2016/03/18 17:21:00 BASE 8.79 187 11.73 202 -1.8 64 -7.7 77 211 984.5 NA 0.0000 HZ 8000 2890 3740 0 0
2016/03/18 17:22:00 BASE 8.79 183 11.68 206 -1.8 64 -7.7 69 192 984.4 NA 0.0000 HZ 8000 2790 0 0 0
2016/03/18 17:23:00 BASE 9.28 183 11.94 200 -1.8 64 -7.6 65 184 984.4 NA 0.0000 HZ 8000 2850 0 0 0
2016/03/18 17:24:00 BASE 10.54 192 12.14 201 -1.8 64 -7.6 69 192 984.4 NA 0.0000 HZ 8000 2920 0 0 0
2016/03/18 17:25:00 BASE 10.89 192 12.14 201 -1.7 64 -7.7 80 217 984.5 NA 0.0000 HZ 8000 2890 0 0 0
2016/03/18 17:26:00 BASE 10.67 195 12.19 197 -1.7 64 -7.7 99 260 984.4 NA 0.0000 UP 8000 2820 3350 0 0
2016/03/18 17:27:00 BASE 10.16 193 12.19 197 -1.7 63 -7.9 121 307 984.5 NA 0.0000 UP 7000 3350 3970 0 0
2016/03/18 17:28:00 BASE 9.75 189 12.19 197 -1.7 63 -7.9 149 365 984.4 NA 0.0000 UP 8000 5020 0 0 0
2016/03/18 17:29:00 BASE 9.74 189 12.19 197 -1.7 63 -7.9 201 468 984.5 NA 0.0000 UP 8000 4920 0 0 0
2016/03/18 17:30:00 BASE 9.48 198 12.19 197 -1.7 63 -7.8 274 609 984.5 NA 0.0000 UP 9000 4720 5220 0 0
2016/03/18 17:31:00 BASE 9.34 198 12.19 197 -1.7 63 -7.7 290 646 984.4 NA 0.0000 UP 9000 4860 0 0 0
2016/03/18 17:32:00 BASE 9.40 202 12.19 197 -1.7 64 -7.7 496 1024 984.4 NA 0.0000 UP 8000 3380 4690 0 0
2016/03/18 17:33:00 BASE 9.52 202 12.19 197 -1.6 64 -7.6 285 639 984.4 NA 0.0000 UP 7000 2990 3710 0 0
2016/03/18 17:34:00 BASE 9.02 189 12.19 197 -1.6 64 -7.6 175 415 984.4 NA 0.0000 UP 8000 2790 3510 0 0
2016/03/18 17:35:00 BASE 9.30 189 12.19 197 -1.6 64 -7.6 137 342 984.3 NA 0.0000 UP 8000 2790 3350 0 0
2016/03/18 17:36:00 BASE 10.17 189 11.52 204 -1.5 64 -7.5 121 309 984.3 NA 0.0000 UP 9000 2990 0 0 0
2016/03/18 17:37:00 BASE 9.96 192 11.52 204 -1.5 64 -7.5 115 295 984.4 NA 0.0000 HZ 9000 2820 4400 22180 0
2016/03/18 17:38:00 BASE 8.95 194 11.52 204 -1.5 64 -7.4 105 275 984.4 NA 0.0000 HZ 9000 2760 3610 4270 0
2016/03/18 17:39:00 BASE 8.54 195 11.42 201 -1.5 65 -7.3 105 276 984.4 NA 0.0000 HZ 8000 2590 0 0 0
2016/03/18 17:40:00 BASE 8.98 175 11.42 201 -1.5 65 -7.2 107 283 984.3 NA 0.0000 HZ 7000 4070 4430 4860 0
2016/03/18 17:41:00 BASE 9.72 175 11.88 206 -1.5 66 -7.1 118 305 984.3 NA 0.0000 HZ 8000 4790 0 0 0
2016/03/18 17:42:00 BASE 10.08 188 11.88 206 -1.5 66 -7.1 148 361 984.3 NA 0.0000 HZ 8000 5840 0 0 0
2016/03/18 17:43:00 BASE 9.97 188 11.88 206 -1.5 66 -7.1 444 926 984.3 NA 0.0000 HZ 7000 2890 5180 0 0
2016/03/18 17:44:00 BASE 8.99 188 11.88 206 -1.5 65 -7.2 244 548 984.4 NA 0.0000 HZ 7000 4760 5350 0 0
2016/03/18 17:45:00 BASE 8.21 188 11.88 206 -1.5 65 -7.3 628 1250 984.4 NA 0.0000 HZ 7000 4170 5250 0 0
2016/03/18 17:46:00 BASE 8.67 191 11.88 206 -1.5 65 -7.3 642 1284 984.3 NA 0.0000 HZ 8000 4790 0 0 0
2016/03/18 17:47:00 BASE 9.86 191 12.24 198 -1.5 65 -7.3 681 1358 984.3 NA 0.0000 HZ 9999 3350 3870 0 0
2016/03/18 17:48:00 BASE 11.32 190 13.38 197 -1.4 64 -7.4 610 1227 984.2 NA 0.0000 HZ 9999 2850 3250 0 0
2016/03/18 17:49:00 BASE 11.54 188 13.38 197 -1.4 63 -7.6 298 662 984.3 NA 0.0000 HZ 9999 3640 4720 0 0
2016/03/18 17:50:00 BASE 10.87 188 13.38 197 -1.4 62 -7.7 201 470 984.3 NA 0.0000 HZ 9000 3150 4760 0 0
2016/03/18 17:51:00 BASE 11.15 189 13.38 197 -1.4 61 -8.0 159 386 984.2 NA 0.0000 HZ 8000 4430 0 0 0
2016/03/18 17:52:00 BASE 11.88 191 13.38 197 -1.4 60 -8.1 129 325 984.2 NA 0.0000 HZ 8000 3250 4130 0 0
2016/03/18 17:53:00 BASE 11.34 193 13.38 197 -1.4 60 -8.2 121 305 984.3 NA 0.0000 HZ 9000 3080 0 0 0
2016/03/18 17:54:00 BASE 9.97 194 13.38 197 -1.4 60 -8.2 122 306 984.3 NA 0.0000 HZ 8000 3050 0 0 0
2016/03/18 17:55:00 BASE 9.06 193 13.38 197 -1.5 61 -8.0 112 288 984.3 NA 0.0000 HZ 7000 3150 3670 0 0
2016/03/18 17:56:00 BASE 9.07 182 13.38 197 -1.5 62 -7.9 103 270 984.3 NA 0.0000 HZ 7000 3310 3900 0 0
2016/03/18 17:57:00 BASE 9.12 179 13.38 197 -1.5 62 -7.7 99 262 984.3 NA 0.0000 HZ 7000 3480 4560 0 0
2016/03/18 17:58:00 BASE 8.74 179 12.60 195 -1.5 63 -7.6 106 277 984.3 NA 0.0000 HZ 8000 3580 0 0 0
2016/03/18 17:59:00 BASE 8.56 180 12.60 195 -1.5 63 -7.5 125 312 984.4 NA 0.0000 HZ 7000 3670 4630 0 0
2016/03/18 18:00:00 BASE 8.89 189 12.60 195 -1.5 63 -7.5 144 347 984.3 NA 0.0000 HZ 7000 4990 0 0 0
2016/03/18 18:01:00 BASE 9.00 189 12.60 195 -1.5 63 -7.5 145 349 984.3 NA 0.0000 HZ 7000 5050 0 0 0
2016/03/18 18:02:00 BASE 8.20 190 11.32 203 -1.5 63 -7.6 124 307 984.3 NA 0.0000 HZ 7000 4430 4920 0 0
2016/03/18 18:03:00 BASE 7.92 193 10.75 200 -1.5 63 -7.5 104 267 984.3 NA 0.0000 HZ 7000 3640 4270 0 0
2016/03/18 18:04:00 BASE 8.40 196 10.75 200 -1.5 64 -7.5 90 237 984.3 NA 0.0000 HZ 7000 4070 0 0 0
2016/03/18 18:05:00 BASE 8.76 200 10.55 182 -1.5 64 -7.5 78 211 984.3 NA 0.0000 HZ 8000 3810 0 0 0
2016/03/18 18:06:00 BASE 8.80 199 10.55 182 -1.5 64 -7.5 69 191 984.3 NA 0.0000 HZ 7000 3740 0 0 0
2016/03/18 18:07:00 BASE 8.46 193 10.19 208 -1.5 64 -7.5 64 179 984.3 NA 0.0000 HZ 7000 3080 3770 0 0
2016/03/18 18:08:00 BASE 8.56 193 10.19 208 -1.5 64 -7.5 65 181 984.3 NA 0.0000 HZ 7000 2850 0 0 0
2016/03/18 18:09:00 BASE 9.49 177 11.68 187 -1.5 64 -7.5 71 195 984.3 NA 0.0000 HZ 7000 2760 0 0 0
2016/03/18 18:10:00 BASE 10.13 177 11.68 187 -1.5 64 -7.4 79 212 984.2 NA 0.0000 HZ 7000 2760 3900 0 0
2016/03/18 18:11:00 BASE 10.04 185 11.68 198 -1.5 64 -7.3 73 201 984.3 NA 0.0000 HZ 7000 2920 4530 0 0
2016/03/18 18:12:00 BASE 10.21 187 11.68 197 -1.5 65 -7.3 69 193 984.3 NA 0.0000 HZ 7000 2790 3540 0 0
2016/03/18 18:13:00 BASE 9.80 188 11.68 197 -1.5 65 -7.3 73 203 984.3 NA 0.0000 HZ 8000 3080 3610 0 0
2016/03/18 18:14:00 BASE 9.44 191 11.68 197 -1.5 64 -7.3 82 221 984.3 NA 0.0000 HZ 8000 3250 3900 6100 0
2016/03/18 18:15:00 BASE 9.28 186 11.68 197 -1.5 64 -7.4 98 253 984.3 NA 0.0000 HZ 7000 3310 0 0 0
2016/03/18 18:16:00 BASE 9.58 186 11.68 197 -1.5 64 -7.4 104 265 984.3 NA 0.0000 HZ 7000 3150 4990 0 0
2016/03/18 18:17:00 BASE 9.89 198 11.68 197 -1.5 64 -7.3 92 242 984.3 NA 0.0000 HZ 7000 3510 0 0 0
2016/03/18 18:18:00 BASE 10.02 191 12.04 198 -1.5 65 -7.2 85 228 984.3 NA 0.0000 HZ 7000 3350 3900 0 0
2016/03/18 18:19:00 BASE 10.84 186 12.24 202 -1.5 65 -7.2 80 217 984.2 NA 0.0000 HZ 7000 3480 4230 0 0
2016/03/18 18:20:00 BASE 11.32 186 12.76 201 -1.5 65 -7.3 76 208 984.2 NA 0.0000 HZ 7000 3380 4070 0 0
2016/03/18 18:21:00 BASE 11.32 187 12.76 201 -1.5 64 -7.4 71 197 984.3 NA 0.0000 HZ 7000 3670 0 0 0
2016/03/18 18:22:00 BASE 11.00 192 12.76 201 -1.5 63 -7.5 69 193 984.3 NA 0.0000 HZ 7000 3610 0 0 0
2016/03/18 18:23:00 BASE 10.61 193 12.76 201 -1.5 63 -7.7 69 193 984.3 NA 0.0000 HZ 7000 3740 0 0 0
2016/03/18 18:24:00 BASE 10.50 196 12.76 201 -1.5 63 -7.7 69 192 984.3 NA 0.0000 HZ 7000 3770 4860 0 0
2016/03/18 18:25:00 BASE 10.80 189 12.76 201 -1.5 62 -7.8 67 186 984.3 NA 0.0000 HZ 8000 3410 4590 0 0
2016/03/18 18:26:00 BASE 10.48 189 12.76 201 -1.5 62 -7.8 62 176 984.3 NA 0.0000 HZ 8000 3810 0 0 0
2016/03/18 18:27:00 BASE 10.30 197 12.76 201 -1.5 62 -7.8 58 167 984.3 NA 0.0000 HZ 8000 3410 0 0 0
2016/03/18 18:28:00 BASE 9.88 197 12.76 201 -1.5 62 -7.8 58 165 984.3 NA 0.0000 HZ 7000 3350 0 0 0
2016/03/18 18:29:00 BASE 10.06 197 12.76 201 -1.5 63 -7.7 60 170 984.3 NA 0.0000 HZ 7000 3580 0 0 0
2016/03/18 18:30:00 BASE 10.63 198 12.30 200 -1.5 63 -7.6 63 175 984.3 NA 0.0000 UP 7000 2890 0 0 0
2016/03/18 18:31:00 BASE 10.82 195 12.55 205 -1.5 63 -7.5 64 176 984.3 NA 0.0000 HZ 7000 3080 0 0 0
2016/03/18 18:32:00 BASE 11.46 191 12.60 195 -1.5 64 -7.5 62 171 984.3 NA 0.0000 HZ 8000 2990 3450 0 0
2016/03/18 18:33:00 BASE 11.33 189 12.60 195 -1.5 64 -7.5 64 177 984.2 NA 0.0000 UP 7000 3220 0 0 0
2016/03/18 18:34:00 BASE 10.93 188 12.60 195 -1.5 64 -7.5 66 180 984.2 NA 0.0000 UP 6000 3150 3940 0 0
2016/03/18 18:35:00 BASE 11.16 187 12.86 199 -1.5 64 -7.5 67 184 984.2 NA 0.0000 UP 7000 2950 0 0 0
2016/03/18 18:36:00 BASE 11.53 187 12.91 197 -1.5 64 -7.5 70 192 984.2 NA 0.0000 UP 7000 3180 3900 0 0
2016/03/18 18:37:00 BASE 11.42 188 12.91 197 -1.5 64 -7.5 74 201 984.2 NA 0.0000 UP 7000 3050 4920 0 0
2016/03/18 18:38:00 BASE 11.73 188 13.48 195 -1.5 64 -7.4 82 216 984.2 NA 0.0000 UP 6000 2850 4690 0 0
2016/03/18 18:39:00 BASE 11.79 189 13.48 195 -1.5 64 -7.4 93 237 984.2 NA 0.0000 UP 7000 2890 3540 4040 0
2016/03/18 18:40:00 BASE 11.00 180 13.48 195 -1.5 64 -7.4 107 264 984.3 NA 0.0000 UP 7000 2990 4630 0 0
2016/03/18 18:41:00 BASE 10.88 180 13.48 195 -1.5 64 -7.4 99 249 984.3 NA 0.0000 UP 7000 2890 0 0 0
2016/03/18 18:42:00 BASE 10.89 184 13.48 195 -1.5 65 -7.3 88 229 984.3 NA 0.0000 UP 6000 2890 3840 0 0
2016/03/18 18:43:00 BASE 10.75 184 13.48 195 -1.5 65 -7.3 97 246 984.3 NA 0.0000 UP 6000 3770 0 0 0
2016/03/18 18:44:00 BASE 11.05 189 13.48 195 -1.5 65 -7.3 112 275 984.3 NA 0.0000 HZ 7000 4330 0 0 0
2016/03/18 18:45:00 BASE 11.33 189 13.48 195 -1.5 65 -7.3 111 276 984.3 NA 0.0000 HZ 7000 3810 4400 5150 0
2016/03/18 18:46:00 BASE 11.14 192 13.48 195 -1.5 64 -7.3 102 257 984.3 NA 0.0000 HZ 7000 3510 0 0 0
2016/03/18 18:47:00 BASE 10.23 191 13.48 195 -1.5 64 -7.4 111 275 984.4 NA 0.0000 HZ 8000 3710 4270 0 0
2016/03/18 18:48:00 BASE 9.92 191 13.38 196 -1.5 64 -7.5 138 328 984.4 NA 0.0000 HZ 7000 3610 0 0 0
2016/03/18 18:49:00 BASE 10.23 191 12.66 206 -1.5 63 -7.6 156 366 984.4 NA 0.0000 HZ 7000 3640 0 0 0
2016/03/18 18:50:00 BASE 10.69 191 12.66 206 -1.5 63 -7.6 157 367 984.3 NA 0.0000 HZ 6000 4170 0 0 0
2016/03/18 18:51:00 BASE 10.84 191 13.22 204 -1.5 63 -7.7 161 376 984.4 NA 0.0000 HZ 6000 4000 4360 0 0
2016/03/18 18:52:00 BASE 11.20 195 13.22 204 -1.5 63 -7.7 217 490 984.4 NA 0.0000 HZ 7000 3610 0 0 0
2016/03/18 18:53:00 BASE 10.58 189 13.22 204 -1.5 63 -7.7 164 383 984.4 NA 0.0000 HZ 8000 3510 0 0 0
2016/03/18 18:54:00 BASE 9.07 184 13.22 204 -1.5 63 -7.6 167 388 984.5 NA 0.0000 HZ 7000 3970 4950 0 0
2016/03/18 18:55:00 BASE 9.09 184 13.22 204 -1.4 64 -7.5 162 380 984.4 NA 0.0000 HZ 6000 2920 3810 0 0
2016/03/18 18:56:00 BASE 9.02 182 13.22 204 -1.4 64 -7.3 156 367 984.4 NA 0.0000 HZ 6000 2890 4070 0 0
2016/03/18 18:57:00 BASE 9.15 180 13.22 204 -1.4 65 -7.2 143 341 984.4 NA 0.0000 HZ 6000 3540 0 0 0
2016/03/18 18:58:00 BASE 9.23 175 13.22 204 -1.4 65 -7.1 148 350 984.5 NA 0.0000 HZ 7000 3580 0 0 0
2016/03/18 18:59:00 BASE 9.57 175 13.22 204 -1.4 65 -7.1 155 365 984.4 NA 0.0000 HZ 7000 2950 3610 0 0
2016/03/18 19:00:00 BASE 10.74 181 13.22 204 -1.4 65 -7.1 153 362 984.4 NA 0.0000 HZ 7000 2950 3740 0 0
2016/03/18 19:01:00 BASE 11.21 189 13.02 197 -1.4 65 -7.1 159 371 984.4 NA 0.0000 HZ 7000 2920 3940 0 0
2016/03/18 19:02:00 BASE 11.08 194 12.14 196 -1.4 65 -7.1 168 387 984.4 NA 0.0000 HZ 6000 2950 4330 0 0
2016/03/18 19:03:00 BASE 10.33 193 12.14 196 -1.5 65 -7.2 183 417 984.4 NA 0.0000 HZ 6000 4360 0 0 0
2016/03/18 19:04:00 BASE 9.01 175 12.14 196 -1.5 65 -7.2 322 680 984.5 NA 0.0000 HZ 6000 3940 0 0 0
2016/03/18 19:05:00 BASE 9.07 175 12.14 196 -1.4 65 -7.1 509 998 984.4 NA 0.0000 HZ 6000 4270 0 0 0
2016/03/18 19:06:00 BASE 10.08 192 12.14 196 -1.4 65 -7.1 558 1094 984.4 NA 0.0000 HZ 7000 3310 4070 0 0
2016/03/18 19:07:00 BASE 10.45 193 12.14 196 -1.4 66 -7.0 575 1129 984.4 NA 0.0000 HZ 9000 2920 0 0 0
2016/03/18 19:08:00 BASE 9.97 188 12.14 196 -1.4 66 -6.9 563 1105 984.5 NA 0.0000 HZ 9000 2760 0 0 0
2016/03/18 19:09:00 BASE 9.58 188 12.14 196 -1.4 66 -6.9 548 1075 984.4 NA 0.0000 HZ 9000 2690 0 0 0
2016/03/18 19:10:00 BASE 9.20 183 12.09 200 -1.3 66 -6.9 354 753 984.5 NA 0.0000 HZ 9000 2620 0 0 0
2016/03/18 19:11:00 BASE 9.04 182 11.78 197 -1.3 66 -6.8 280 607 984.4 NA 0.0000 HZ 9000 2490 0 0 0
2016/03/18 19:12:00 BASE 9.41 174 11.78 197 -1.3 66 -6.8 212 481 984.4 NA 0.0000 HZ 9000 2720 4130 0 0
2016/03/18 19:13:00 BASE 9.72 174 11.78 197 -1.3 66 -6.8 227 510 984.3 NA 0.0000 HZ 8000 2560 0 0 0
2016/03/18 19:14:00 BASE 9.53 175 11.78 197 -1.3 66 -6.8 228 507 984.4 NA 0.0000 HZ 6000 3080 4230 0 0
2016/03/18 19:15:00 BASE 8.93 175 11.78 197 -1.3 66 -6.7 240 527 984.4 NA 0.0000 HZ 6000 4560 0 0 0
2016/03/18 19:16:00 BASE 9.13 176 11.78 197 -1.3 67 -6.7 224 499 984.4 NA 0.0000 HZ 6000 3020 4490 0 0
2016/03/18 19:17:00 BASE 9.56 176 11.57 184 -1.3 67 -6.7 199 451 984.4 NA 0.0000 HZ 6000 2590 0 0 0
2016/03/18 19:18:00 BASE 9.39 178 11.57 184 -1.3 67 -6.6 157 365 984.4 NA 0.0000 HZ 6000 2660 5280 0 0
2016/03/18 19:19:00 BASE 8.70 181 11.57 184 -1.3 67 -6.6 301 639 984.4 NA 0.0000 HZ 6000 4950 0 0 0
2016/03/18 19:20:00 BASE 8.38 182 11.57 184 -1.3 67 -6.6 445 871 984.4 NA 0.0000 HZ 6000 0 0 0 0
2016/03/18 19:21:00 BASE 8.54 184 11.57 184 -1.3 67 -6.6 428 849 984.4 NA 0.0000 HZ 5000 4890 0 0 0
2016/03/18 19:22:00 BASE 9.08 179 11.32 191 -1.3 67 -6.6 498 967 984.4 NA 0.0000 HZ 5000 3450 5090 0 0
2016/03/18 19:23:00 BASE 9.54 177 11.21 184 -1.3 67 -6.7 485 943 984.4 NA 0.0000 HZ 7000 2760 3410 0 0
2016/03/18 19:24:00 BASE 9.81 177 11.21 184 -1.3 66 -6.7 459 893 984.4 NA 0.0000 HZ 8000 2620 5350 0 0
2016/03/18 19:25:00 BASE 9.44 184 11.21 184 -1.3 66 -6.8 437 849 984.4 NA 0.0000 HZ 8000 3220 0 0 0
2016/03/18 19:26:00 BASE 9.38 179 11.11 181 -1.3 66 -6.8 419 816 984.4 NA 0.0000 HZ 8000 2690 5090 0 0
2016/03/18 19:27:00 BASE 9.68 172 11.11 181 -1.3 65 -6.9 334 676 984.4 NA 0.0000 HZ 7000 2820 5320 0 0
2016/03/18 19:28:00 BASE 9.29 172 11.11 181 -1.3 65 -6.9 113 280 984.4 NA 0.0000 HZ 6000 2720 0 0 0
2016/03/18 19:29:00 BASE 9.76 182 11.21 196 -1.3 66 -6.9 109 269 984.4 NA 0.0000 HZ 6000 2920 3510 0 0
2016/03/18 19:30:00 BASE 10.34 191 11.21 196 -1.3 65 -7.0 102 257 984.4 NA 0.0000 HZ 6000 3120 4790 0 0
2016/03/18 19:31:00 BASE 9.68 187 11.21 196 -1.3 65 -7.0 90 231 984.4 NA 0.0000 HZ 7000 2620 3900 0 0
2016/03/18 19:32:00 BASE 8.99 187 11.21 196 -1.4 66 -7.0 80 211 984.4 NA 0.0000 HZ 6000 2590 0 0 0
2016/03/18 19:33:00 BASE 8.17 182 11.21 196 -1.4 66 -7.0 70 189 984.4 NA 0.0000 HZ 6000 2720 4360 0 0
2016/03/18 19:34:00 BASE 7.63 179 11.21 196 -1.4 66 -7.0 66 180 984.4 NA 0.0000 HZ 6000 3020 4360 0 0
2016/03/18 19:35:00 BASE 7.76 179 11.21 196 -1.4 66 -6.9 68 184 984.4 NA 0.0000 HZ 6000 2820 4100 0 0
2016/03/18 19:36:00 BASE 8.09 176 11.21 196 -1.4 67 -6.8 68 185 984.5 NA 0.0000 HZ 6000 2590 3940 0 0
2016/03/18 19:37:00 BASE 8.04 176 11.21 196 -1.4 67 -6.8 65 178 984.5 NA 0.0000 HZ 6000 3610 20930 21330 0
2016/03/18 19:38:00 BASE 8.36 177 11.21 196 -1.4 67 -6.7 61 170 984.4 NA 0.0000 HZ 5000 3540 0 0 0
2016/03/18 19:39:00 BASE 8.96 177 10.91 195 -1.4 67 -6.7 60 169 984.4 NA 0.0000 HZ 6000 3670 4270 0 0
2016/03/18 19:40:00 BASE 8.79 192 10.70 201 -1.5 67 -6.7 63 177 984.4 NA 0.0000 HZ 6000 3670 0 0 0
2016/03/18 19:41:00 BASE 8.83 186 10.70 201 -1.5 67 -6.7 70 190 984.4 NA 0.0000 HZ 7000 3310 0 0 0
2016/03/18 19:42:00 BASE 8.48 177 10.70 201 -1.5 67 -6.8 73 196 984.5 NA 0.0000 HZ 6000 3310 0 0 0
2016/03/18 19:43:00 BASE 6.84 177 10.70 201 -1.5 67 -6.8 66 183 984.5 NA 0.0000 HZ 6000 3350 6370 0 0
2016/03/18 19:44:00 BASE 6.29 188 10.70 201 -1.5 67 -6.8 62 172 984.5 NA 0.0000 HZ 6000 3310 0 0 0
2016/03/18 19:45:00 BASE 7.16 190 10.70 201 -1.5 67 -6.8 63 172 984.5 NA 0.0000 HZ 6000 4330 4950 0 0
2016/03/18 19:46:00 BASE 7.44 180 10.70 201 -1.5 68 -6.7 57 162 984.5 NA 0.0000 HZ 6000 2560 3770 0 0
2016/03/18 19:47:00 BASE 6.89 161 10.70 201 -1.5 68 -6.7 60 167 984.5 NA 0.0000 HZ 6000 2660 3250 0 0
2016/03/18 19:48:00 BASE 5.90 161 9.93 201 -1.5 68 -6.6 68 183 984.5 NA 0.0000 HZ 5000 2660 3410 0 0
2016/03/18 19:49:00 BASE 6.11 175 9.41 204 -1.5 68 -6.6 78 202 984.5 NA 0.0000 HZ 6000 3380 0 0 0
2016/03/18 19:50:00 BASE 6.66 177 9.41 204 -1.5 68 -6.6 78 201 984.5 NA 0.0000 HZ 6000 2490 3510 0 0
2016/03/18 19:51:00 BASE 6.29 168 9.05 193 -1.5 68 -6.6 73 191 984.6 NA 0.0000 HZ 6000 2620 3540 0 0
2016/03/18 19:52:00 BASE 6.54 168 8.59 195 -1.5 68 -6.7 70 183 984.5 NA 0.0000 HZ 6000 3450 4530 0 0
2016/03/18 19:53:00 BASE 7.24 183 8.59 195 -1.6 68 -6.7 68 177 984.6 NA 0.0000 HZ 6000 3350 0 0 0
2016/03/18 19:54:00 BASE 7.38 196 8.59 195 -1.6 68 -6.7 68 175 984.6 NA 0.0000 HZ 6000 3150 0 0 0
2016/03/18 19:55:00 BASE 7.82 196 9.57 214 -1.6 68 -6.7 71 182 984.5 NA 0.0000 HZ 6000 2760 0 0 0
2016/03/18 19:56:00 BASE 8.00 204 9.57 214 -1.6 68 -6.7 119 274 984.5 NA 0.0000 HZ 6000 2990 0 0 0
2016/03/18 19:57:00 BASE 7.72 191 9.57 214 -1.6 68 -6.7 73 186 984.5 NA 0.0000 HZ 6000 2760 0 0 0
2016/03/18 19:58:00 BASE 7.98 182 9.57 214 -1.5 68 -6.7 71 183 984.5 NA 0.0000 HZ 6000 2560 0 0 0
2016/03/18 19:59:00 BASE 8.59 181 9.57 214 -1.5 68 -6.7 73 184 984.5 NA 0.0000 HZ 6000 2560 0 0 0
2016/03/18 20:00:00 BASE 8.01 176 9.57 214 -1.5 68 -6.6 84 204 984.6 NA 0.0000 HZ 6000 2590 0 0 0
2016/03/18 20:01:00 BASE 6.76 176 9.57 214 -1.5 68 -6.7 90 215 984.6 NA 0.0000 HZ 6000 2660 4460 0 0
2016/03/18 20:02:00 BASE 6.45 185 9.57 214 -1.5 68 -6.7 83 202 984.6 NA 0.0000 HZ 6000 3810 4630 0 0
2016/03/18 20:03:00 BASE 6.33 176 9.57 214 -1.6 68 -6.7 82 200 984.6 NA 0.0000 HZ 6000 2820 3740 0 0
2016/03/18 20:04:00 BASE 6.43 165 9.57 214 -1.6 68 -6.6 95 224 984.6 NA 0.0000 HZ 6000 3080 0 0 0
2016/03/18 20:05:00 BASE 6.44 165 9.52 192 -1.6 68 -6.7 112 257 984.6 NA 0.0000 HZ 6000 2760 0 0 0
2016/03/18 20:06:00 BASE 5.42 184 9.52 192 -1.6 68 -6.7 103 240 984.7 NA 0.0000 HZ 6000 2690 4040 0 0
2016/03/18 20:07:00 BASE 5.11 187 9.52 192 -1.6 69 -6.6 99 235 984.6 NA 0.0000 HZ 6000 2760 0 0 0
2016/03/18 20:08:00 BASE 5.19 175 9.52 192 -1.6 69 -6.6 110 254 984.6 NA 0.0000 HZ 6000 2720 0 0 0
2016/03/18 20:09:00 BASE 4.84 175 8.75 190 -1.5 69 -6.5 116 265 984.6 NA 0.0000 HZ 5000 4360 0 0 0
2016/03/18 20:10:00 BASE 4.87 181 7.72 177 -1.5 69 -6.5 107 247 984.6 NA 0.0000 HZ 6000 2660 0 0 0
2016/03/18 20:11:00 BASE 4.95 175 7.72 177 -1.5 69 -6.4 90 214 984.6 NA 0.0000 HZ 6000 2560 0 0 0
2016/03/18 20:12:00 BASE 5.08 175 7.72 177 -1.5 69 -6.4 80 196 984.6 NA 0.0000 HZ 6000 4430 0 0 0
2016/03/18 20:13:00 BASE 5.47 195 7.72 177 -1.5 69 -6.4 77 187 984.6 NA 0.0000 HZ 6000 4300 4860 0 0
2016/03/18 20:14:00 BASE 6.36 194 7.77 201 -1.5 69 -6.5 71 177 984.6 NA 0.0000 HZ 6000 2690 3900 4720 0
2016/03/18 20:15:00 BASE 7.27 186 8.33 198 -1.6 69 -6.5 69 170 984.5 NA 0.0000 HZ 6000 2590 4000 0 0
2016/03/18 20:16:00 BASE 6.73 176 8.33 198 -1.6 69 -6.6 64 161 984.6 NA 0.0000 HZ 6000 2690 3840 0 0
2016/03/18 20:17:00 BASE 6.34 176 8.33 198 -1.6 68 -6.6 53 138 984.6 NA 0.0000 HZ 6000 3610 4790 0 0
2016/03/18 20:18:00 BASE 6.86 181 8.33 198 -1.6 68 -6.7 49 127 984.6 NA 0.0000 HZ 6000 2620 3410 0 0
2016/03/18 20:19:00 BASE 7.12 181 8.33 198 -1.6 68 -6.7 51 132 984.6 NA 0.0000 HZ 6000 2490 3080 0 0
2016/03/18 20:20:00 BASE 7.24 185 8.33 198 -1.6 68 -6.7 58 148 984.6 NA 0.0000 HZ 6000 2620 3220 0 0
2016/03/18 20:21:00 BASE 6.53 194 8.33 198 -1.6 69 -6.6 68 166 984.7 NA 0.0000 HZ 6000 2590 3120 4530 0
2016/03/18 20:22:00 BASE 6.89 193 8.80 201 -1.6 69 -6.5 70 170 984.6 NA 0.0000 HZ 6000 2560 4760 0 0
2016/03/18 20:23:00 BASE 7.54 184 8.80 201 -1.6 69 -6.5 63 158 984.6 NA 0.0000 HZ 6000 3220 4790 0 0
2016/03/18 20:24:00 BASE 6.76 179 8.80 201 -1.6 69 -6.5 68 168 984.7 NA 0.0000 HZ 6000 2460 3480 0 0
2016/03/18 20:25:00 BASE 6.28 179 8.80 201 -1.5 69 -6.4 74 178 984.7 NA 0.0000 HZ 6000 2790 4530 0 0
2016/03/18 20:26:00 BASE 6.70 182 8.80 201 -1.5 70 -6.4 71 174 984.7 NA 0.0000 HZ 6000 4400 4990 19690 0
2016/03/18 20:27:00 BASE 7.10 191 8.80 201 -1.5 69 -6.4 62 159 984.7 NA 0.0000 HZ 6000 2760 0 0 0
2016/03/18 20:28:00 BASE 6.63 196 8.80 201 -1.5 69 -6.4 50 137 984.7 NA 0.0000 HZ 6000 2620 0 0 0
2016/03/18 20:29:00 BASE 6.92 199 8.80 201 -1.5 69 -6.4 44 125 984.7 NA 0.0000 HZ 6000 2850 4490 0 0
2016/03/18 20:30:00 BASE 8.05 192 9.16 194 -1.5 69 -6.4 43 121 984.6 NA 0.0000 HZ 6000 4330 0 0 0
2016/03/18 20:31:00 BASE 8.12 184 9.16 194 -1.5 69 -6.5 41 116 984.6 NA 0.0000 HZ 6000 5180 0 0 0
2016/03/18 20:32:00 BASE 8.02 184 9.16 194 -1.5 69 -6.6 37 109 984.6 NA 0.0000 HZ 6000 4950 0 0 0
2016/03/18 20:33:00 BASE 7.68 190 9.16 194 -1.6 68 -6.7 33 100 984.7 NA 0.0000 HZ 6000 4530 4990 0 0
2016/03/18 20:34:00 BASE 6.89 190 9.16 194 -1.6 68 -6.7 30 93 984.7 NA 0.0000 HZ 6000 4630 0 0 0
2016/03/18 20:35:00 BASE 6.63 192 9.16 194 -1.6 67 -6.8 30 91 984.7 NA 0.0000 HZ 6000 4560 0 0 0
2016/03/18 20:36:00 BASE 6.49 190 9.16 194 -1.6 67 -6.9 30 89 984.7 NA 0.0000 HZ 6000 4560 0 0 0
2016/03/18 20:37:00 BASE 7.00 190 9.16 194 -1.6 67 -6.9 30 86 984.7 NA 0.0000 HZ 6000 4690 0 0 0
2016/03/18 20:38:00 BASE 8.08 193 9.16 208 -1.6 67 -6.8 29 83 984.7 NA 0.0000 HZ 6000 4230 0 0 0
2016/03/18 20:39:00 BASE 8.10 195 9.16 208 -1.5 67 -6.8 28 82 984.7 NA 0.0000 HZ 6000 4040 0 0 0
2016/03/18 20:40:00 BASE 8.15 195 9.67 206 -1.5 67 -6.8 27 79 984.6 NA 0.0000 HZ 6000 3900 0 0 0
2016/03/18 20:41:00 BASE 8.41 194 9.67 206 -1.5 67 -6.8 26 76 984.7 NA 0.0000 HZ 6000 3840 0 0 0
2016/03/18 20:42:00 BASE 8.50 194 9.98 203 -1.5 67 -6.8 26 75 984.7 NA 0.0000 HZ 6000 3510 0 0 0
2016/03/18 20:43:00 BASE 9.10 196 10.19 214 -1.5 67 -6.8 26 75 984.7 NA 0.0000 HZ 6000 3280 0 0 0
2016/03/18 20:44:00 BASE 9.23 201 10.19 214 -1.5 67 -6.8 25 73 984.7 NA 0.0000 HZ 5000 3220 0 0 0
2016/03/18 20:45:00 BASE 8.75 203 10.19 214 -1.5 67 -6.8 25 72 984.7 NA 0.0000 UP 5000 3480 0 0 0
2016/03/18 20:46:00 BASE 8.57 197 10.19 214 -1.5 67 -6.8 25 71 984.6 NA 0.0000 UP 6000 3640 0 0 0
2016/03/18 20:47:00 BASE 8.03 194 10.19 214 -1.5 67 -6.8 26 73 984.7 NA 0.0000 UP 6000 2720 3310 4270 0
2016/03/18 20:48:00 BASE 7.94 194 10.19 214 -1.5 67 -6.8 26 71 984.7 NA 0.0000 UP 6000 3350 0 0 0
2016/03/18 20:49:00 BASE 8.58 201 10.19 214 -1.5 67 -6.8 24 68 984.7 NA 0.0000 UP 6000 3150 0 0 0
2016/03/18 20:50:00 BASE 8.15 198 10.19 214 -1.5 68 -6.7 24 67 984.7 NA 0.0000 UP 6000 2990 0 0 0
2016/03/18 20:51:00 BASE 7.71 198 10.19 214 -1.5 68 -6.6 28 74 984.7 NA 0.0000 UP 6000 2490 0 0 0
2016/03/18 20:52:00 BASE 7.37 199 10.19 214 -1.5 68 -6.5 31 79 984.7 NA 0.0000 UP 6000 2590 0 0 0
2016/03/18 20:53:00 BASE 7.54 191 9.83 209 -1.5 69 -6.4 33 83 984.7 NA 0.0000 UP 6000 2460 3150 0 0
2016/03/18 20:54:00 BASE 8.17 191 10.24 201 -1.4 69 -6.3 38 92 984.7 NA 0.0000 UP 6000 2990 0 0 0
2016/03/18 20:55:00 BASE 8.62 188 10.24 201 -1.4 69 -6.3 40 97 984.7 NA 0.0000 HZ 6000 2890 0 0 0
2016/03/18 20:56:00 BASE 8.45 188 10.24 201 -1.4 69 -6.3 42 101 984.7 NA 0.0000 UP 6000 2760 0 0 0
2016/03/18 20:57:00 BASE 7.62 193 10.24 201 -1.5 69 -6.4 45 108 984.8 NA 0.0000 UP 6000 2620 0 0 0
2016/03/18 20:58:00 BASE 7.33 184 10.24 201 -1.5 69 -6.5 48 113 984.8 NA 0.0000 UP 6000 2660 3640 4100 0
2016/03/18 20:59:00 BASE 6.67 184 10.24 201 -1.5 68 -6.6 50 119 984.8 NA 0.0000 UP 5000 2790 0 0 0
2016/03/18 21:00:00 BASE 5.89 177 10.24 201 -1.5 68 -6.6 53 124 984.8 NA 0.0000 UP 5000 4130 0 0 0
2016/03/18 21:01:00 BASE 6.02 176 10.24 201 -1.5 69 -6.5 61 138 984.8 NA 0.0000 UP 5000 2790 4330 0 0
2016/03/18 21:02:00 BASE 6.54 169 10.24 201 -1.5 69 -6.5 70 154 984.8 NA 0.0000 UP 6000 3870 0 0 0
2016/03/18 21:03:00 BASE 6.69 169 10.24 201 -1.5 69 -6.5 69 154 984.8 NA 0.0000 UP 6000 3450 4000 0 0
2016/03/18 21:04:00 BASE 6.36 180 9.88 196 -1.6 69 -6.5 62 144 984.8 NA 0.0000 UP 5000 3350 22050 0 0
2016/03/18 21:05:00 BASE 6.33 180 8.44 197 -1.6 69 -6.5 56 133 984.7 NA 0.0000 UP 6000 4890 0 0 0
2016/03/18 21:06:00 BASE 5.98 177 8.18 202 -1.6 69 -6.5 50 122 984.8 NA 0.0000 HZ 6000 4820 0 0 0
2016/03/18 21:07:00 BASE 5.40 177 7.97 184 -1.6 69 -6.5 45 112 984.8 NA 0.0000 HZ 6000 4330 0 0 0
2016/03/18 21:08:00 BASE 5.57 180 7.67 183 -1.6 70 -6.4 44 109 984.7 NA 0.0000 HZ 5000 4920 0 0 0
2016/03/18 21:09:00 BASE 6.19 181 7.97 197 -1.6 70 -6.4 41 103 984.7 NA 0.0000 HZ 5000 4040 4860 0 0
2016/03/18 21:10:00 BASE 6.89 184 7.97 197 -1.6 70 -6.4 38 97 984.7 NA 0.0000 HZ 5000 3740 0 0 0
2016/03/18 21:11:00 BASE 6.78 175 7.97 197 -1.7 70 -6.4 36 93 984.7 NA 0.0000 HZ 6000 4170 0 0 0
2016/03/18 21:12:00 BASE 6.07 175 7.97 197 -1.7 70 -6.4 34 89 984.7 NA 0.0000 HZ 6000 4590 0 0 0
2016/03/18 21:13:00 BASE 6.13 176 7.97 197 -1.7 70 -6.5 30 82 984.7 NA 0.0000 HZ 5000 4360 5120 0 0
2016/03/18 21:14:00 BASE 6.31 196 7.97 197 -1.7 70 -6.5 29 78 984.7 NA 0.0000 HZ 6000 4330 0 0 0
2016/03/18 21:15:00 BASE 6.13 196 7.97 197 -1.7 70 -6.5 28 76 984.7 NA 0.0000 HZ 6000 3940 0 0 0
2016/03/18 21:16:00 BASE 5.99 192 7.97 197 -1.7 70 -6.5 26 73 984.7 NA 0.0000 HZ 6000 3450 3970 0 0
2016/03/18 21:17:00 BASE 6.09 192 7.97 197 -1.7 70 -6.4 24 69 984.7 NA 0.0000 HZ 5000 4230 0 0 0
2016/03/18 21:18:00 BASE 6.71 193 8.18 207 -1.7 70 -6.4 24 67 984.7 NA 0.0000 HZ 5000 4100 0 0 0
2016/03/18 21:19:00 BASE 6.74 188 8.18 207 -1.7 71 -6.3 23 67 984.7 NA 0.0000 HZ 6000 3740 4300 0 0
2016/03/18 21:20:00 BASE 5.98 188 8.18 207 -1.7 71 -6.3 24 71 984.7 NA 0.0000 HZ 6000 3180 0 0 0
2016/03/18 21:21:00 BASE 5.22 193 8.18 207 -1.7 71 -6.3 23 70 984.7 NA 0.0000 HZ 5000 3150 0 0 0
2016/03/18 21:22:00 BASE 5.18 193 8.18 207 -1.7 71 -6.3 22 69 984.7 NA 0.0000 HZ 6000 3280 0 0 0
2016/03/18 21:23:00 BASE 5.43 193 8.18 207 -1.6 71 -6.3 20 66 984.7 NA 0.0000 HZ 6000 2990 0 0 0
2016/03/18 21:24:00 BASE 5.34 193 8.18 207 -1.6 71 -6.2 19 64 984.7 NA 0.0000 HZ 5000 5450 0 0 0
2016/03/18 21:25:00 BASE 5.67 183 8.18 207 -1.6 71 -6.2 20 64 984.7 NA 0.0000 HZ 5000 5050 0 0 0
2016/03/18 21:26:00 BASE 5.84 181 8.18 207 -1.6 71 -6.2 19 62 984.8 NA 0.0000 HZ 5000 2660 0 0 0
2016/03/18 21:27:00 BASE 5.51 179 8.18 207 -1.7 71 -6.2 19 59 984.8 NA 0.0000 HZ 6000 2660 0 0 0
2016/03/18 21:28:00 BASE 5.63 179 7.15 201 -1.7 71 -6.3 19 58 984.8 NA 0.0000 HZ 6000 2530 0 0 0
2016/03/18 21:29:00 BASE 6.18 192 7.67 219 -1.7 71 -6.3 17 54 984.7 NA 0.0000 HZ 6000 2620 0 0 0
2016/03/18 21:30:00 BASE 6.40 192 7.67 219 -1.7 71 -6.3 17 52 984.8 NA 0.0000 HZ 6000 2690 0 0 0
2016/03/18 21:31:00 BASE 6.25 192 7.67 219 -1.7 71 -6.2 16 51 984.7 NA 0.0000 HZ 5000 2890 0 0 0
2016/03/18 21:32:00 BASE 5.96 192 7.67 219 -1.7 71 -6.3 15 49 984.8 NA 0.0000 HZ 5000 2460 3540 0 0
2016/03/18 21:33:00 BASE 5.72 194 7.67 219 -1.7 71 -6.3 14 45 984.8 NA 0.0000 HZ 5000 2430 0 0 0
2016/03/18 21:34:00 BASE 6.03 193 7.67 219 -1.7 71 -6.3 13 43 984.8 NA 0.0000 HZ 5000 2400 0 0 0
2016/03/18 21:35:00 BASE 6.17 190 7.67 219 -1.7 71 -6.3 13 43 984.8 NA 0.0000 HZ 6000 2230 0 0 0
2016/03/18 21:36:00 BASE 6.00 183 7.67 219 -1.6 71 -6.3 13 45 984.8 NA 0.0000 HZ 5000 2820 0 0 0
2016/03/18 21:37:00 BASE 6.25 183 7.67 219 -1.6 71 -6.2 13 46 984.8 NA 0.0000 HZ 5000 3150 0 0 0
2016/03/18 21:38:00 BASE 6.06 186 7.67 219 -1.6 71 -6.2 13 47 984.8 NA 0.0000 HZ 5000 3050 4860 0 0
2016/03/18 21:39:00 BASE 5.30 186 7.41 213 -1.6 71 -6.2 13 45 984.8 NA 0.0000 HZ 5000 4170 0 0 0
2016/03/18 21:40:00 BASE 4.89 186 7.41 213 -1.6 71 -6.2 13 44 984.8 NA 0.0000 HZ 5000 3610 0 0 0
2016/03/18 21:41:00 BASE 5.09 181 7.41 213 -1.7 71 -6.2 12 42 984.8 NA 0.0000 HZ 6000 3810 4490 0 0
2016/03/18 21:42:00 BASE 5.76 181 7.41 213 -1.7 71 -6.2 12 40 984.8 NA 0.0000 HZ 6000 2360 0 0 0
2016/03/18 21:43:00 BASE 6.24 188 7.41 213 -1.7 71 -6.3 12 39 984.8 NA 0.0000 HZ 6000 2230 3410 0 0
2016/03/18 21:44:00 BASE 6.51 189 7.41 213 -1.7 71 -6.3 11 38 984.8 NA 0.0000 HZ 6000 2790 0 0 0
2016/03/18 21:45:00 BASE 6.34 185 7.41 213 -1.7 71 -6.3 11 39 984.9 NA 0.0000 HZ 6000 2690 3770 0 0
2016/03/18 21:46:00 BASE 6.29 184 8.28 196 -1.7 71 -6.2 12 40 984.9 NA 0.0000 HZ 6000 2620 0 0 0
2016/03/18 21:47:00 BASE 7.25 184 8.59 208 -1.7 71 -6.2 12 42 984.8 NA 0.0000 HZ 6000 2560 3020 0 0
2016/03/18 21:48:00 BASE 7.51 187 8.59 208 -1.7 71 -6.2 12 43 984.9 NA 0.0000 HZ 6000 3180 4200 0 0
2016/03/18 21:49:00 BASE 6.70 192 8.59 208 -1.6 71 -6.1 13 43 984.9 NA 0.0000 HZ 5000 4270 0 0 0
2016/03/18 21:50:00 BASE 6.15 189 8.59 208 -1.6 71 -6.1 13 45 984.9 NA 0.0000 HZ 5000 4400 0 0 0
2016/03/18 21:51:00 BASE 6.48 189 8.59 208 -1.6 71 -6.2 13 45 984.9 NA 0.0000 HZ 5000 3540 0 0 0
2016/03/18 21:52:00 BASE 6.90 181 8.59 208 -1.6 71 -6.1 13 44 984.9 NA 0.0000 HZ 6000 4100 0 0 0
2016/03/18 21:53:00 BASE 6.26 177 8.59 208 -1.6 71 -6.1 14 45 984.9 NA 0.0000 HZ 6000 5180 0 0 0
2016/03/18 21:54:00 BASE 5.19 177 8.59 208 -1.6 71 -6.1 15 48 984.9 NA 0.0000 HZ 5000 4590 5090 0 0
2016/03/18 21:55:00 BASE 5.15 180 8.59 208 -1.6 72 -6.1 17 50 984.9 NA 0.0000 HZ 6000 4130 0 0 0
2016/03/18 21:56:00 BASE 5.67 189 8.59 208 -1.6 72 -6.0 20 54 984.9 NA 0.0000 HZ 6000 4460 0 0 0
2016/03/18 21:57:00 BASE 5.89 189 8.08 214 -1.6 72 -6.0 20 53 984.9 NA 0.0000 HZ 5000 3120 3810 0 0
2016/03/18 21:58:00 BASE 6.44 193 8.13 193 -1.6 72 -6.1 18 50 984.9 NA 0.0000 HZ 5000 2920 0 0 0
2016/03/18 21:59:00 BASE 6.70 165 8.13 193 -1.7 71 -6.2 20 50 984.9 NA 0.0000 HZ 5000 5480 0 0 0
2016/03/18 22:00:00 BASE 6.52 165 8.13 193 -1.7 71 -6.2 23 52 984.9 NA 0.0000 HZ 5000 2460 3480 0 0
2016/03/18 22:01:00 BASE 6.94 183 8.18 203 -1.7 71 -6.2 23 51 984.9 NA 0.0000 HZ 6000 4820 0 0 0
2016/03/18 22:02:00 BASE 6.67 183 8.18 203 -1.7 71 -6.2 22 48 985.0 NA 0.0000 HZ 6000 4720 0 0 0
2016/03/18 22:03:00 BASE 5.04 177 8.18 203 -1.7 71 -6.2 22 46 985.1 NA 0.0000 HZ 5000 4660 5250 0 0
2016/03/18 22:04:00 BASE 4.68 161 8.18 203 -1.7 71 -6.2 23 45 985.1 NA 0.0000 HZ 5000 2560 5410 0 0
2016/03/18 22:05:00 BASE 4.81 161 8.18 203 -1.7 71 -6.2 24 45 985.1 NA 0.0000 HZ 5000 2560 0 0 0
2016/03/18 22:06:00 BASE 4.75 165 8.18 203 -1.7 71 -6.3 22 42 985.1 NA 0.0000 HZ 5000 2590 0 0 0
2016/03/18 22:07:00 BASE 5.42 172 8.18 203 -1.7 71 -6.3 18 37 985.1 NA 0.0000 HZ 5000 2590 4200 0 0
2016/03/18 22:08:00 BASE 5.08 172 8.18 203 -1.8 71 -6.3 17 36 985.1 NA 0.0000 HZ 6000 2530 0 0 0
2016/03/18 22:09:00 BASE 4.65 176 8.18 203 -1.8 71 -6.3 16 37 985.1 NA 0.0000 HZ 6000 2460 0 0 0
2016/03/18 22:10:00 BASE 4.84 174 8.18 203 -1.8 71 -6.4 15 36 985.2 NA 0.0000 HZ 6000 2430 0 0 0
2016/03/18 22:11:00 BASE 4.70 174 6.94 187 -1.8 71 -6.4 13 33 985.2 NA 0.0000 HZ 5000 2620 0 0 0
2016/03/18 22:12:00 BASE 4.31 165 6.58 201 -1.8 71 -6.4 10 29 985.1 NA 0.0000 HZ 6000 2850 3540 0 0
2016/03/18 22:13:00 BASE 4.22 165 6.58 201 -1.8 71 -6.4 9 27 985.2 NA 0.0000 HZ 6000 2460 0 0 0
2016/03/18 22:14:00 BASE 3.94 169 6.58 201 -1.8 71 -6.4 8 25 985.2 NA 0.0000 HZ 6000 2820 3970 0 0
2016/03/18 22:15:00 BASE 3.57 169 6.58 201 -1.8 71 -6.4 7 24 985.2 NA 0.0000 HZ 5000 2690 0 0 0
2016/03/18 22:16:00 BASE 3.72 159 6.58 201 -1.8 71 -6.4 8 24 985.2 NA 0.0000 HZ 6000 2620 0 0 0
2016/03/18 22:17:00 BASE 3.91 147 5.76 192 -1.8 71 -6.4 8 24 985.2 NA 0.0000 HZ 6000 2790 3940 0 0
2016/03/18 22:18:00 BASE 3.93 147 5.76 192 -1.9 71 -6.4 7 23 985.2 NA 0.0000 HZ 5000 2850 3380 0 0
2016/03/18 22:19:00 BASE 3.76 158 5.61 197 -1.9 71 -6.4 7 22 985.2 NA 0.0000 HZ 5000 2820 0 0 0
2016/03/18 22:20:00 BASE 3.46 158 5.45 198 -1.9 71 -6.5 7 21 985.2 NA 0.0000 HZ 5000 2850 3510 0 0
2016/03/18 22:21:00 BASE 4.05 158 5.35 179 -1.9 71 -6.5 7 20 985.2 NA 0.0000 HZ 6000 4130 0 0 0
2016/03/18 22:22:00 BASE 4.47 162 5.35 179 -1.9 71 -6.5 6 19 985.2 NA 0.0000 HZ 6000 3580 0 0 0
2016/03/18 22:23:00 BASE 4.01 162 5.35 179 -1.9 71 -6.5 6 18 985.2 NA 0.0000 HZ 6000 3810 0 0 0
2016/03/18 22:24:00 BASE 3.77 165 5.35 179 -2.0 71 -6.5 6 17 985.2 NA 0.0000 HZ 6000 4100 0 0 0
2016/03/18 22:25:00 BASE 3.75 163 5.35 179 -2.0 71 -6.5 5 16 985.3 NA 0.0000 HZ 6000 3280 0 0 0
2016/03/18 22:26:00 BASE 4.25 163 5.35 179 -2.0 71 -6.5 5 16 985.2 NA 0.0000 HZ 6000 3280 3940 0 0
2016/03/18 22:27:00 BASE 4.38 171 5.35 179 -2.0 71 -6.6 5 16 985.3 NA 0.0000 HZ 6000 3540 0 0 0
2016/03/18 22:28:00 BASE 4.33 181 5.35 179 -2.0 71 -6.6 5 15 985.3 NA 0.0000 HZ 6000 3480 0 0 0
2016/03/18 22:29:00 BASE 4.42 181 5.35 179 -2.0 71 -6.6 5 14 985.3 NA 0.0000 HZ 6000 3080 0 0 0
2016/03/18 22:30:00 BASE 4.37 180 5.45 186 -2.0 71 -6.6 5 14 985.3 NA 0.0000 HZ 6000 3120 0 0 0
2016/03/18 22:31:00 BASE 4.19 172 5.45 186 -2.0 71 -6.6 5 14 985.3 NA 0.0000 HZ 6000 3050 0 0 0
2016/03/18 22:32:00 BASE 3.65 165 5.45 186 -2.0 71 -6.6 5 13 985.3 NA 0.0000 HZ 6000 3020 0 0 0
2016/03/18 22:33:00 BASE 3.40 165 5.45 186 -2.0 71 -6.6 5 13 985.3 NA 0.0000 HZ 6000 0 0 0 0
2016/03/18 22:34:00 BASE 3.77 165 5.45 186 -2.0 71 -6.6 5 12 985.3 NA 0.0000 HZ 6000 2920 3610 0 0
2016/03/18 22:35:00 BASE 3.87 173 5.45 186 -2.0 71 -6.6 5 11 985.3 NA 0.0000 HZ 5000 2850 0 0 0
2016/03/18 22:36:00 BASE 3.86 188 5.45 186 -2.0 71 -6.6 4 11 985.3 NA 0.0000 HZ 6000 0 0 0 0
2016/03/18 22:37:00 BASE 3.76 177 5.45 186 -2.0 71 -6.6 4 10 985.3 NA 0.0000 HZ 6000 2890 0 0 0
2016/03/18 22:38:00 BASE 3.60 171 5.45 186 -2.0 71 -6.6 4 9 985.3 NA 0.0000 HZ 5000 0 0 0 0
2016/03/18 22:39:00 BASE 3.80 171 5.45 186 -2.0 71 -6.6 4 9 985.3 NA 0.0000 HZ 5000 0 0 0 0
2016/03/18 22:40:00 BASE 4.00 181 4.68 202 -2.0 71 -6.6 4 8 985.3 NA 0.0000 HZ 5000 2690 0 0 0
2016/03/18 22:41:00 BASE 3.87 189 4.68 202 -2.1 71 -6.6 4 8 985.3 NA 0.0000 HZ 5000 0 0 0 0
2016/03/18 22:42:00 BASE 3.48 188 4.68 202 -2.1 71 -6.6 3 7 985.2 NA 0.0000 HZ 5000 3350 0 0 0
2016/03/18 22:43:00 BASE 3.52 188 4.68 202 -2.1 71 -6.7 3 6 985.2 NA 0.0000 HZ 5000 3350 0 0 0
2016/03/18 22:44:00 BASE 3.79 192 4.68 202 -2.1 71 -6.7 3 6 985.2 NA 0.0000 HZ 6000 2760 0 0 0
2016/03/18 22:45:00 BASE 3.83 196 4.68 202 -2.1 71 -6.7 3 5 985.2 NA 0.0000 HZ 5000 2760 0 0 0
2016/03/18 22:46:00 BASE 3.46 180 4.68 202 -2.1 71 -6.7 3 5 985.2 NA 0.0000 HZ 6000 2660 3310 0 0
2016/03/18 22:47:00 BASE 2.84 178 4.68 202 -2.1 71 -6.7 2 5 985.2 NA 0.0000 HZ 5000 3220 0 0 0
2016/03/18 22:48:00 BASE 3.11 178 4.68 202 -2.1 71 -6.7 2 4 985.2 NA 0.0000 HZ 5000 2720 3250 0 0
2016/03/18 22:49:00 BASE 3.28 180 4.68 202 -2.1 71 -6.7 2 4 985.2 NA 0.0000 HZ 5000 2890 0 0 0
2016/03/18 22:50:00 BASE 3.27 188 4.53 213 -2.1 71 -6.7 2 4 985.2 NA 0.0000 HZ 5000 2720 0 0 0
2016/03/18 22:51:00 BASE 3.71 182 4.53 213 -2.1 71 -6.7 2 3 985.2 NA 0.0000 HZ 5000 2820 0 0 0
2016/03/18 22:52:00 BASE 3.71 182 4.53 213 -2.1 71 -6.7 2 3 985.2 NA 0.0000 HZ 6000 3180 0 0 0
2016/03/18 22:53:00 BASE 3.73 191 4.53 213 -2.1 71 -6.7 2 3 985.2 NA 0.0000 HZ 6000 0 0 0 0
2016/03/18 22:54:00 BASE 3.93 186 4.48 196 -2.1 71 -6.7 2 3 985.2 NA 0.0000 HZ 6000 0 0 0 0
2016/03/18 22:55:00 BASE 4.06 186 4.48 196 -2.1 71 -6.7 1 2 985.2 NA 0.0000 HZ 6000 2920 0 0 0
2016/03/18 22:56:00 BASE 4.18 191 5.14 199 -2.1 71 -6.7 1 2 985.2 NA 0.0000 HZ 5000 3150 6460 0 0
2016/03/18 22:57:00 BASE 4.44 191 5.25 209 -2.1 71 -6.7 1 2 985.2 NA 0.0000 HZ 5000 2990 6430 0 0
2016/03/18 22:58:00 BASE 4.23 200 5.25 209 -2.1 71 -6.7 1 2 985.2 NA 0.0000 HZ 6000 2660 0 0 0
2016/03/18 22:59:00 BASE 3.77 196 5.25 209 -2.1 71 -6.7 1 2 985.2 NA 0.0000 HZ 6000 2660 0 0 0
2016/03/18 23:00:00 BASE 3.84 193 5.25 209 -2.1 71 -6.7 1 1 985.2 NA 0.0000 HZ 6000 2590 0 0 0
2016/03/18 23:01:00 BASE 4.20 193 5.25 209 -2.1 71 -6.6 1 1 985.2 NA 0.0000 HZ 8000 2620 6460 0 0
2016/03/18 23:02:00 BASE 5.01 194 7.15 200 -2.1 71 -6.6 1 1 985.1 NA 0.0000 HZ 7000 6500 0 0 0
2016/03/18 23:03:00 BASE 5.99 197 7.15 200 -2.0 71 -6.6 1 1 985.1 NA 0.0000 HZ 8000 0 0 0 0
2016/03/18 23:04:00 BASE 5.42 185 7.15 200 -2.0 71 -6.6 1 1 985.1 NA 0.0000 HZ 8000 0 0 0 0
2016/03/18 23:05:00 BASE 4.50 185 7.15 200 -2.0 71 -6.6 1 1 985.1 NA 0.0000 HZ 8000 2560 0 0 0
2016/03/18 23:06:00 BASE 4.38 179 7.15 200 -2.0 71 -6.6 0 1 985.1 NA 0.0000 HZ 8000 2490 0 0 0
2016/03/18 23:07:00 BASE 4.55 179 7.15 200 -2.0 71 -6.5 0 1 985.1 NA 0.0000 HZ 8000 2530 3180 0 0
2016/03/18 23:08:00 BASE 4.72 192 7.15 200 -2.0 71 -6.5 0 0 985.1 NA 0.0000 HZ 7000 2720 3250 0 0
2016/03/18 23:09:00 BASE 4.71 186 7.15 200 -2.0 71 -6.5 0 0 985.1 NA 0.0000 HZ 7000 0 0 0 0
2016/03/18 23:10:00 BASE 5.29 186 7.15 200 -1.9 71 -6.5 0 0 985.1 NA 0.0000 HZ 8000 0 0 0 0
2016/03/18 23:11:00 BASE 5.67 194 7.15 200 -1.9 71 -6.5 0 0 985.1 NA 0.0000 HZ 8000 0 0 0 0
2016/03/18 23:12:00 BASE 5.19 182 7.05 208 -1.9 71 -6.5 0 0 985.1 NA 0.0000 HZ 8000 2620 0 0 0
2016/03/18 23:13:00 BASE 4.99 182 6.69 201 -1.9 71 -6.5 0 0 985.1 NA 0.0000 HZ 8000 2530 0 0 0
2016/03/18 23:14:00 BASE 6.11 185 7.92 193 -1.9 71 -6.5 0 0 985.1 NA 0.0000 HZ 8000 2560 0 0 0
2016/03/18 23:15:00 BASE 6.68 191 7.92 193 -1.9 71 -6.5 0 0 985.1 NA 0.0000 HZ 8000 2460 0 0 0
2016/03/18 23:16:00 BASE 6.08 187 7.92 193 -1.9 71 -6.5 0 0 985.1 NA 0.0000 HZ 8000 2460 0 0 0
2016/03/18 23:17:00 BASE 5.63 187 7.92 193 -1.9 70 -6.5 0 0 985.1 NA 0.0000 HZ 8000 2490 0 0 0
2016/03/18 23:18:00 BASE 5.53 187 7.92 193 -1.8 70 -6.5 0 0 985.1 NA 0.0000 HZ 8000 2490 3180 0 0
2016/03/18 23:19:00 BASE 5.55 187 7.92 193 -1.8 70 -6.5 0 0 985.1 NA 0.0000 HZ 7000 2430 0 0 0
2016/03/18 23:20:00 BASE 5.40 188 7.92 193 -1.8 70 -6.5 0 0 985.2 NA 0.0000 HZ 7000 2560 0 0 0
2016/03/18 23:21:00 BASE 5.30 188 7.92 193 -1.8 70 -6.4 0 0 985.2 NA 0.0000 HZ 8000 2430 0 0 0
2016/03/18 23:22:00 BASE 5.50 188 7.92 193 -1.8 70 -6.4 0 0 985.2 NA 0.0000 HZ 8000 2460 0 0 0
2016/03/18 23:23:00 BASE 5.62 173 7.92 193 -1.8 70 -6.5 0 0 985.2 NA 0.0000 HZ 8000 2400 0 0 0
2016/03/18 23:24:00 BASE 5.54 173 6.84 201 -1.8 70 -6.5 0 0 985.2 NA 0.0000 HZ 8000 0 0 0 0
2016/03/18 23:25:00 BASE 5.68 177 6.84 198 -1.8 70 -6.5 0 0 985.2 NA 0.0000 HZ 8000 2760 0 0 0
2016/03/18 23:26:00 BASE 5.82 181 6.84 198 -1.8 70 -6.6 0 0 985.3 NA 0.0000 HZ 8000 2430 3020 0 0
2016/03/18 23:27:00 BASE 5.32 181 6.84 198 -1.8 70 -6.6 0 0 985.3 NA 0.0000 HZ 8000 2400 0 0 0
2016/03/18 23:28:00 BASE 4.91 176 6.84 198 -1.8 70 -6.6 0 0 985.3 NA 0.0000 HZ 8000 2490 3350 6230 0
2016/03/18 23:29:00 BASE 5.29 174 6.84 198 -1.8 70 -6.6 0 0 985.3 NA 0.0000 HZ 8000 6140 0 0 0
2016/03/18 23:30:00 BASE 5.61 174 6.84 198 -1.8 70 -6.6 0 0 985.3 NA 0.0000 HZ 8000 3120 6170 0 0
2016/03/18 23:31:00 BASE 5.82 179 6.84 198 -1.8 70 -6.6 0 0 985.3 NA 0.0000 HZ 8000 2590 3250 0 0
2016/03/18 23:32:00 BASE 5.33 167 6.84 198 -1.8 70 -6.6 0 0 985.3 NA 0.0000 HZ 8000 2430 0 0 0
2016/03/18 23:33:00 BASE 4.55 166 6.84 198 -1.8 70 -6.5 0 0 985.3 NA 0.0000 HZ 8000 2760 6000 0 0
2016/03/18 23:34:00 BASE 4.04 160 6.84 198 -1.8 70 -6.5 0 0 985.3 NA 0.0000 HZ 8000 2920 6040 0 0
2016/03/18 23:35:00 BASE 3.45 160 6.58 193 -1.8 70 -6.5 0 0 985.3 NA 0.0000 HZ 8000 2660 0 0 0
2016/03/18 23:36:00 BASE 2.98 154 6.58 193 -1.8 70 -6.5 0 0 985.3 NA 0.0000 HZ 8000 2560 0 0 0
2016/03/18 23:37:00 BASE 2.62 154 6.58 193 -1.9 70 -6.5 0 0 985.3 NA 0.0000 HZ 8000 2460 2990 0 0
2016/03/18 23:38:00 BASE 2.82 153 6.58 193 -1.9 70 -6.6 0 0 985.3 NA 0.0000 HZ 8000 2400 0 0 0
2016/03/18 23:39:00 BASE 3.32 153 6.58 193 -1.9 70 -6.6 0 0 985.3 NA 0.0000 HZ 7000 0 0 0 0
2016/03/18 23:40:00 BASE 3.68 154 6.58 193 -1.9 70 -6.7 0 0 985.3 NA 0.0000 HZ 8000 2760 0 0 0
2016/03/18 23:41:00 BASE 3.78 147 5.35 167 -1.9 70 -6.7 0 0 985.3 NA 0.0000 HZ 8000 2720 0 0 0
2016/03/18 23:42:00 BASE 3.33 124 5.14 166 -1.9 70 -6.7 0 0 985.3 NA 0.0000 HZ 8000 2590 0 0 0
2016/03/18 23:43:00 BASE 3.30 124 4.89 169 -2.0 70 -6.7 0 0 985.3 NA 0.0000 HZ 8000 2530 3350 0 0
2016/03/18 23:44:00 BASE 3.46 150 4.89 169 -2.0 70 -6.7 0 0 985.4 NA 0.0000 HZ 8000 2590 0 0 0
2016/03/18 23:45:00 BASE 3.39 150 4.89 169 -2.0 70 -6.7 0 0 985.4 NA 0.0000 HZ 7000 2560 0 0 0
2016/03/18 23:46:00 BASE 3.51 141 4.89 169 -2.0 70 -6.7 0 0 985.4 NA 0.0000 HZ 7000 2330 0 0 0
2016/03/18 23:47:00 BASE 3.44 139 4.89 169 -2.0 70 -6.7 0 0 985.4 NA 0.0000 HZ 7000 2330 0 0 0
2016/03/18 23:48:00 BASE 3.08 139 4.89 169 -2.0 70 -6.7 0 0 985.4 NA 0.0000 HZ 8000 2330 2820 0 0
2016/03/18 23:49:00 BASE 2.78 126 4.53 159 -2.0 70 -6.8 0 0 985.4 NA 0.0000 HZ 8000 2720 0 0 0
2016/03/18 23:50:00 BASE 2.62 126 4.53 159 -2.0 70 -6.8 0 0 985.4 NA 0.0000 HZ 8000 2360 0 0 0
2016/03/18 23:51:00 BASE 2.64 138 3.91 153 -2.1 70 -6.8 0 0 985.4 NA 0.0000 HZ 8000 2400 0 0 0
2016/03/18 23:52:00 BASE 2.65 148 3.91 153 -2.1 70 -6.8 0 0 985.4 NA 0.0000 HZ 8000 2360 0 0 0
2016/03/18 23:53:00 BASE 2.38 147 3.81 160 -2.1 70 -6.8 0 0 985.4 NA 0.0000 HZ 8000 2300 0 0 0
2016/03/18 23:54:00 BASE 2.47 147 3.76 154 -2.1 70 -6.8 0 0 985.4 NA 0.0000 HZ 7000 2230 2990 0 0
2016/03/18 23:55:00 BASE 2.68 145 3.76 154 -2.1 70 -6.8 0 0 985.4 NA 0.0000 HZ 7000 2590 0 0 0
2016/03/18 23:56:00 BASE 2.54 145 3.76 154 -2.1 70 -6.8 0 0 985.4 NA 0.0000 HZ 8000 2590 0 0 0
2016/03/18 23:57:00 BASE 2.43 150 3.45 166 -2.1 70 -6.9 0 0 985.4 NA 0.0000 HZ 8000 2590 0 0 0
2016/03/18 23:58:00 BASE 2.31 150 3.45 166 -2.1 70 -6.9 0 0 985.4 NA 0.0000 HZ 8000 2530 0 0 0
2016/03/18 23:59:00 BASE 2.17 150 3.45 166 -2.2 70 -6.9 0 0 985.4 NA 0.0000 HZ 8000 2850 0 0 0